<?xml version="1.0" encoding="UTF-8" standalone="no" ?>
<gpx xmlns="http://www.topografix.com/GPX/1/1" xmlns:xsi="http://www.w3.org/2001/XMLSchema-instance" xsi:schemaLocation="http://www.topografix.com/GPX/1/1 http://www.topografix.com/GPX/1/1/gpx.xsd" version="1.1" creator="VisuGPX - https://www.visugpx.com">
  <metadata>
    <name>Cerisy frene 35 km</name>
  </metadata>
  <trk>
    <name><![CDATA[Cerisy frene 35 km_1]]></name>
    <trkseg>
      <trkpt lat="48.74787" lon="-0.57233">
        <ele>181.8</ele>
        <time>2014-09-01T13:23:20Z</time>
      </trkpt>
      <trkpt lat="48.74788" lon="-0.57235">
        <ele>181.8</ele>
        <time>2014-09-01T13:23:21Z</time>
      </trkpt>
      <trkpt lat="48.74789" lon="-0.57237">
        <ele>181.8</ele>
        <time>2014-09-01T13:23:22Z</time>
      </trkpt>
      <trkpt lat="48.74794" lon="-0.57266">
        <ele>181.6</ele>
        <time>2014-09-01T13:23:31Z</time>
      </trkpt>
      <trkpt lat="48.74795" lon="-0.57268">
        <ele>181.6</ele>
        <time>2014-09-01T13:23:32Z</time>
      </trkpt>
      <trkpt lat="48.74806" lon="-0.57249">
        <ele>181.4</ele>
        <time>2014-09-01T13:23:33Z</time>
      </trkpt>
      <trkpt lat="48.74813" lon="-0.57241">
        <ele>181.4</ele>
        <time>2014-09-01T13:23:34Z</time>
      </trkpt>
      <trkpt lat="48.74821" lon="-0.57232">
        <ele>181.4</ele>
        <time>2014-09-01T13:23:35Z</time>
      </trkpt>
      <trkpt lat="48.74824" lon="-0.57239">
        <ele>181.2</ele>
        <time>2014-09-01T13:23:37Z</time>
      </trkpt>
      <trkpt lat="48.74842" lon="-0.57301">
        <ele>180.8</ele>
        <time>2014-09-01T13:23:52Z</time>
      </trkpt>
      <trkpt lat="48.74883" lon="-0.57343">
        <ele>180.4</ele>
        <time>2014-09-01T13:24:08Z</time>
      </trkpt>
      <trkpt lat="48.74929" lon="-0.57386">
        <ele>180</ele>
        <time>2014-09-01T13:24:24Z</time>
      </trkpt>
      <trkpt lat="48.74946" lon="-0.57396">
        <ele>179.8</ele>
        <time>2014-09-01T13:24:29Z</time>
      </trkpt>
      <trkpt lat="48.74949" lon="-0.57394">
        <ele>179.8</ele>
        <time>2014-09-01T13:24:30Z</time>
      </trkpt>
      <trkpt lat="48.74952" lon="-0.57391">
        <ele>179.8</ele>
        <time>2014-09-01T13:24:31Z</time>
      </trkpt>
      <trkpt lat="48.74953" lon="-0.57387">
        <ele>179.8</ele>
        <time>2014-09-01T13:24:32Z</time>
      </trkpt>
      <trkpt lat="48.74954" lon="-0.57382">
        <ele>179.8</ele>
        <time>2014-09-01T13:24:33Z</time>
      </trkpt>
      <trkpt lat="48.74955" lon="-0.57378">
        <ele>179.8</ele>
        <time>2014-09-01T13:24:34Z</time>
      </trkpt>
      <trkpt lat="48.74979" lon="-0.57289">
        <ele>180.6</ele>
        <time>2014-09-01T13:24:53Z</time>
      </trkpt>
      <trkpt lat="48.74984" lon="-0.57276">
        <ele>181</ele>
        <time>2014-09-01T13:25:01Z</time>
      </trkpt>
      <trkpt lat="48.7499" lon="-0.57274">
        <ele>181.4</ele>
        <time>2014-09-01T13:25:10Z</time>
      </trkpt>
      <trkpt lat="48.74993" lon="-0.57275">
        <ele>181.4</ele>
        <time>2014-09-01T13:25:11Z</time>
      </trkpt>
      <trkpt lat="48.74995" lon="-0.57276">
        <ele>181.4</ele>
        <time>2014-09-01T13:25:12Z</time>
      </trkpt>
      <trkpt lat="48.74998" lon="-0.57279">
        <ele>181.2</ele>
        <time>2014-09-01T13:25:13Z</time>
      </trkpt>
      <trkpt lat="48.75001" lon="-0.57281">
        <ele>181.2</ele>
        <time>2014-09-01T13:25:14Z</time>
      </trkpt>
      <trkpt lat="48.75058" lon="-0.5733">
        <ele>180.8</ele>
        <time>2014-09-01T13:25:32Z</time>
      </trkpt>
      <trkpt lat="48.75098" lon="-0.57366">
        <ele>180.2</ele>
        <time>2014-09-01T13:25:44Z</time>
      </trkpt>
      <trkpt lat="48.7516" lon="-0.57421">
        <ele>179.2</ele>
        <time>2014-09-01T13:26:03Z</time>
      </trkpt>
      <trkpt lat="48.75213" lon="-0.57469">
        <ele>179.2</ele>
        <time>2014-09-01T13:26:19Z</time>
      </trkpt>
      <trkpt lat="48.75243" lon="-0.57506">
        <ele>178.6</ele>
        <time>2014-09-01T13:26:29Z</time>
      </trkpt>
      <trkpt lat="48.75258" lon="-0.57535">
        <ele>177.8</ele>
        <time>2014-09-01T13:26:35Z</time>
      </trkpt>
      <trkpt lat="48.75261" lon="-0.57538">
        <ele>177.8</ele>
        <time>2014-09-01T13:26:36Z</time>
      </trkpt>
      <trkpt lat="48.75265" lon="-0.57541">
        <ele>177.6</ele>
        <time>2014-09-01T13:26:37Z</time>
      </trkpt>
      <trkpt lat="48.75269" lon="-0.57543">
        <ele>177.6</ele>
        <time>2014-09-01T13:26:38Z</time>
      </trkpt>
      <trkpt lat="48.75272" lon="-0.57545">
        <ele>177.6</ele>
        <time>2014-09-01T13:26:39Z</time>
      </trkpt>
      <trkpt lat="48.75276" lon="-0.57548">
        <ele>177.4</ele>
        <time>2014-09-01T13:26:40Z</time>
      </trkpt>
      <trkpt lat="48.75318" lon="-0.57603">
        <ele>176.8</ele>
        <time>2014-09-01T13:26:56Z</time>
      </trkpt>
      <trkpt lat="48.75296" lon="-0.57669">
        <ele>176.6</ele>
        <time>2014-09-01T13:27:10Z</time>
      </trkpt>
      <trkpt lat="48.75302" lon="-0.57723">
        <ele>177</ele>
        <time>2014-09-01T13:27:21Z</time>
      </trkpt>
      <trkpt lat="48.75327" lon="-0.5776">
        <ele>176.8</ele>
        <time>2014-09-01T13:27:32Z</time>
      </trkpt>
      <trkpt lat="48.75359" lon="-0.57792">
        <ele>176.8</ele>
        <time>2014-09-01T13:27:44Z</time>
      </trkpt>
      <trkpt lat="48.7536" lon="-0.57797">
        <ele>176.8</ele>
        <time>2014-09-01T13:27:45Z</time>
      </trkpt>
      <trkpt lat="48.75359" lon="-0.57801">
        <ele>176.8</ele>
        <time>2014-09-01T13:27:46Z</time>
      </trkpt>
      <trkpt lat="48.75359" lon="-0.57805">
        <ele>176.8</ele>
        <time>2014-09-01T13:27:47Z</time>
      </trkpt>
      <trkpt lat="48.75358" lon="-0.57809">
        <ele>177</ele>
        <time>2014-09-01T13:27:48Z</time>
      </trkpt>
      <trkpt lat="48.75357" lon="-0.57813">
        <ele>177</ele>
        <time>2014-09-01T13:27:49Z</time>
      </trkpt>
      <trkpt lat="48.75356" lon="-0.57817">
        <ele>177</ele>
        <time>2014-09-01T13:27:50Z</time>
      </trkpt>
      <trkpt lat="48.75354" lon="-0.57821">
        <ele>177</ele>
        <time>2014-09-01T13:27:51Z</time>
      </trkpt>
      <trkpt lat="48.75343" lon="-0.57848">
        <ele>177</ele>
        <time>2014-09-01T13:27:58Z</time>
      </trkpt>
      <trkpt lat="48.75338" lon="-0.5789">
        <ele>177.8</ele>
        <time>2014-09-01T13:28:09Z</time>
      </trkpt>
      <trkpt lat="48.75337" lon="-0.57895">
        <ele>178.2</ele>
        <time>2014-09-01T13:28:11Z</time>
      </trkpt>
      <trkpt lat="48.75338" lon="-0.57897">
        <ele>178.4</ele>
        <time>2014-09-01T13:28:12Z</time>
      </trkpt>
      <trkpt lat="48.75339" lon="-0.57899">
        <ele>178.8</ele>
        <time>2014-09-01T13:28:13Z</time>
      </trkpt>
      <trkpt lat="48.75341" lon="-0.57901">
        <ele>179.2</ele>
        <time>2014-09-01T13:28:14Z</time>
      </trkpt>
      <trkpt lat="48.75342" lon="-0.57904">
        <ele>179.4</ele>
        <time>2014-09-01T13:28:15Z</time>
      </trkpt>
      <trkpt lat="48.75344" lon="-0.57908">
        <ele>179.6</ele>
        <time>2014-09-01T13:28:16Z</time>
      </trkpt>
      <trkpt lat="48.75344" lon="-0.57912">
        <ele>179.8</ele>
        <time>2014-09-01T13:28:17Z</time>
      </trkpt>
      <trkpt lat="48.75343" lon="-0.57916">
        <ele>180</ele>
        <time>2014-09-01T13:28:18Z</time>
      </trkpt>
      <trkpt lat="48.75342" lon="-0.57921">
        <ele>180</ele>
        <time>2014-09-01T13:28:19Z</time>
      </trkpt>
      <trkpt lat="48.7534" lon="-0.57925">
        <ele>180.2</ele>
        <time>2014-09-01T13:28:20Z</time>
      </trkpt>
      <trkpt lat="48.75339" lon="-0.57929">
        <ele>180.4</ele>
        <time>2014-09-01T13:28:21Z</time>
      </trkpt>
      <trkpt lat="48.75337" lon="-0.57933">
        <ele>180.4</ele>
        <time>2014-09-01T13:28:22Z</time>
      </trkpt>
      <trkpt lat="48.75318" lon="-0.57988">
        <ele>183.6</ele>
        <time>2014-09-01T13:28:37Z</time>
      </trkpt>
      <trkpt lat="48.7529" lon="-0.58041">
        <ele>184.4</ele>
        <time>2014-09-01T13:28:54Z</time>
      </trkpt>
      <trkpt lat="48.75289" lon="-0.58044">
        <ele>184.2</ele>
        <time>2014-09-01T13:28:55Z</time>
      </trkpt>
      <trkpt lat="48.75288" lon="-0.58047">
        <ele>184.2</ele>
        <time>2014-09-01T13:28:56Z</time>
      </trkpt>
      <trkpt lat="48.75289" lon="-0.5805">
        <ele>184.2</ele>
        <time>2014-09-01T13:28:57Z</time>
      </trkpt>
      <trkpt lat="48.75321" lon="-0.58102">
        <ele>184.2</ele>
        <time>2014-09-01T13:29:13Z</time>
      </trkpt>
      <trkpt lat="48.75356" lon="-0.58154">
        <ele>185.2</ele>
        <time>2014-09-01T13:29:30Z</time>
      </trkpt>
      <trkpt lat="48.75384" lon="-0.58207">
        <ele>186.6</ele>
        <time>2014-09-01T13:29:47Z</time>
      </trkpt>
      <trkpt lat="48.7539" lon="-0.58222">
        <ele>187.2</ele>
        <time>2014-09-01T13:29:53Z</time>
      </trkpt>
      <trkpt lat="48.75391" lon="-0.58223">
        <ele>187.2</ele>
        <time>2014-09-01T13:29:54Z</time>
      </trkpt>
      <trkpt lat="48.75393" lon="-0.58225">
        <ele>187.4</ele>
        <time>2014-09-01T13:29:55Z</time>
      </trkpt>
      <trkpt lat="48.75418" lon="-0.58267">
        <ele>188</ele>
        <time>2014-09-01T13:30:09Z</time>
      </trkpt>
      <trkpt lat="48.75456" lon="-0.58339">
        <ele>188</ele>
        <time>2014-09-01T13:30:28Z</time>
      </trkpt>
      <trkpt lat="48.75499" lon="-0.58412">
        <ele>186.8</ele>
        <time>2014-09-01T13:30:47Z</time>
      </trkpt>
      <trkpt lat="48.75504" lon="-0.5842">
        <ele>186.6</ele>
        <time>2014-09-01T13:30:49Z</time>
      </trkpt>
      <trkpt lat="48.75538" lon="-0.58458">
        <ele>185.2</ele>
        <time>2014-09-01T13:30:59Z</time>
      </trkpt>
      <trkpt lat="48.75551" lon="-0.5847">
        <ele>184.6</ele>
        <time>2014-09-01T13:31:02Z</time>
      </trkpt>
      <trkpt lat="48.75555" lon="-0.58476">
        <ele>184.4</ele>
        <time>2014-09-01T13:31:03Z</time>
      </trkpt>
      <trkpt lat="48.75561" lon="-0.58487">
        <ele>184.2</ele>
        <time>2014-09-01T13:31:05Z</time>
      </trkpt>
      <trkpt lat="48.75565" lon="-0.58491">
        <ele>184</ele>
        <time>2014-09-01T13:31:06Z</time>
      </trkpt>
      <trkpt lat="48.75569" lon="-0.58493">
        <ele>183.8</ele>
        <time>2014-09-01T13:31:07Z</time>
      </trkpt>
      <trkpt lat="48.75574" lon="-0.58495">
        <ele>183.6</ele>
        <time>2014-09-01T13:31:08Z</time>
      </trkpt>
      <trkpt lat="48.75578" lon="-0.58496">
        <ele>183.4</ele>
        <time>2014-09-01T13:31:09Z</time>
      </trkpt>
      <trkpt lat="48.75583" lon="-0.58496">
        <ele>183.2</ele>
        <time>2014-09-01T13:31:10Z</time>
      </trkpt>
      <trkpt lat="48.75592" lon="-0.58498">
        <ele>182.8</ele>
        <time>2014-09-01T13:31:12Z</time>
      </trkpt>
      <trkpt lat="48.75597" lon="-0.58498">
        <ele>182.6</ele>
        <time>2014-09-01T13:31:13Z</time>
      </trkpt>
      <trkpt lat="48.75602" lon="-0.58499">
        <ele>182.4</ele>
        <time>2014-09-01T13:31:14Z</time>
      </trkpt>
      <trkpt lat="48.75643" lon="-0.58511">
        <ele>180</ele>
        <time>2014-09-01T13:31:22Z</time>
      </trkpt>
      <trkpt lat="48.75647" lon="-0.58512">
        <ele>179.6</ele>
        <time>2014-09-01T13:31:23Z</time>
      </trkpt>
      <trkpt lat="48.75664" lon="-0.58516">
        <ele>178.6</ele>
        <time>2014-09-01T13:31:29Z</time>
      </trkpt>
      <trkpt lat="48.75665" lon="-0.58518">
        <ele>178.6</ele>
        <time>2014-09-01T13:31:30Z</time>
      </trkpt>
      <trkpt lat="48.75666" lon="-0.58519">
        <ele>178.6</ele>
        <time>2014-09-01T13:31:31Z</time>
      </trkpt>
      <trkpt lat="48.75668" lon="-0.5852">
        <ele>178.6</ele>
        <time>2014-09-01T13:31:32Z</time>
      </trkpt>
      <trkpt lat="48.75671" lon="-0.58521">
        <ele>178.6</ele>
        <time>2014-09-01T13:31:33Z</time>
      </trkpt>
      <trkpt lat="48.75673" lon="-0.58523">
        <ele>178.6</ele>
        <time>2014-09-01T13:31:34Z</time>
      </trkpt>
      <trkpt lat="48.75701" lon="-0.58542">
        <ele>179.4</ele>
        <time>2014-09-01T13:31:45Z</time>
      </trkpt>
      <trkpt lat="48.75732" lon="-0.58554">
        <ele>182.4</ele>
        <time>2014-09-01T13:31:57Z</time>
      </trkpt>
      <trkpt lat="48.7578" lon="-0.5857">
        <ele>183.8</ele>
        <time>2014-09-01T13:32:13Z</time>
      </trkpt>
      <trkpt lat="48.75821" lon="-0.58583">
        <ele>184</ele>
        <time>2014-09-01T13:32:29Z</time>
      </trkpt>
      <trkpt lat="48.75844" lon="-0.58595">
        <ele>184.8</ele>
        <time>2014-09-01T13:32:40Z</time>
      </trkpt>
      <trkpt lat="48.7589" lon="-0.58605">
        <ele>185.6</ele>
        <time>2014-09-01T13:32:56Z</time>
      </trkpt>
      <trkpt lat="48.75941" lon="-0.5862">
        <ele>186.4</ele>
        <time>2014-09-01T13:33:13Z</time>
      </trkpt>
      <trkpt lat="48.75992" lon="-0.58634">
        <ele>187.6</ele>
        <time>2014-09-01T13:33:30Z</time>
      </trkpt>
      <trkpt lat="48.76042" lon="-0.58647">
        <ele>188.8</ele>
        <time>2014-09-01T13:33:46Z</time>
      </trkpt>
      <trkpt lat="48.76064" lon="-0.58667">
        <ele>189.2</ele>
        <time>2014-09-01T13:33:56Z</time>
      </trkpt>
      <trkpt lat="48.76064" lon="-0.58672">
        <ele>189.4</ele>
        <time>2014-09-01T13:33:57Z</time>
      </trkpt>
      <trkpt lat="48.76064" lon="-0.58676">
        <ele>189.4</ele>
        <time>2014-09-01T13:33:58Z</time>
      </trkpt>
      <trkpt lat="48.76057" lon="-0.58724">
        <ele>189.4</ele>
        <time>2014-09-01T13:34:09Z</time>
      </trkpt>
      <trkpt lat="48.76032" lon="-0.58773">
        <ele>189.6</ele>
        <time>2014-09-01T13:34:22Z</time>
      </trkpt>
      <trkpt lat="48.75994" lon="-0.58817">
        <ele>189.4</ele>
        <time>2014-09-01T13:34:37Z</time>
      </trkpt>
      <trkpt lat="48.75968" lon="-0.58854">
        <ele>189.4</ele>
        <time>2014-09-01T13:34:49Z</time>
      </trkpt>
      <trkpt lat="48.7597" lon="-0.5886">
        <ele>189.2</ele>
        <time>2014-09-01T13:34:50Z</time>
      </trkpt>
      <trkpt lat="48.75972" lon="-0.58866">
        <ele>189.2</ele>
        <time>2014-09-01T13:34:51Z</time>
      </trkpt>
      <trkpt lat="48.75974" lon="-0.58871">
        <ele>189</ele>
        <time>2014-09-01T13:34:52Z</time>
      </trkpt>
      <trkpt lat="48.75977" lon="-0.58877">
        <ele>188.8</ele>
        <time>2014-09-01T13:34:53Z</time>
      </trkpt>
      <trkpt lat="48.75992" lon="-0.58914">
        <ele>187.8</ele>
        <time>2014-09-01T13:34:59Z</time>
      </trkpt>
      <trkpt lat="48.75992" lon="-0.58922">
        <ele>187.6</ele>
        <time>2014-09-01T13:35:00Z</time>
      </trkpt>
      <trkpt lat="48.75992" lon="-0.58929">
        <ele>187.4</ele>
        <time>2014-09-01T13:35:01Z</time>
      </trkpt>
      <trkpt lat="48.75991" lon="-0.58935">
        <ele>187.2</ele>
        <time>2014-09-01T13:35:02Z</time>
      </trkpt>
      <trkpt lat="48.7599" lon="-0.5894">
        <ele>187</ele>
        <time>2014-09-01T13:35:03Z</time>
      </trkpt>
      <trkpt lat="48.75988" lon="-0.58945">
        <ele>187</ele>
        <time>2014-09-01T13:35:04Z</time>
      </trkpt>
      <trkpt lat="48.75954" lon="-0.59004">
        <ele>188</ele>
        <time>2014-09-01T13:35:20Z</time>
      </trkpt>
      <trkpt lat="48.75922" lon="-0.59046">
        <ele>189.2</ele>
        <time>2014-09-01T13:35:35Z</time>
      </trkpt>
      <trkpt lat="48.7592" lon="-0.59048">
        <ele>189.4</ele>
        <time>2014-09-01T13:35:36Z</time>
      </trkpt>
      <trkpt lat="48.75921" lon="-0.59051">
        <ele>189.4</ele>
        <time>2014-09-01T13:35:37Z</time>
      </trkpt>
      <trkpt lat="48.75949" lon="-0.59105">
        <ele>189.2</ele>
        <time>2014-09-01T13:35:51Z</time>
      </trkpt>
      <trkpt lat="48.75985" lon="-0.59166">
        <ele>189.4</ele>
        <time>2014-09-01T13:36:07Z</time>
      </trkpt>
      <trkpt lat="48.76025" lon="-0.59231">
        <ele>190.6</ele>
        <time>2014-09-01T13:36:25Z</time>
      </trkpt>
      <trkpt lat="48.76054" lon="-0.5929">
        <ele>192.4</ele>
        <time>2014-09-01T13:36:41Z</time>
      </trkpt>
      <trkpt lat="48.76079" lon="-0.59347">
        <ele>194.2</ele>
        <time>2014-09-01T13:36:56Z</time>
      </trkpt>
      <trkpt lat="48.76106" lon="-0.59404">
        <ele>195.2</ele>
        <time>2014-09-01T13:37:11Z</time>
      </trkpt>
      <trkpt lat="48.76138" lon="-0.59466">
        <ele>194.8</ele>
        <time>2014-09-01T13:37:25Z</time>
      </trkpt>
      <trkpt lat="48.76151" lon="-0.59502">
        <ele>194.4</ele>
        <time>2014-09-01T13:37:31Z</time>
      </trkpt>
      <trkpt lat="48.76153" lon="-0.59509">
        <ele>194.2</ele>
        <time>2014-09-01T13:37:32Z</time>
      </trkpt>
      <trkpt lat="48.76191" lon="-0.59626">
        <ele>192</ele>
        <time>2014-09-01T13:37:48Z</time>
      </trkpt>
      <trkpt lat="48.76223" lon="-0.5968">
        <ele>192.2</ele>
        <time>2014-09-01T13:37:58Z</time>
      </trkpt>
      <trkpt lat="48.76235" lon="-0.59695">
        <ele>193.2</ele>
        <time>2014-09-01T13:38:02Z</time>
      </trkpt>
      <trkpt lat="48.76254" lon="-0.59739">
        <ele>196.4</ele>
        <time>2014-09-01T13:38:12Z</time>
      </trkpt>
      <trkpt lat="48.76268" lon="-0.59791">
        <ele>199.4</ele>
        <time>2014-09-01T13:38:23Z</time>
      </trkpt>
      <trkpt lat="48.76279" lon="-0.59856">
        <ele>202.4</ele>
        <time>2014-09-01T13:38:38Z</time>
      </trkpt>
      <trkpt lat="48.76269" lon="-0.59953">
        <ele>204</ele>
        <time>2014-09-01T13:38:55Z</time>
      </trkpt>
      <trkpt lat="48.76256" lon="-0.60062">
        <ele>202.2</ele>
        <time>2014-09-01T13:39:10Z</time>
      </trkpt>
      <trkpt lat="48.76252" lon="-0.6009">
        <ele>201.2</ele>
        <time>2014-09-01T13:39:13Z</time>
      </trkpt>
      <trkpt lat="48.76243" lon="-0.60176">
        <ele>197.6</ele>
        <time>2014-09-01T13:39:20Z</time>
      </trkpt>
      <trkpt lat="48.76236" lon="-0.60249">
        <ele>194.2</ele>
        <time>2014-09-01T13:39:25Z</time>
      </trkpt>
      <trkpt lat="48.76236" lon="-0.60296">
        <ele>191.8</ele>
        <time>2014-09-01T13:39:28Z</time>
      </trkpt>
      <trkpt lat="48.76238" lon="-0.60311">
        <ele>191</ele>
        <time>2014-09-01T13:39:29Z</time>
      </trkpt>
      <trkpt lat="48.76241" lon="-0.60327">
        <ele>190.2</ele>
        <time>2014-09-01T13:39:30Z</time>
      </trkpt>
      <trkpt lat="48.76245" lon="-0.60341">
        <ele>189.4</ele>
        <time>2014-09-01T13:39:31Z</time>
      </trkpt>
      <trkpt lat="48.7625" lon="-0.60355">
        <ele>188.4</ele>
        <time>2014-09-01T13:39:32Z</time>
      </trkpt>
      <trkpt lat="48.76256" lon="-0.60367">
        <ele>187.6</ele>
        <time>2014-09-01T13:39:33Z</time>
      </trkpt>
      <trkpt lat="48.76264" lon="-0.60378">
        <ele>186.8</ele>
        <time>2014-09-01T13:39:34Z</time>
      </trkpt>
      <trkpt lat="48.76272" lon="-0.60386">
        <ele>186.2</ele>
        <time>2014-09-01T13:39:35Z</time>
      </trkpt>
      <trkpt lat="48.76281" lon="-0.60392">
        <ele>185.4</ele>
        <time>2014-09-01T13:39:36Z</time>
      </trkpt>
      <trkpt lat="48.7629" lon="-0.60398">
        <ele>184.6</ele>
        <time>2014-09-01T13:39:37Z</time>
      </trkpt>
      <trkpt lat="48.76329" lon="-0.60426">
        <ele>181.6</ele>
        <time>2014-09-01T13:39:42Z</time>
      </trkpt>
      <trkpt lat="48.76384" lon="-0.60489">
        <ele>181.6</ele>
        <time>2014-09-01T13:39:53Z</time>
      </trkpt>
      <trkpt lat="48.76419" lon="-0.60515">
        <ele>185.2</ele>
        <time>2014-09-01T13:40:03Z</time>
      </trkpt>
      <trkpt lat="48.76457" lon="-0.6052">
        <ele>188.2</ele>
        <time>2014-09-01T13:40:15Z</time>
      </trkpt>
      <trkpt lat="48.76501" lon="-0.60563">
        <ele>188.8</ele>
        <time>2014-09-01T13:40:29Z</time>
      </trkpt>
      <trkpt lat="48.76554" lon="-0.60619">
        <ele>188.2</ele>
        <time>2014-09-01T13:40:44Z</time>
      </trkpt>
      <trkpt lat="48.76576" lon="-0.60632">
        <ele>188</ele>
        <time>2014-09-01T13:40:50Z</time>
      </trkpt>
      <trkpt lat="48.76601" lon="-0.6064">
        <ele>188.4</ele>
        <time>2014-09-01T13:40:56Z</time>
      </trkpt>
      <trkpt lat="48.76682" lon="-0.6066">
        <ele>189.6</ele>
        <time>2014-09-01T13:41:15Z</time>
      </trkpt>
      <trkpt lat="48.7675" lon="-0.60676">
        <ele>191</ele>
        <time>2014-09-01T13:41:32Z</time>
      </trkpt>
      <trkpt lat="48.7682" lon="-0.6069">
        <ele>193.4</ele>
        <time>2014-09-01T13:41:50Z</time>
      </trkpt>
      <trkpt lat="48.76861" lon="-0.60704">
        <ele>194.4</ele>
        <time>2014-09-01T13:42:02Z</time>
      </trkpt>
      <trkpt lat="48.76863" lon="-0.60708">
        <ele>194.6</ele>
        <time>2014-09-01T13:42:03Z</time>
      </trkpt>
      <trkpt lat="48.76863" lon="-0.60714">
        <ele>194.6</ele>
        <time>2014-09-01T13:42:04Z</time>
      </trkpt>
      <trkpt lat="48.76863" lon="-0.60719">
        <ele>194.8</ele>
        <time>2014-09-01T13:42:05Z</time>
      </trkpt>
      <trkpt lat="48.76863" lon="-0.60725">
        <ele>194.8</ele>
        <time>2014-09-01T13:42:06Z</time>
      </trkpt>
      <trkpt lat="48.76857" lon="-0.60812">
        <ele>196.8</ele>
        <time>2014-09-01T13:42:22Z</time>
      </trkpt>
      <trkpt lat="48.76854" lon="-0.60899">
        <ele>197.6</ele>
        <time>2014-09-01T13:42:38Z</time>
      </trkpt>
      <trkpt lat="48.76852" lon="-0.60975">
        <ele>199.4</ele>
        <time>2014-09-01T13:42:53Z</time>
      </trkpt>
      <trkpt lat="48.76849" lon="-0.61055">
        <ele>202.2</ele>
        <time>2014-09-01T13:43:10Z</time>
      </trkpt>
      <trkpt lat="48.76842" lon="-0.611">
        <ele>204</ele>
        <time>2014-09-01T13:43:21Z</time>
      </trkpt>
      <trkpt lat="48.76835" lon="-0.61162">
        <ele>206</ele>
        <time>2014-09-01T13:43:35Z</time>
      </trkpt>
      <trkpt lat="48.76828" lon="-0.61233">
        <ele>208</ele>
        <time>2014-09-01T13:43:49Z</time>
      </trkpt>
      <trkpt lat="48.76808" lon="-0.61298">
        <ele>208.4</ele>
        <time>2014-09-01T13:44:02Z</time>
      </trkpt>
      <trkpt lat="48.76795" lon="-0.61347">
        <ele>209.2</ele>
        <time>2014-09-01T13:44:13Z</time>
      </trkpt>
      <trkpt lat="48.7678" lon="-0.61405">
        <ele>210</ele>
        <time>2014-09-01T13:44:26Z</time>
      </trkpt>
      <trkpt lat="48.76766" lon="-0.61461">
        <ele>209.8</ele>
        <time>2014-09-01T13:44:37Z</time>
      </trkpt>
      <trkpt lat="48.76747" lon="-0.61519">
        <ele>209.2</ele>
        <time>2014-09-01T13:44:48Z</time>
      </trkpt>
      <trkpt lat="48.76743" lon="-0.6153">
        <ele>209.2</ele>
        <time>2014-09-01T13:44:50Z</time>
      </trkpt>
      <trkpt lat="48.76724" lon="-0.61584">
        <ele>208.4</ele>
        <time>2014-09-01T13:45:00Z</time>
      </trkpt>
      <trkpt lat="48.76701" lon="-0.61659">
        <ele>208</ele>
        <time>2014-09-01T13:45:14Z</time>
      </trkpt>
      <trkpt lat="48.76676" lon="-0.61741">
        <ele>207.6</ele>
        <time>2014-09-01T13:45:29Z</time>
      </trkpt>
      <trkpt lat="48.76657" lon="-0.61802">
        <ele>208.2</ele>
        <time>2014-09-01T13:45:42Z</time>
      </trkpt>
      <trkpt lat="48.7663" lon="-0.61892">
        <ele>208.4</ele>
        <time>2014-09-01T13:45:59Z</time>
      </trkpt>
      <trkpt lat="48.766" lon="-0.61935">
        <ele>208.8</ele>
        <time>2014-09-01T13:46:11Z</time>
      </trkpt>
      <trkpt lat="48.76566" lon="-0.61956">
        <ele>209.4</ele>
        <time>2014-09-01T13:46:22Z</time>
      </trkpt>
      <trkpt lat="48.76533" lon="-0.6198">
        <ele>209.8</ele>
        <time>2014-09-01T13:46:35Z</time>
      </trkpt>
      <trkpt lat="48.76502" lon="-0.62006">
        <ele>209.6</ele>
        <time>2014-09-01T13:46:46Z</time>
      </trkpt>
      <trkpt lat="48.76472" lon="-0.62041">
        <ele>210.4</ele>
        <time>2014-09-01T13:46:58Z</time>
      </trkpt>
      <trkpt lat="48.76444" lon="-0.62083">
        <ele>211.4</ele>
        <time>2014-09-01T13:47:10Z</time>
      </trkpt>
      <trkpt lat="48.76425" lon="-0.62115">
        <ele>212.4</ele>
        <time>2014-09-01T13:47:20Z</time>
      </trkpt>
      <trkpt lat="48.76405" lon="-0.62157">
        <ele>213.6</ele>
        <time>2014-09-01T13:47:31Z</time>
      </trkpt>
      <trkpt lat="48.7639" lon="-0.62192">
        <ele>215.4</ele>
        <time>2014-09-01T13:47:42Z</time>
      </trkpt>
      <trkpt lat="48.76387" lon="-0.62201">
        <ele>215.6</ele>
        <time>2014-09-01T13:47:44Z</time>
      </trkpt>
      <trkpt lat="48.76385" lon="-0.62205">
        <ele>215.8</ele>
        <time>2014-09-01T13:47:45Z</time>
      </trkpt>
      <trkpt lat="48.76383" lon="-0.62209">
        <ele>215.8</ele>
        <time>2014-09-01T13:47:46Z</time>
      </trkpt>
      <trkpt lat="48.76382" lon="-0.62213">
        <ele>216</ele>
        <time>2014-09-01T13:47:47Z</time>
      </trkpt>
      <trkpt lat="48.76381" lon="-0.62217">
        <ele>216</ele>
        <time>2014-09-01T13:47:48Z</time>
      </trkpt>
      <trkpt lat="48.76379" lon="-0.62222">
        <ele>216.2</ele>
        <time>2014-09-01T13:47:49Z</time>
      </trkpt>
      <trkpt lat="48.76377" lon="-0.62226">
        <ele>216.4</ele>
        <time>2014-09-01T13:47:50Z</time>
      </trkpt>
      <trkpt lat="48.76347" lon="-0.62286">
        <ele>217.8</ele>
        <time>2014-09-01T13:48:05Z</time>
      </trkpt>
      <trkpt lat="48.76313" lon="-0.62339">
        <ele>219.8</ele>
        <time>2014-09-01T13:48:20Z</time>
      </trkpt>
      <trkpt lat="48.7628" lon="-0.6239">
        <ele>221.6</ele>
        <time>2014-09-01T13:48:35Z</time>
      </trkpt>
      <trkpt lat="48.76241" lon="-0.62454">
        <ele>222.8</ele>
        <time>2014-09-01T13:48:51Z</time>
      </trkpt>
      <trkpt lat="48.76233" lon="-0.62525">
        <ele>224</ele>
        <time>2014-09-01T13:49:05Z</time>
      </trkpt>
      <trkpt lat="48.76239" lon="-0.62581">
        <ele>226.6</ele>
        <time>2014-09-01T13:49:20Z</time>
      </trkpt>
      <trkpt lat="48.76243" lon="-0.62634">
        <ele>229.8</ele>
        <time>2014-09-01T13:49:36Z</time>
      </trkpt>
      <trkpt lat="48.76246" lon="-0.62677">
        <ele>232.2</ele>
        <time>2014-09-01T13:49:50Z</time>
      </trkpt>
      <trkpt lat="48.76245" lon="-0.6272">
        <ele>235</ele>
        <time>2014-09-01T13:50:03Z</time>
      </trkpt>
      <trkpt lat="48.76237" lon="-0.62773">
        <ele>236.6</ele>
        <time>2014-09-01T13:50:16Z</time>
      </trkpt>
      <trkpt lat="48.76221" lon="-0.62862">
        <ele>237</ele>
        <time>2014-09-01T13:50:35Z</time>
      </trkpt>
      <trkpt lat="48.7621" lon="-0.62955">
        <ele>236.4</ele>
        <time>2014-09-01T13:50:52Z</time>
      </trkpt>
      <trkpt lat="48.76203" lon="-0.63008">
        <ele>235.6</ele>
        <time>2014-09-01T13:50:59Z</time>
      </trkpt>
      <trkpt lat="48.76188" lon="-0.63084">
        <ele>234</ele>
        <time>2014-09-01T13:51:08Z</time>
      </trkpt>
      <trkpt lat="48.76181" lon="-0.63204">
        <ele>230.8</ele>
        <time>2014-09-01T13:51:20Z</time>
      </trkpt>
      <trkpt lat="48.76196" lon="-0.63287">
        <ele>227.6</ele>
        <time>2014-09-01T13:51:28Z</time>
      </trkpt>
      <trkpt lat="48.76223" lon="-0.63411">
        <ele>226.4</ele>
        <time>2014-09-01T13:51:43Z</time>
      </trkpt>
      <trkpt lat="48.76228" lon="-0.63423">
        <ele>226.6</ele>
        <time>2014-09-01T13:51:45Z</time>
      </trkpt>
      <trkpt lat="48.76236" lon="-0.63439">
        <ele>226.8</ele>
        <time>2014-09-01T13:51:48Z</time>
      </trkpt>
      <trkpt lat="48.76239" lon="-0.63444">
        <ele>226.8</ele>
        <time>2014-09-01T13:51:49Z</time>
      </trkpt>
      <trkpt lat="48.76268" lon="-0.63481">
        <ele>227.4</ele>
        <time>2014-09-01T13:51:57Z</time>
      </trkpt>
      <trkpt lat="48.76271" lon="-0.63486">
        <ele>227.6</ele>
        <time>2014-09-01T13:51:58Z</time>
      </trkpt>
      <trkpt lat="48.76274" lon="-0.63492">
        <ele>227.8</ele>
        <time>2014-09-01T13:51:59Z</time>
      </trkpt>
      <trkpt lat="48.76282" lon="-0.63522">
        <ele>228.6</ele>
        <time>2014-09-01T13:52:04Z</time>
      </trkpt>
      <trkpt lat="48.76282" lon="-0.63528">
        <ele>228.8</ele>
        <time>2014-09-01T13:52:05Z</time>
      </trkpt>
      <trkpt lat="48.76282" lon="-0.63535">
        <ele>229</ele>
        <time>2014-09-01T13:52:06Z</time>
      </trkpt>
      <trkpt lat="48.76282" lon="-0.63541">
        <ele>229.2</ele>
        <time>2014-09-01T13:52:07Z</time>
      </trkpt>
      <trkpt lat="48.76282" lon="-0.63548">
        <ele>229.4</ele>
        <time>2014-09-01T13:52:08Z</time>
      </trkpt>
      <trkpt lat="48.76281" lon="-0.63574">
        <ele>229.6</ele>
        <time>2014-09-01T13:52:12Z</time>
      </trkpt>
      <trkpt lat="48.76284" lon="-0.63604">
        <ele>229.6</ele>
        <time>2014-09-01T13:52:17Z</time>
      </trkpt>
      <trkpt lat="48.76287" lon="-0.63609">
        <ele>229.6</ele>
        <time>2014-09-01T13:52:18Z</time>
      </trkpt>
      <trkpt lat="48.76289" lon="-0.63614">
        <ele>229.6</ele>
        <time>2014-09-01T13:52:19Z</time>
      </trkpt>
      <trkpt lat="48.76293" lon="-0.63619">
        <ele>229.4</ele>
        <time>2014-09-01T13:52:20Z</time>
      </trkpt>
      <trkpt lat="48.76297" lon="-0.63623">
        <ele>229.2</ele>
        <time>2014-09-01T13:52:21Z</time>
      </trkpt>
      <trkpt lat="48.76302" lon="-0.63627">
        <ele>229</ele>
        <time>2014-09-01T13:52:22Z</time>
      </trkpt>
      <trkpt lat="48.76306" lon="-0.6363">
        <ele>228.6</ele>
        <time>2014-09-01T13:52:23Z</time>
      </trkpt>
      <trkpt lat="48.76363" lon="-0.63657">
        <ele>225.4</ele>
        <time>2014-09-01T13:52:33Z</time>
      </trkpt>
      <trkpt lat="48.76418" lon="-0.63687">
        <ele>222.2</ele>
        <time>2014-09-01T13:52:42Z</time>
      </trkpt>
      <trkpt lat="48.76424" lon="-0.63693">
        <ele>221.6</ele>
        <time>2014-09-01T13:52:43Z</time>
      </trkpt>
      <trkpt lat="48.76429" lon="-0.63701">
        <ele>221</ele>
        <time>2014-09-01T13:52:44Z</time>
      </trkpt>
      <trkpt lat="48.76463" lon="-0.63757">
        <ele>216.6</ele>
        <time>2014-09-01T13:52:50Z</time>
      </trkpt>
      <trkpt lat="48.765" lon="-0.6381">
        <ele>213.4</ele>
        <time>2014-09-01T13:52:56Z</time>
      </trkpt>
      <trkpt lat="48.76515" lon="-0.63832">
        <ele>212.4</ele>
        <time>2014-09-01T13:52:59Z</time>
      </trkpt>
      <trkpt lat="48.76518" lon="-0.63841">
        <ele>212.2</ele>
        <time>2014-09-01T13:53:00Z</time>
      </trkpt>
      <trkpt lat="48.7652" lon="-0.63848">
        <ele>212.2</ele>
        <time>2014-09-01T13:53:01Z</time>
      </trkpt>
      <trkpt lat="48.76522" lon="-0.63855">
        <ele>212.2</ele>
        <time>2014-09-01T13:53:02Z</time>
      </trkpt>
      <trkpt lat="48.76523" lon="-0.63862">
        <ele>212.2</ele>
        <time>2014-09-01T13:53:03Z</time>
      </trkpt>
      <trkpt lat="48.76524" lon="-0.63869">
        <ele>212.4</ele>
        <time>2014-09-01T13:53:04Z</time>
      </trkpt>
      <trkpt lat="48.76535" lon="-0.63923">
        <ele>215.6</ele>
        <time>2014-09-01T13:53:15Z</time>
      </trkpt>
      <trkpt lat="48.76546" lon="-0.63964">
        <ele>218.6</ele>
        <time>2014-09-01T13:53:29Z</time>
      </trkpt>
      <trkpt lat="48.76545" lon="-0.63964">
        <ele>219</ele>
        <time>2014-09-01T13:53:31Z</time>
      </trkpt>
      <trkpt lat="48.76547" lon="-0.63968">
        <ele>219.6</ele>
        <time>2014-09-01T13:53:55Z</time>
      </trkpt>
      <trkpt lat="48.76548" lon="-0.63972">
        <ele>219.6</ele>
        <time>2014-09-01T13:53:56Z</time>
      </trkpt>
      <trkpt lat="48.76549" lon="-0.63975">
        <ele>219.6</ele>
        <time>2014-09-01T13:53:57Z</time>
      </trkpt>
      <trkpt lat="48.7655" lon="-0.6398">
        <ele>219.4</ele>
        <time>2014-09-01T13:53:58Z</time>
      </trkpt>
      <trkpt lat="48.76556" lon="-0.6403">
        <ele>217.4</ele>
        <time>2014-09-01T13:54:05Z</time>
      </trkpt>
      <trkpt lat="48.76555" lon="-0.64043">
        <ele>216.6</ele>
        <time>2014-09-01T13:54:07Z</time>
      </trkpt>
      <trkpt lat="48.76554" lon="-0.64049">
        <ele>216.2</ele>
        <time>2014-09-01T13:54:08Z</time>
      </trkpt>
      <trkpt lat="48.76552" lon="-0.64055">
        <ele>215.8</ele>
        <time>2014-09-01T13:54:09Z</time>
      </trkpt>
      <trkpt lat="48.76549" lon="-0.64079">
        <ele>215</ele>
        <time>2014-09-01T13:54:14Z</time>
      </trkpt>
      <trkpt lat="48.7655" lon="-0.64085">
        <ele>215</ele>
        <time>2014-09-01T13:54:15Z</time>
      </trkpt>
      <trkpt lat="48.76552" lon="-0.64089">
        <ele>215</ele>
        <time>2014-09-01T13:54:16Z</time>
      </trkpt>
      <trkpt lat="48.76554" lon="-0.64092">
        <ele>215</ele>
        <time>2014-09-01T13:54:17Z</time>
      </trkpt>
      <trkpt lat="48.76556" lon="-0.64095">
        <ele>215.2</ele>
        <time>2014-09-01T13:54:18Z</time>
      </trkpt>
      <trkpt lat="48.76559" lon="-0.64095">
        <ele>216.2</ele>
        <time>2014-09-01T13:54:24Z</time>
      </trkpt>
      <trkpt lat="48.76561" lon="-0.64093">
        <ele>216.4</ele>
        <time>2014-09-01T13:54:25Z</time>
      </trkpt>
      <trkpt lat="48.76581" lon="-0.64085">
        <ele>215.4</ele>
        <time>2014-09-01T13:54:31Z</time>
      </trkpt>
      <trkpt lat="48.76607" lon="-0.64069">
        <ele>214.8</ele>
        <time>2014-09-01T13:54:41Z</time>
      </trkpt>
      <trkpt lat="48.76648" lon="-0.64062">
        <ele>215</ele>
        <time>2014-09-01T13:54:50Z</time>
      </trkpt>
      <trkpt lat="48.76673" lon="-0.64076">
        <ele>215.2</ele>
        <time>2014-09-01T13:54:56Z</time>
      </trkpt>
      <trkpt lat="48.76677" lon="-0.64081">
        <ele>215</ele>
        <time>2014-09-01T13:54:57Z</time>
      </trkpt>
      <trkpt lat="48.76681" lon="-0.64087">
        <ele>214.6</ele>
        <time>2014-09-01T13:54:58Z</time>
      </trkpt>
      <trkpt lat="48.76688" lon="-0.64098">
        <ele>214</ele>
        <time>2014-09-01T13:55:00Z</time>
      </trkpt>
      <trkpt lat="48.76692" lon="-0.64104">
        <ele>213.8</ele>
        <time>2014-09-01T13:55:01Z</time>
      </trkpt>
      <trkpt lat="48.76717" lon="-0.64146">
        <ele>215.4</ele>
        <time>2014-09-01T13:55:11Z</time>
      </trkpt>
      <trkpt lat="48.76733" lon="-0.64162">
        <ele>219.4</ele>
        <time>2014-09-01T13:55:18Z</time>
      </trkpt>
      <trkpt lat="48.76764" lon="-0.64178">
        <ele>222.6</ele>
        <time>2014-09-01T13:55:27Z</time>
      </trkpt>
      <trkpt lat="48.768" lon="-0.64199">
        <ele>224</ele>
        <time>2014-09-01T13:55:40Z</time>
      </trkpt>
      <trkpt lat="48.76837" lon="-0.6421">
        <ele>223</ele>
        <time>2014-09-01T13:55:50Z</time>
      </trkpt>
      <trkpt lat="48.76876" lon="-0.64236">
        <ele>220.6</ele>
        <time>2014-09-01T13:56:00Z</time>
      </trkpt>
      <trkpt lat="48.76914" lon="-0.6424">
        <ele>219.6</ele>
        <time>2014-09-01T13:56:10Z</time>
      </trkpt>
      <trkpt lat="48.7692" lon="-0.64241">
        <ele>219.2</ele>
        <time>2014-09-01T13:56:11Z</time>
      </trkpt>
      <trkpt lat="48.7697" lon="-0.64269">
        <ele>215.8</ele>
        <time>2014-09-01T13:56:18Z</time>
      </trkpt>
      <trkpt lat="48.77011" lon="-0.64296">
        <ele>212</ele>
        <time>2014-09-01T13:56:23Z</time>
      </trkpt>
      <trkpt lat="48.77044" lon="-0.64313">
        <ele>209.8</ele>
        <time>2014-09-01T13:56:27Z</time>
      </trkpt>
      <trkpt lat="48.77053" lon="-0.64315">
        <ele>209.2</ele>
        <time>2014-09-01T13:56:28Z</time>
      </trkpt>
      <trkpt lat="48.77061" lon="-0.64316">
        <ele>208.8</ele>
        <time>2014-09-01T13:56:29Z</time>
      </trkpt>
      <trkpt lat="48.77069" lon="-0.64315">
        <ele>208.6</ele>
        <time>2014-09-01T13:56:30Z</time>
      </trkpt>
      <trkpt lat="48.77076" lon="-0.64314">
        <ele>208.2</ele>
        <time>2014-09-01T13:56:31Z</time>
      </trkpt>
      <trkpt lat="48.77083" lon="-0.64312">
        <ele>208.2</ele>
        <time>2014-09-01T13:56:32Z</time>
      </trkpt>
      <trkpt lat="48.7709" lon="-0.64309">
        <ele>208</ele>
        <time>2014-09-01T13:56:33Z</time>
      </trkpt>
      <trkpt lat="48.77096" lon="-0.64306">
        <ele>208</ele>
        <time>2014-09-01T13:56:34Z</time>
      </trkpt>
      <trkpt lat="48.77132" lon="-0.64268">
        <ele>209.2</ele>
        <time>2014-09-01T13:56:44Z</time>
      </trkpt>
      <trkpt lat="48.7717" lon="-0.64216">
        <ele>210.4</ele>
        <time>2014-09-01T13:57:00Z</time>
      </trkpt>
      <trkpt lat="48.7721" lon="-0.64176">
        <ele>211</ele>
        <time>2014-09-01T13:57:16Z</time>
      </trkpt>
      <trkpt lat="48.77247" lon="-0.64151">
        <ele>212.2</ele>
        <time>2014-09-01T13:57:31Z</time>
      </trkpt>
      <trkpt lat="48.77249" lon="-0.64154">
        <ele>212.2</ele>
        <time>2014-09-01T13:57:32Z</time>
      </trkpt>
      <trkpt lat="48.7725" lon="-0.64157">
        <ele>212.4</ele>
        <time>2014-09-01T13:57:33Z</time>
      </trkpt>
      <trkpt lat="48.77251" lon="-0.64161">
        <ele>212.4</ele>
        <time>2014-09-01T13:57:34Z</time>
      </trkpt>
      <trkpt lat="48.77251" lon="-0.64165">
        <ele>212.4</ele>
        <time>2014-09-01T13:57:35Z</time>
      </trkpt>
      <trkpt lat="48.7725" lon="-0.64169">
        <ele>212.4</ele>
        <time>2014-09-01T13:57:36Z</time>
      </trkpt>
      <trkpt lat="48.77249" lon="-0.64173">
        <ele>212.6</ele>
        <time>2014-09-01T13:57:37Z</time>
      </trkpt>
      <trkpt lat="48.77234" lon="-0.64232">
        <ele>213.2</ele>
        <time>2014-09-01T13:57:51Z</time>
      </trkpt>
      <trkpt lat="48.77214" lon="-0.64308">
        <ele>214</ele>
        <time>2014-09-01T13:58:07Z</time>
      </trkpt>
      <trkpt lat="48.77195" lon="-0.6437">
        <ele>214.8</ele>
        <time>2014-09-01T13:58:20Z</time>
      </trkpt>
      <trkpt lat="48.77171" lon="-0.64452">
        <ele>216</ele>
        <time>2014-09-01T13:58:37Z</time>
      </trkpt>
      <trkpt lat="48.77148" lon="-0.64548">
        <ele>217.6</ele>
        <time>2014-09-01T13:58:56Z</time>
      </trkpt>
      <trkpt lat="48.77123" lon="-0.64627">
        <ele>220.6</ele>
        <time>2014-09-01T13:59:13Z</time>
      </trkpt>
      <trkpt lat="48.77102" lon="-0.64683">
        <ele>223.8</ele>
        <time>2014-09-01T13:59:27Z</time>
      </trkpt>
      <trkpt lat="48.7708" lon="-0.64736">
        <ele>227</ele>
        <time>2014-09-01T13:59:42Z</time>
      </trkpt>
      <trkpt lat="48.77057" lon="-0.64789">
        <ele>229.2</ele>
        <time>2014-09-01T13:59:56Z</time>
      </trkpt>
      <trkpt lat="48.77041" lon="-0.6485">
        <ele>230.6</ele>
        <time>2014-09-01T14:00:10Z</time>
      </trkpt>
      <trkpt lat="48.77035" lon="-0.64922">
        <ele>231.8</ele>
        <time>2014-09-01T14:00:24Z</time>
      </trkpt>
      <trkpt lat="48.77031" lon="-0.6498">
        <ele>232.8</ele>
        <time>2014-09-01T14:00:36Z</time>
      </trkpt>
      <trkpt lat="48.77033" lon="-0.64983">
        <ele>233</ele>
        <time>2014-09-01T14:00:37Z</time>
      </trkpt>
      <trkpt lat="48.77035" lon="-0.64985">
        <ele>233</ele>
        <time>2014-09-01T14:00:38Z</time>
      </trkpt>
      <trkpt lat="48.77053" lon="-0.64997">
        <ele>234</ele>
        <time>2014-09-01T14:00:48Z</time>
      </trkpt>
      <trkpt lat="48.77077" lon="-0.65016">
        <ele>233.4</ele>
        <time>2014-09-01T14:00:59Z</time>
      </trkpt>
      <trkpt lat="48.77079" lon="-0.6502">
        <ele>233.4</ele>
        <time>2014-09-01T14:01:00Z</time>
      </trkpt>
      <trkpt lat="48.7708" lon="-0.65023">
        <ele>233.2</ele>
        <time>2014-09-01T14:01:01Z</time>
      </trkpt>
      <trkpt lat="48.77082" lon="-0.65027">
        <ele>233.2</ele>
        <time>2014-09-01T14:01:02Z</time>
      </trkpt>
      <trkpt lat="48.77082" lon="-0.65032">
        <ele>233</ele>
        <time>2014-09-01T14:01:03Z</time>
      </trkpt>
      <trkpt lat="48.77083" lon="-0.65036">
        <ele>233</ele>
        <time>2014-09-01T14:01:04Z</time>
      </trkpt>
      <trkpt lat="48.77084" lon="-0.65041">
        <ele>232.8</ele>
        <time>2014-09-01T14:01:05Z</time>
      </trkpt>
      <trkpt lat="48.77086" lon="-0.65047">
        <ele>232.8</ele>
        <time>2014-09-01T14:01:06Z</time>
      </trkpt>
      <trkpt lat="48.77096" lon="-0.65097">
        <ele>231.4</ele>
        <time>2014-09-01T14:01:18Z</time>
      </trkpt>
      <trkpt lat="48.77096" lon="-0.65101">
        <ele>231.4</ele>
        <time>2014-09-01T14:01:19Z</time>
      </trkpt>
      <trkpt lat="48.77097" lon="-0.65105">
        <ele>231.4</ele>
        <time>2014-09-01T14:01:20Z</time>
      </trkpt>
      <trkpt lat="48.77097" lon="-0.65109">
        <ele>231.4</ele>
        <time>2014-09-01T14:01:21Z</time>
      </trkpt>
      <trkpt lat="48.77098" lon="-0.65114">
        <ele>231.4</ele>
        <time>2014-09-01T14:01:22Z</time>
      </trkpt>
      <trkpt lat="48.77102" lon="-0.65161">
        <ele>232</ele>
        <time>2014-09-01T14:01:35Z</time>
      </trkpt>
      <trkpt lat="48.77104" lon="-0.65186">
        <ele>232.8</ele>
        <time>2014-09-01T14:01:47Z</time>
      </trkpt>
      <trkpt lat="48.77107" lon="-0.65212">
        <ele>233.4</ele>
        <time>2014-09-01T14:02:17Z</time>
      </trkpt>
      <trkpt lat="48.77114" lon="-0.65249">
        <ele>233.8</ele>
        <time>2014-09-01T14:02:30Z</time>
      </trkpt>
      <trkpt lat="48.77114" lon="-0.65251">
        <ele>233.8</ele>
        <time>2014-09-01T14:02:31Z</time>
      </trkpt>
      <trkpt lat="48.77115" lon="-0.65254">
        <ele>233.8</ele>
        <time>2014-09-01T14:02:32Z</time>
      </trkpt>
      <trkpt lat="48.77126" lon="-0.65295">
        <ele>235</ele>
        <time>2014-09-01T14:02:45Z</time>
      </trkpt>
      <trkpt lat="48.77126" lon="-0.65299">
        <ele>235.4</ele>
        <time>2014-09-01T14:02:50Z</time>
      </trkpt>
      <trkpt lat="48.77133" lon="-0.65343">
        <ele>236.4</ele>
        <time>2014-09-01T14:03:41Z</time>
      </trkpt>
      <trkpt lat="48.77134" lon="-0.65346">
        <ele>236.4</ele>
        <time>2014-09-01T14:03:42Z</time>
      </trkpt>
      <trkpt lat="48.7714" lon="-0.65382">
        <ele>236.8</ele>
        <time>2014-09-01T14:03:55Z</time>
      </trkpt>
      <trkpt lat="48.77145" lon="-0.65423">
        <ele>238.6</ele>
        <time>2014-09-01T14:04:09Z</time>
      </trkpt>
      <trkpt lat="48.77153" lon="-0.65465">
        <ele>240.4</ele>
        <time>2014-09-01T14:04:23Z</time>
      </trkpt>
      <trkpt lat="48.77161" lon="-0.65507">
        <ele>241</ele>
        <time>2014-09-01T14:04:35Z</time>
      </trkpt>
      <trkpt lat="48.77162" lon="-0.65527">
        <ele>241.2</ele>
        <time>2014-09-01T14:04:41Z</time>
      </trkpt>
      <trkpt lat="48.77162" lon="-0.65531">
        <ele>241.2</ele>
        <time>2014-09-01T14:04:42Z</time>
      </trkpt>
      <trkpt lat="48.77161" lon="-0.65534">
        <ele>241.2</ele>
        <time>2014-09-01T14:04:43Z</time>
      </trkpt>
      <trkpt lat="48.77159" lon="-0.65537">
        <ele>241.4</ele>
        <time>2014-09-01T14:04:44Z</time>
      </trkpt>
      <trkpt lat="48.77158" lon="-0.65539">
        <ele>241.6</ele>
        <time>2014-09-01T14:04:45Z</time>
      </trkpt>
      <trkpt lat="48.77134" lon="-0.65559">
        <ele>242.4</ele>
        <time>2014-09-01T14:04:58Z</time>
      </trkpt>
      <trkpt lat="48.77112" lon="-0.6557">
        <ele>243.8</ele>
        <time>2014-09-01T14:05:09Z</time>
      </trkpt>
      <trkpt lat="48.77089" lon="-0.65579">
        <ele>245.4</ele>
        <time>2014-09-01T14:05:20Z</time>
      </trkpt>
      <trkpt lat="48.7706" lon="-0.65588">
        <ele>246.8</ele>
        <time>2014-09-01T14:05:33Z</time>
      </trkpt>
      <trkpt lat="48.77034" lon="-0.65593">
        <ele>248</ele>
        <time>2014-09-01T14:05:43Z</time>
      </trkpt>
      <trkpt lat="48.76995" lon="-0.65599">
        <ele>248.6</ele>
        <time>2014-09-01T14:05:57Z</time>
      </trkpt>
      <trkpt lat="48.76954" lon="-0.65589">
        <ele>250.6</ele>
        <time>2014-09-01T14:06:12Z</time>
      </trkpt>
      <trkpt lat="48.7692" lon="-0.65571">
        <ele>253</ele>
        <time>2014-09-01T14:06:26Z</time>
      </trkpt>
      <trkpt lat="48.76909" lon="-0.65567">
        <ele>253.8</ele>
        <time>2014-09-01T14:06:31Z</time>
      </trkpt>
      <trkpt lat="48.76885" lon="-0.65566">
        <ele>254.8</ele>
        <time>2014-09-01T14:06:42Z</time>
      </trkpt>
      <trkpt lat="48.7685" lon="-0.6556">
        <ele>255.6</ele>
        <time>2014-09-01T14:06:57Z</time>
      </trkpt>
      <trkpt lat="48.76841" lon="-0.6556">
        <ele>256</ele>
        <time>2014-09-01T14:07:02Z</time>
      </trkpt>
      <trkpt lat="48.76833" lon="-0.65608">
        <ele>255.8</ele>
        <time>2014-09-01T14:07:13Z</time>
      </trkpt>
      <trkpt lat="48.76823" lon="-0.65682">
        <ele>252.6</ele>
        <time>2014-09-01T14:07:22Z</time>
      </trkpt>
      <trkpt lat="48.76819" lon="-0.65695">
        <ele>251.8</ele>
        <time>2014-09-01T14:07:24Z</time>
      </trkpt>
      <trkpt lat="48.768" lon="-0.65717">
        <ele>250.6</ele>
        <time>2014-09-01T14:07:34Z</time>
      </trkpt>
      <trkpt lat="48.76798" lon="-0.65718">
        <ele>250.6</ele>
        <time>2014-09-01T14:07:36Z</time>
      </trkpt>
      <trkpt lat="48.76795" lon="-0.65722">
        <ele>250.6</ele>
        <time>2014-09-01T14:07:39Z</time>
      </trkpt>
      <trkpt lat="48.76793" lon="-0.65744">
        <ele>250.6</ele>
        <time>2014-09-01T14:07:45Z</time>
      </trkpt>
      <trkpt lat="48.76794" lon="-0.65747">
        <ele>250.4</ele>
        <time>2014-09-01T14:07:46Z</time>
      </trkpt>
      <trkpt lat="48.76799" lon="-0.65793">
        <ele>249</ele>
        <time>2014-09-01T14:07:56Z</time>
      </trkpt>
      <trkpt lat="48.76816" lon="-0.65845">
        <ele>250</ele>
        <time>2014-09-01T14:08:09Z</time>
      </trkpt>
      <trkpt lat="48.76835" lon="-0.65889">
        <ele>250</ele>
        <time>2014-09-01T14:08:19Z</time>
      </trkpt>
      <trkpt lat="48.76848" lon="-0.65944">
        <ele>250.4</ele>
        <time>2014-09-01T14:08:31Z</time>
      </trkpt>
      <trkpt lat="48.76866" lon="-0.65987">
        <ele>248.6</ele>
        <time>2014-09-01T14:08:40Z</time>
      </trkpt>
      <trkpt lat="48.76886" lon="-0.66026">
        <ele>246.6</ele>
        <time>2014-09-01T14:08:48Z</time>
      </trkpt>
      <trkpt lat="48.76909" lon="-0.66067">
        <ele>242.6</ele>
        <time>2014-09-01T14:08:56Z</time>
      </trkpt>
      <trkpt lat="48.76933" lon="-0.66107">
        <ele>239.6</ele>
        <time>2014-09-01T14:09:07Z</time>
      </trkpt>
      <trkpt lat="48.76935" lon="-0.6611">
        <ele>239.4</ele>
        <time>2014-09-01T14:09:08Z</time>
      </trkpt>
      <trkpt lat="48.76965" lon="-0.66141">
        <ele>238.6</ele>
        <time>2014-09-01T14:09:20Z</time>
      </trkpt>
      <trkpt lat="48.77004" lon="-0.66145">
        <ele>241</ele>
        <time>2014-09-01T14:09:33Z</time>
      </trkpt>
      <trkpt lat="48.77038" lon="-0.66146">
        <ele>239.8</ele>
        <time>2014-09-01T14:09:46Z</time>
      </trkpt>
      <trkpt lat="48.77076" lon="-0.66144">
        <ele>236.8</ele>
        <time>2014-09-01T14:09:58Z</time>
      </trkpt>
      <trkpt lat="48.7711" lon="-0.66144">
        <ele>233.8</ele>
        <time>2014-09-01T14:10:09Z</time>
      </trkpt>
      <trkpt lat="48.77119" lon="-0.66144">
        <ele>232.2</ele>
        <time>2014-09-01T14:10:11Z</time>
      </trkpt>
      <trkpt lat="48.77163" lon="-0.66151">
        <ele>228.8</ele>
        <time>2014-09-01T14:10:24Z</time>
      </trkpt>
      <trkpt lat="48.77197" lon="-0.66158">
        <ele>227</ele>
        <time>2014-09-01T14:10:39Z</time>
      </trkpt>
      <trkpt lat="48.77236" lon="-0.66171">
        <ele>224.8</ele>
        <time>2014-09-01T14:10:53Z</time>
      </trkpt>
      <trkpt lat="48.77278" lon="-0.66188">
        <ele>222</ele>
        <time>2014-09-01T14:11:09Z</time>
      </trkpt>
      <trkpt lat="48.77281" lon="-0.66189">
        <ele>221.8</ele>
        <time>2014-09-01T14:11:10Z</time>
      </trkpt>
      <trkpt lat="48.77291" lon="-0.6618">
        <ele>221</ele>
        <time>2014-09-01T14:11:14Z</time>
      </trkpt>
      <trkpt lat="48.77309" lon="-0.66144">
        <ele>217.8</ele>
        <time>2014-09-01T14:11:24Z</time>
      </trkpt>
      <trkpt lat="48.77315" lon="-0.66144">
        <ele>216.4</ele>
        <time>2014-09-01T14:11:27Z</time>
      </trkpt>
      <trkpt lat="48.77317" lon="-0.66146">
        <ele>216</ele>
        <time>2014-09-01T14:11:28Z</time>
      </trkpt>
      <trkpt lat="48.77319" lon="-0.66149">
        <ele>215.8</ele>
        <time>2014-09-01T14:11:29Z</time>
      </trkpt>
      <trkpt lat="48.7732" lon="-0.66152">
        <ele>215.4</ele>
        <time>2014-09-01T14:11:30Z</time>
      </trkpt>
      <trkpt lat="48.77322" lon="-0.66155">
        <ele>215.2</ele>
        <time>2014-09-01T14:11:31Z</time>
      </trkpt>
      <trkpt lat="48.77324" lon="-0.66158">
        <ele>215</ele>
        <time>2014-09-01T14:11:32Z</time>
      </trkpt>
      <trkpt lat="48.77358" lon="-0.66222">
        <ele>212.6</ele>
        <time>2014-09-01T14:11:46Z</time>
      </trkpt>
      <trkpt lat="48.77364" lon="-0.66234">
        <ele>212.2</ele>
        <time>2014-09-01T14:11:48Z</time>
      </trkpt>
      <trkpt lat="48.77367" lon="-0.6624">
        <ele>212</ele>
        <time>2014-09-01T14:11:49Z</time>
      </trkpt>
      <trkpt lat="48.774" lon="-0.66303">
        <ele>208.8</ele>
        <time>2014-09-01T14:11:58Z</time>
      </trkpt>
      <trkpt lat="48.77403" lon="-0.66309">
        <ele>208.4</ele>
        <time>2014-09-01T14:11:59Z</time>
      </trkpt>
      <trkpt lat="48.77405" lon="-0.66315">
        <ele>208</ele>
        <time>2014-09-01T14:12:00Z</time>
      </trkpt>
      <trkpt lat="48.77438" lon="-0.66416">
        <ele>205</ele>
        <time>2014-09-01T14:12:14Z</time>
      </trkpt>
      <trkpt lat="48.77443" lon="-0.6643">
        <ele>204.8</ele>
        <time>2014-09-01T14:12:16Z</time>
      </trkpt>
      <trkpt lat="48.77469" lon="-0.66504">
        <ele>204.4</ele>
        <time>2014-09-01T14:12:30Z</time>
      </trkpt>
      <trkpt lat="48.77481" lon="-0.66575">
        <ele>203</ele>
        <time>2014-09-01T14:12:43Z</time>
      </trkpt>
      <trkpt lat="48.77483" lon="-0.66578">
        <ele>203</ele>
        <time>2014-09-01T14:12:44Z</time>
      </trkpt>
      <trkpt lat="48.77485" lon="-0.66582">
        <ele>202.8</ele>
        <time>2014-09-01T14:12:45Z</time>
      </trkpt>
      <trkpt lat="48.77488" lon="-0.66585">
        <ele>202.6</ele>
        <time>2014-09-01T14:12:46Z</time>
      </trkpt>
      <trkpt lat="48.77492" lon="-0.66588">
        <ele>202.4</ele>
        <time>2014-09-01T14:12:47Z</time>
      </trkpt>
      <trkpt lat="48.775" lon="-0.66594">
        <ele>202</ele>
        <time>2014-09-01T14:12:49Z</time>
      </trkpt>
      <trkpt lat="48.77553" lon="-0.66644">
        <ele>198.6</ele>
        <time>2014-09-01T14:13:00Z</time>
      </trkpt>
      <trkpt lat="48.77595" lon="-0.66684">
        <ele>195.4</ele>
        <time>2014-09-01T14:13:07Z</time>
      </trkpt>
      <trkpt lat="48.77635" lon="-0.66724">
        <ele>192.4</ele>
        <time>2014-09-01T14:13:14Z</time>
      </trkpt>
      <trkpt lat="48.77655" lon="-0.66754">
        <ele>189.8</ele>
        <time>2014-09-01T14:13:22Z</time>
      </trkpt>
      <trkpt lat="48.77655" lon="-0.66759">
        <ele>189.6</ele>
        <time>2014-09-01T14:13:23Z</time>
      </trkpt>
      <trkpt lat="48.77652" lon="-0.66853">
        <ele>186.6</ele>
        <time>2014-09-01T14:13:36Z</time>
      </trkpt>
      <trkpt lat="48.77657" lon="-0.66922">
        <ele>184</ele>
        <time>2014-09-01T14:13:43Z</time>
      </trkpt>
      <trkpt lat="48.77648" lon="-0.67017">
        <ele>181</ele>
        <time>2014-09-01T14:13:53Z</time>
      </trkpt>
      <trkpt lat="48.77637" lon="-0.671">
        <ele>180.8</ele>
        <time>2014-09-01T14:14:06Z</time>
      </trkpt>
      <trkpt lat="48.77639" lon="-0.67124">
        <ele>180.6</ele>
        <time>2014-09-01T14:14:10Z</time>
      </trkpt>
      <trkpt lat="48.7764" lon="-0.6713">
        <ele>180.4</ele>
        <time>2014-09-01T14:14:11Z</time>
      </trkpt>
      <trkpt lat="48.7766" lon="-0.6721">
        <ele>180.4</ele>
        <time>2014-09-01T14:14:25Z</time>
      </trkpt>
      <trkpt lat="48.7768" lon="-0.67251">
        <ele>183.4</ele>
        <time>2014-09-01T14:14:38Z</time>
      </trkpt>
      <trkpt lat="48.777" lon="-0.67288">
        <ele>186.4</ele>
        <time>2014-09-01T14:14:52Z</time>
      </trkpt>
      <trkpt lat="48.77714" lon="-0.67318">
        <ele>188.6</ele>
        <time>2014-09-01T14:15:04Z</time>
      </trkpt>
      <trkpt lat="48.77715" lon="-0.6732">
        <ele>188.6</ele>
        <time>2014-09-01T14:15:05Z</time>
      </trkpt>
      <trkpt lat="48.77716" lon="-0.67322">
        <ele>188.8</ele>
        <time>2014-09-01T14:15:06Z</time>
      </trkpt>
      <trkpt lat="48.77718" lon="-0.67324">
        <ele>189</ele>
        <time>2014-09-01T14:15:07Z</time>
      </trkpt>
      <trkpt lat="48.77719" lon="-0.67327">
        <ele>189.2</ele>
        <time>2014-09-01T14:15:08Z</time>
      </trkpt>
      <trkpt lat="48.7772" lon="-0.6733">
        <ele>189.4</ele>
        <time>2014-09-01T14:15:09Z</time>
      </trkpt>
      <trkpt lat="48.77741" lon="-0.67367">
        <ele>192</ele>
        <time>2014-09-01T14:15:21Z</time>
      </trkpt>
      <trkpt lat="48.77761" lon="-0.67407">
        <ele>195</ele>
        <time>2014-09-01T14:15:35Z</time>
      </trkpt>
      <trkpt lat="48.77774" lon="-0.67449">
        <ele>196.8</ele>
        <time>2014-09-01T14:15:48Z</time>
      </trkpt>
      <trkpt lat="48.77772" lon="-0.67452">
        <ele>197</ele>
        <time>2014-09-01T14:15:49Z</time>
      </trkpt>
      <trkpt lat="48.77769" lon="-0.67454">
        <ele>197.2</ele>
        <time>2014-09-01T14:15:50Z</time>
      </trkpt>
      <trkpt lat="48.77767" lon="-0.67455">
        <ele>197.4</ele>
        <time>2014-09-01T14:15:51Z</time>
      </trkpt>
      <trkpt lat="48.77765" lon="-0.67456">
        <ele>197.4</ele>
        <time>2014-09-01T14:15:52Z</time>
      </trkpt>
      <trkpt lat="48.77718" lon="-0.6749">
        <ele>198.2</ele>
        <time>2014-09-01T14:16:09Z</time>
      </trkpt>
      <trkpt lat="48.77671" lon="-0.67528">
        <ele>198</ele>
        <time>2014-09-01T14:16:23Z</time>
      </trkpt>
      <trkpt lat="48.77622" lon="-0.67569">
        <ele>198.8</ele>
        <time>2014-09-01T14:16:38Z</time>
      </trkpt>
      <trkpt lat="48.77564" lon="-0.67614">
        <ele>199.4</ele>
        <time>2014-09-01T14:16:56Z</time>
      </trkpt>
      <trkpt lat="48.77501" lon="-0.67659">
        <ele>201.8</ele>
        <time>2014-09-01T14:17:15Z</time>
      </trkpt>
      <trkpt lat="48.77436" lon="-0.67702">
        <ele>203.6</ele>
        <time>2014-09-01T14:17:34Z</time>
      </trkpt>
      <trkpt lat="48.77382" lon="-0.67723">
        <ele>205.2</ele>
        <time>2014-09-01T14:17:50Z</time>
      </trkpt>
      <trkpt lat="48.77348" lon="-0.67725">
        <ele>206.6</ele>
        <time>2014-09-01T14:18:02Z</time>
      </trkpt>
      <trkpt lat="48.773" lon="-0.67738">
        <ele>208</ele>
        <time>2014-09-01T14:18:17Z</time>
      </trkpt>
      <trkpt lat="48.77252" lon="-0.67743">
        <ele>209.6</ele>
        <time>2014-09-01T14:18:32Z</time>
      </trkpt>
      <trkpt lat="48.77229" lon="-0.67751">
        <ele>210.8</ele>
        <time>2014-09-01T14:18:40Z</time>
      </trkpt>
      <trkpt lat="48.77219" lon="-0.67736">
        <ele>211.8</ele>
        <time>2014-09-01T14:18:46Z</time>
      </trkpt>
      <trkpt lat="48.77192" lon="-0.67694">
        <ele>214</ele>
        <time>2014-09-01T14:19:03Z</time>
      </trkpt>
      <trkpt lat="48.77161" lon="-0.67659">
        <ele>216.4</ele>
        <time>2014-09-01T14:19:20Z</time>
      </trkpt>
      <trkpt lat="48.77137" lon="-0.67653">
        <ele>219.6</ele>
        <time>2014-09-01T14:19:33Z</time>
      </trkpt>
      <trkpt lat="48.77118" lon="-0.67658">
        <ele>222.8</ele>
        <time>2014-09-01T14:19:43Z</time>
      </trkpt>
      <trkpt lat="48.77109" lon="-0.6767">
        <ele>224.4</ele>
        <time>2014-09-01T14:19:49Z</time>
      </trkpt>
      <trkpt lat="48.77105" lon="-0.67678">
        <ele>226</ele>
        <time>2014-09-01T14:19:53Z</time>
      </trkpt>
      <trkpt lat="48.77093" lon="-0.67691">
        <ele>229.4</ele>
        <time>2014-09-01T14:20:02Z</time>
      </trkpt>
      <trkpt lat="48.7707" lon="-0.67708">
        <ele>232.6</ele>
        <time>2014-09-01T14:20:12Z</time>
      </trkpt>
      <trkpt lat="48.77045" lon="-0.67714">
        <ele>235.8</ele>
        <time>2014-09-01T14:20:23Z</time>
      </trkpt>
      <trkpt lat="48.77018" lon="-0.67717">
        <ele>238.2</ele>
        <time>2014-09-01T14:20:35Z</time>
      </trkpt>
      <trkpt lat="48.76988" lon="-0.67717">
        <ele>241.2</ele>
        <time>2014-09-01T14:20:51Z</time>
      </trkpt>
      <trkpt lat="48.76956" lon="-0.67718">
        <ele>243.4</ele>
        <time>2014-09-01T14:21:07Z</time>
      </trkpt>
      <trkpt lat="48.76928" lon="-0.67718">
        <ele>245.2</ele>
        <time>2014-09-01T14:21:22Z</time>
      </trkpt>
      <trkpt lat="48.76912" lon="-0.67719">
        <ele>246</ele>
        <time>2014-09-01T14:21:29Z</time>
      </trkpt>
      <trkpt lat="48.76895" lon="-0.67722">
        <ele>246.8</ele>
        <time>2014-09-01T14:21:37Z</time>
      </trkpt>
      <trkpt lat="48.76863" lon="-0.67722">
        <ele>248.8</ele>
        <time>2014-09-01T14:21:52Z</time>
      </trkpt>
      <trkpt lat="48.76832" lon="-0.67723">
        <ele>250.4</ele>
        <time>2014-09-01T14:22:06Z</time>
      </trkpt>
      <trkpt lat="48.76805" lon="-0.67725">
        <ele>252</ele>
        <time>2014-09-01T14:22:20Z</time>
      </trkpt>
      <trkpt lat="48.76774" lon="-0.67728">
        <ele>252.6</ele>
        <time>2014-09-01T14:22:32Z</time>
      </trkpt>
      <trkpt lat="48.76741" lon="-0.67732">
        <ele>253.6</ele>
        <time>2014-09-01T14:22:47Z</time>
      </trkpt>
      <trkpt lat="48.7674" lon="-0.67732">
        <ele>253.8</ele>
        <time>2014-09-01T14:22:50Z</time>
      </trkpt>
      <trkpt lat="48.76736" lon="-0.67733">
        <ele>254.2</ele>
        <time>2014-09-01T14:26:31Z</time>
      </trkpt>
      <trkpt lat="48.76727" lon="-0.6773">
        <ele>254.2</ele>
        <time>2014-09-01T14:26:36Z</time>
      </trkpt>
      <trkpt lat="48.7672" lon="-0.67732">
        <ele>254.2</ele>
        <time>2014-09-01T14:26:41Z</time>
      </trkpt>
      <trkpt lat="48.76691" lon="-0.67731">
        <ele>254.8</ele>
        <time>2014-09-01T14:26:56Z</time>
      </trkpt>
      <trkpt lat="48.76673" lon="-0.67731">
        <ele>255</ele>
        <time>2014-09-01T14:27:04Z</time>
      </trkpt>
      <trkpt lat="48.76649" lon="-0.67752">
        <ele>256.2</ele>
        <time>2014-09-01T14:27:16Z</time>
      </trkpt>
      <trkpt lat="48.76621" lon="-0.67767">
        <ele>258.2</ele>
        <time>2014-09-01T14:27:29Z</time>
      </trkpt>
      <trkpt lat="48.76607" lon="-0.67797">
        <ele>259.8</ele>
        <time>2014-09-01T14:27:42Z</time>
      </trkpt>
      <trkpt lat="48.76591" lon="-0.67826">
        <ele>262</ele>
        <time>2014-09-01T14:27:54Z</time>
      </trkpt>
      <trkpt lat="48.76559" lon="-0.67839">
        <ele>263.6</ele>
        <time>2014-09-01T14:28:07Z</time>
      </trkpt>
      <trkpt lat="48.76507" lon="-0.67838">
        <ele>263.8</ele>
        <time>2014-09-01T14:28:24Z</time>
      </trkpt>
      <trkpt lat="48.76452" lon="-0.67819">
        <ele>264.6</ele>
        <time>2014-09-01T14:28:43Z</time>
      </trkpt>
      <trkpt lat="48.76427" lon="-0.67814">
        <ele>264.4</ele>
        <time>2014-09-01T14:28:52Z</time>
      </trkpt>
      <trkpt lat="48.76425" lon="-0.67813">
        <ele>264.4</ele>
        <time>2014-09-01T14:28:58Z</time>
      </trkpt>
      <trkpt lat="48.76415" lon="-0.67806">
        <ele>264.8</ele>
        <time>2014-09-01T14:31:04Z</time>
      </trkpt>
      <trkpt lat="48.76409" lon="-0.67805">
        <ele>264.8</ele>
        <time>2014-09-01T14:31:07Z</time>
      </trkpt>
      <trkpt lat="48.76377" lon="-0.67795">
        <ele>264.8</ele>
        <time>2014-09-01T14:31:20Z</time>
      </trkpt>
      <trkpt lat="48.76361" lon="-0.67791">
        <ele>264.8</ele>
        <time>2014-09-01T14:31:25Z</time>
      </trkpt>
      <trkpt lat="48.76332" lon="-0.67778">
        <ele>265.8</ele>
        <time>2014-09-01T14:31:34Z</time>
      </trkpt>
      <trkpt lat="48.76297" lon="-0.67766">
        <ele>266.4</ele>
        <time>2014-09-01T14:31:43Z</time>
      </trkpt>
      <trkpt lat="48.76269" lon="-0.67753">
        <ele>266</ele>
        <time>2014-09-01T14:31:50Z</time>
      </trkpt>
      <trkpt lat="48.76223" lon="-0.67721">
        <ele>264.8</ele>
        <time>2014-09-01T14:32:02Z</time>
      </trkpt>
      <trkpt lat="48.76181" lon="-0.67709">
        <ele>262.4</ele>
        <time>2014-09-01T14:32:11Z</time>
      </trkpt>
      <trkpt lat="48.76127" lon="-0.67706">
        <ele>259.6</ele>
        <time>2014-09-01T14:32:20Z</time>
      </trkpt>
      <trkpt lat="48.76103" lon="-0.67716">
        <ele>258.6</ele>
        <time>2014-09-01T14:32:25Z</time>
      </trkpt>
      <trkpt lat="48.761" lon="-0.67718">
        <ele>258.4</ele>
        <time>2014-09-01T14:32:26Z</time>
      </trkpt>
      <trkpt lat="48.76099" lon="-0.67722">
        <ele>258.2</ele>
        <time>2014-09-01T14:32:27Z</time>
      </trkpt>
      <trkpt lat="48.76098" lon="-0.67727">
        <ele>258</ele>
        <time>2014-09-01T14:32:28Z</time>
      </trkpt>
      <trkpt lat="48.76098" lon="-0.67732">
        <ele>258</ele>
        <time>2014-09-01T14:32:29Z</time>
      </trkpt>
      <trkpt lat="48.761" lon="-0.67737">
        <ele>257.8</ele>
        <time>2014-09-01T14:32:30Z</time>
      </trkpt>
      <trkpt lat="48.76101" lon="-0.67741">
        <ele>257.8</ele>
        <time>2014-09-01T14:32:31Z</time>
      </trkpt>
      <trkpt lat="48.76103" lon="-0.67745">
        <ele>257.8</ele>
        <time>2014-09-01T14:32:32Z</time>
      </trkpt>
      <trkpt lat="48.76109" lon="-0.67788">
        <ele>261</ele>
        <time>2014-09-01T14:32:43Z</time>
      </trkpt>
      <trkpt lat="48.7612" lon="-0.67837">
        <ele>264</ele>
        <time>2014-09-01T14:32:54Z</time>
      </trkpt>
      <trkpt lat="48.76135" lon="-0.67881">
        <ele>267.2</ele>
        <time>2014-09-01T14:33:05Z</time>
      </trkpt>
      <trkpt lat="48.76154" lon="-0.67966">
        <ele>268</ele>
        <time>2014-09-01T14:33:21Z</time>
      </trkpt>
      <trkpt lat="48.76154" lon="-0.67968">
        <ele>268.2</ele>
        <time>2014-09-01T14:33:26Z</time>
      </trkpt>
      <trkpt lat="48.76154" lon="-0.67976">
        <ele>268</ele>
        <time>2014-09-01T14:33:37Z</time>
      </trkpt>
      <trkpt lat="48.76162" lon="-0.6804">
        <ele>266.6</ele>
        <time>2014-09-01T14:33:48Z</time>
      </trkpt>
      <trkpt lat="48.76164" lon="-0.68056">
        <ele>266.2</ele>
        <time>2014-09-01T14:33:50Z</time>
      </trkpt>
      <trkpt lat="48.76163" lon="-0.68066">
        <ele>266</ele>
        <time>2014-09-01T14:33:51Z</time>
      </trkpt>
      <trkpt lat="48.76162" lon="-0.68075">
        <ele>265.6</ele>
        <time>2014-09-01T14:33:52Z</time>
      </trkpt>
      <trkpt lat="48.76159" lon="-0.68094">
        <ele>264.8</ele>
        <time>2014-09-01T14:33:54Z</time>
      </trkpt>
      <trkpt lat="48.76158" lon="-0.68102">
        <ele>264.4</ele>
        <time>2014-09-01T14:33:55Z</time>
      </trkpt>
      <trkpt lat="48.76159" lon="-0.68109">
        <ele>264</ele>
        <time>2014-09-01T14:33:56Z</time>
      </trkpt>
      <trkpt lat="48.76167" lon="-0.68162">
        <ele>263</ele>
        <time>2014-09-01T14:34:05Z</time>
      </trkpt>
      <trkpt lat="48.76171" lon="-0.68165">
        <ele>263</ele>
        <time>2014-09-01T14:34:06Z</time>
      </trkpt>
      <trkpt lat="48.76175" lon="-0.68167">
        <ele>263.2</ele>
        <time>2014-09-01T14:34:07Z</time>
      </trkpt>
      <trkpt lat="48.76179" lon="-0.68168">
        <ele>263.2</ele>
        <time>2014-09-01T14:34:08Z</time>
      </trkpt>
      <trkpt lat="48.76182" lon="-0.6817">
        <ele>263.2</ele>
        <time>2014-09-01T14:34:09Z</time>
      </trkpt>
      <trkpt lat="48.76222" lon="-0.68203">
        <ele>264.6</ele>
        <time>2014-09-01T14:34:20Z</time>
      </trkpt>
      <trkpt lat="48.76225" lon="-0.68208">
        <ele>264.8</ele>
        <time>2014-09-01T14:34:21Z</time>
      </trkpt>
      <trkpt lat="48.76227" lon="-0.68213">
        <ele>265</ele>
        <time>2014-09-01T14:34:22Z</time>
      </trkpt>
      <trkpt lat="48.76227" lon="-0.68219">
        <ele>265.2</ele>
        <time>2014-09-01T14:34:23Z</time>
      </trkpt>
      <trkpt lat="48.76228" lon="-0.68225">
        <ele>265.2</ele>
        <time>2014-09-01T14:34:24Z</time>
      </trkpt>
      <trkpt lat="48.76233" lon="-0.68248">
        <ele>266</ele>
        <time>2014-09-01T14:34:29Z</time>
      </trkpt>
      <trkpt lat="48.76235" lon="-0.6825">
        <ele>266.2</ele>
        <time>2014-09-01T14:34:30Z</time>
      </trkpt>
      <trkpt lat="48.76238" lon="-0.68252">
        <ele>266.2</ele>
        <time>2014-09-01T14:34:31Z</time>
      </trkpt>
      <trkpt lat="48.76257" lon="-0.68266">
        <ele>266.8</ele>
        <time>2014-09-01T14:34:37Z</time>
      </trkpt>
      <trkpt lat="48.76258" lon="-0.68271">
        <ele>266.8</ele>
        <time>2014-09-01T14:34:38Z</time>
      </trkpt>
      <trkpt lat="48.76258" lon="-0.68276">
        <ele>266.8</ele>
        <time>2014-09-01T14:34:39Z</time>
      </trkpt>
      <trkpt lat="48.76268" lon="-0.68358">
        <ele>267.6</ele>
        <time>2014-09-01T14:34:55Z</time>
      </trkpt>
      <trkpt lat="48.7627" lon="-0.68368">
        <ele>267.8</ele>
        <time>2014-09-01T14:34:59Z</time>
      </trkpt>
      <trkpt lat="48.7627" lon="-0.6837">
        <ele>268</ele>
        <time>2014-09-01T14:35:00Z</time>
      </trkpt>
      <trkpt lat="48.76269" lon="-0.68373">
        <ele>268</ele>
        <time>2014-09-01T14:35:01Z</time>
      </trkpt>
      <trkpt lat="48.76268" lon="-0.68375">
        <ele>268</ele>
        <time>2014-09-01T14:35:02Z</time>
      </trkpt>
      <trkpt lat="48.76267" lon="-0.68377">
        <ele>268</ele>
        <time>2014-09-01T14:35:03Z</time>
      </trkpt>
      <trkpt lat="48.76267" lon="-0.68379">
        <ele>268</ele>
        <time>2014-09-01T14:35:04Z</time>
      </trkpt>
      <trkpt lat="48.76267" lon="-0.68381">
        <ele>268</ele>
        <time>2014-09-01T14:35:05Z</time>
      </trkpt>
      <trkpt lat="48.76267" lon="-0.68384">
        <ele>268</ele>
        <time>2014-09-01T14:35:06Z</time>
      </trkpt>
      <trkpt lat="48.76268" lon="-0.68388">
        <ele>267.8</ele>
        <time>2014-09-01T14:35:07Z</time>
      </trkpt>
      <trkpt lat="48.7627" lon="-0.6839">
        <ele>267.8</ele>
        <time>2014-09-01T14:35:08Z</time>
      </trkpt>
      <trkpt lat="48.76272" lon="-0.68392">
        <ele>267.8</ele>
        <time>2014-09-01T14:35:09Z</time>
      </trkpt>
      <trkpt lat="48.76275" lon="-0.68394">
        <ele>267.6</ele>
        <time>2014-09-01T14:35:10Z</time>
      </trkpt>
      <trkpt lat="48.76278" lon="-0.68395">
        <ele>267.4</ele>
        <time>2014-09-01T14:35:11Z</time>
      </trkpt>
      <trkpt lat="48.76282" lon="-0.68396">
        <ele>267.2</ele>
        <time>2014-09-01T14:35:12Z</time>
      </trkpt>
      <trkpt lat="48.76349" lon="-0.68407">
        <ele>265.8</ele>
        <time>2014-09-01T14:35:28Z</time>
      </trkpt>
      <trkpt lat="48.76358" lon="-0.68409">
        <ele>265.6</ele>
        <time>2014-09-01T14:35:30Z</time>
      </trkpt>
      <trkpt lat="48.76398" lon="-0.68431">
        <ele>265.2</ele>
        <time>2014-09-01T14:35:42Z</time>
      </trkpt>
      <trkpt lat="48.76404" lon="-0.68451">
        <ele>265.2</ele>
        <time>2014-09-01T14:35:46Z</time>
      </trkpt>
      <trkpt lat="48.76407" lon="-0.68453">
        <ele>265.2</ele>
        <time>2014-09-01T14:35:47Z</time>
      </trkpt>
      <trkpt lat="48.76411" lon="-0.68455">
        <ele>265.2</ele>
        <time>2014-09-01T14:35:48Z</time>
      </trkpt>
      <trkpt lat="48.76419" lon="-0.68458">
        <ele>265.4</ele>
        <time>2014-09-01T14:35:50Z</time>
      </trkpt>
      <trkpt lat="48.76458" lon="-0.68459">
        <ele>265.2</ele>
        <time>2014-09-01T14:35:59Z</time>
      </trkpt>
      <trkpt lat="48.76536" lon="-0.6847">
        <ele>263.4</ele>
        <time>2014-09-01T14:36:14Z</time>
      </trkpt>
      <trkpt lat="48.76598" lon="-0.68493">
        <ele>260.2</ele>
        <time>2014-09-01T14:36:24Z</time>
      </trkpt>
      <trkpt lat="48.76626" lon="-0.68505">
        <ele>258.6</ele>
        <time>2014-09-01T14:36:28Z</time>
      </trkpt>
      <trkpt lat="48.76639" lon="-0.68513">
        <ele>257.8</ele>
        <time>2014-09-01T14:36:30Z</time>
      </trkpt>
      <trkpt lat="48.76683" lon="-0.68535">
        <ele>253.4</ele>
        <time>2014-09-01T14:36:36Z</time>
      </trkpt>
      <trkpt lat="48.76724" lon="-0.68552">
        <ele>249.6</ele>
        <time>2014-09-01T14:36:41Z</time>
      </trkpt>
      <trkpt lat="48.76775" lon="-0.68573">
        <ele>246.2</ele>
        <time>2014-09-01T14:36:47Z</time>
      </trkpt>
      <trkpt lat="48.76801" lon="-0.68593">
        <ele>244</ele>
        <time>2014-09-01T14:36:51Z</time>
      </trkpt>
      <trkpt lat="48.76824" lon="-0.68627">
        <ele>240.2</ele>
        <time>2014-09-01T14:36:59Z</time>
      </trkpt>
      <trkpt lat="48.76829" lon="-0.68635">
        <ele>239.4</ele>
        <time>2014-09-01T14:37:01Z</time>
      </trkpt>
      <trkpt lat="48.7684" lon="-0.68651">
        <ele>236</ele>
        <time>2014-09-01T14:37:06Z</time>
      </trkpt>
      <trkpt lat="48.76852" lon="-0.68666">
        <ele>233</ele>
        <time>2014-09-01T14:37:11Z</time>
      </trkpt>
      <trkpt lat="48.76869" lon="-0.68682">
        <ele>229.8</ele>
        <time>2014-09-01T14:37:16Z</time>
      </trkpt>
      <trkpt lat="48.76878" lon="-0.68688">
        <ele>228.6</ele>
        <time>2014-09-01T14:37:18Z</time>
      </trkpt>
      <trkpt lat="48.76895" lon="-0.68705">
        <ele>225</ele>
        <time>2014-09-01T14:37:24Z</time>
      </trkpt>
      <trkpt lat="48.76899" lon="-0.68708">
        <ele>223.8</ele>
        <time>2014-09-01T14:37:26Z</time>
      </trkpt>
      <trkpt lat="48.76921" lon="-0.68723">
        <ele>220</ele>
        <time>2014-09-01T14:37:35Z</time>
      </trkpt>
      <trkpt lat="48.76941" lon="-0.68738">
        <ele>217</ele>
        <time>2014-09-01T14:37:40Z</time>
      </trkpt>
      <trkpt lat="48.76958" lon="-0.68751">
        <ele>213.6</ele>
        <time>2014-09-01T14:37:47Z</time>
      </trkpt>
      <trkpt lat="48.76979" lon="-0.68799">
        <ele>210.6</ele>
        <time>2014-09-01T14:37:57Z</time>
      </trkpt>
      <trkpt lat="48.7698" lon="-0.68808">
        <ele>210.2</ele>
        <time>2014-09-01T14:37:59Z</time>
      </trkpt>
      <trkpt lat="48.76961" lon="-0.68863">
        <ele>207.2</ele>
        <time>2014-09-01T14:38:11Z</time>
      </trkpt>
      <trkpt lat="48.76954" lon="-0.68878">
        <ele>206.6</ele>
        <time>2014-09-01T14:38:14Z</time>
      </trkpt>
      <trkpt lat="48.76927" lon="-0.68926">
        <ele>206.2</ele>
        <time>2014-09-01T14:38:26Z</time>
      </trkpt>
      <trkpt lat="48.76933" lon="-0.68942">
        <ele>206</ele>
        <time>2014-09-01T14:38:37Z</time>
      </trkpt>
      <trkpt lat="48.76933" lon="-0.68943">
        <ele>206</ele>
        <time>2014-09-01T14:38:39Z</time>
      </trkpt>
      <trkpt lat="48.76939" lon="-0.68947">
        <ele>205.6</ele>
        <time>2014-09-01T14:39:02Z</time>
      </trkpt>
      <trkpt lat="48.76975" lon="-0.68966">
        <ele>204.8</ele>
        <time>2014-09-01T14:39:15Z</time>
      </trkpt>
      <trkpt lat="48.77019" lon="-0.68989">
        <ele>202.6</ele>
        <time>2014-09-01T14:39:28Z</time>
      </trkpt>
      <trkpt lat="48.77043" lon="-0.69012">
        <ele>201.8</ele>
        <time>2014-09-01T14:39:38Z</time>
      </trkpt>
      <trkpt lat="48.7705" lon="-0.69018">
        <ele>201.6</ele>
        <time>2014-09-01T14:39:42Z</time>
      </trkpt>
      <trkpt lat="48.77078" lon="-0.69038">
        <ele>198.8</ele>
        <time>2014-09-01T14:39:56Z</time>
      </trkpt>
      <trkpt lat="48.77101" lon="-0.69051">
        <ele>198</ele>
        <time>2014-09-01T14:40:07Z</time>
      </trkpt>
      <trkpt lat="48.77143" lon="-0.6904">
        <ele>197.2</ele>
        <time>2014-09-01T14:40:20Z</time>
      </trkpt>
      <trkpt lat="48.77177" lon="-0.69026">
        <ele>199.6</ele>
        <time>2014-09-01T14:40:32Z</time>
      </trkpt>
      <trkpt lat="48.77213" lon="-0.69011">
        <ele>202.2</ele>
        <time>2014-09-01T14:40:45Z</time>
      </trkpt>
      <trkpt lat="48.77249" lon="-0.68996">
        <ele>204.2</ele>
        <time>2014-09-01T14:41:00Z</time>
      </trkpt>
      <trkpt lat="48.77263" lon="-0.69005">
        <ele>205</ele>
        <time>2014-09-01T14:41:07Z</time>
      </trkpt>
      <trkpt lat="48.773" lon="-0.6904">
        <ele>207.8</ele>
        <time>2014-09-01T14:41:22Z</time>
      </trkpt>
      <trkpt lat="48.77329" lon="-0.69078">
        <ele>209.6</ele>
        <time>2014-09-01T14:41:34Z</time>
      </trkpt>
      <trkpt lat="48.77346" lon="-0.69142">
        <ele>211.2</ele>
        <time>2014-09-01T14:41:48Z</time>
      </trkpt>
      <trkpt lat="48.77362" lon="-0.69217">
        <ele>210</ele>
        <time>2014-09-01T14:42:03Z</time>
      </trkpt>
      <trkpt lat="48.7737" lon="-0.69265">
        <ele>209.2</ele>
        <time>2014-09-01T14:42:14Z</time>
      </trkpt>
      <trkpt lat="48.77372" lon="-0.69269">
        <ele>209.2</ele>
        <time>2014-09-01T14:42:15Z</time>
      </trkpt>
      <trkpt lat="48.77374" lon="-0.69272">
        <ele>209</ele>
        <time>2014-09-01T14:42:16Z</time>
      </trkpt>
      <trkpt lat="48.77376" lon="-0.69275">
        <ele>209</ele>
        <time>2014-09-01T14:42:17Z</time>
      </trkpt>
      <trkpt lat="48.77377" lon="-0.69277">
        <ele>208.8</ele>
        <time>2014-09-01T14:42:21Z</time>
      </trkpt>
      <trkpt lat="48.77382" lon="-0.69277">
        <ele>208.6</ele>
        <time>2014-09-01T14:42:58Z</time>
      </trkpt>
      <trkpt lat="48.77384" lon="-0.69276">
        <ele>208.6</ele>
        <time>2014-09-01T14:42:59Z</time>
      </trkpt>
      <trkpt lat="48.7743" lon="-0.69239">
        <ele>207.8</ele>
        <time>2014-09-01T14:43:15Z</time>
      </trkpt>
      <trkpt lat="48.77472" lon="-0.69202">
        <ele>207.4</ele>
        <time>2014-09-01T14:43:28Z</time>
      </trkpt>
      <trkpt lat="48.77536" lon="-0.69149">
        <ele>204.6</ele>
        <time>2014-09-01T14:43:42Z</time>
      </trkpt>
      <trkpt lat="48.77555" lon="-0.69134">
        <ele>203.8</ele>
        <time>2014-09-01T14:43:46Z</time>
      </trkpt>
      <trkpt lat="48.77565" lon="-0.69127">
        <ele>203</ele>
        <time>2014-09-01T14:43:48Z</time>
      </trkpt>
      <trkpt lat="48.77569" lon="-0.69122">
        <ele>202.8</ele>
        <time>2014-09-01T14:43:49Z</time>
      </trkpt>
      <trkpt lat="48.77574" lon="-0.69117">
        <ele>202.2</ele>
        <time>2014-09-01T14:43:50Z</time>
      </trkpt>
      <trkpt lat="48.77619" lon="-0.69048">
        <ele>199.6</ele>
        <time>2014-09-01T14:44:03Z</time>
      </trkpt>
      <trkpt lat="48.77668" lon="-0.68976">
        <ele>197.2</ele>
        <time>2014-09-01T14:44:16Z</time>
      </trkpt>
      <trkpt lat="48.77689" lon="-0.68948">
        <ele>196</ele>
        <time>2014-09-01T14:44:21Z</time>
      </trkpt>
      <trkpt lat="48.77723" lon="-0.68906">
        <ele>194.8</ele>
        <time>2014-09-01T14:44:32Z</time>
      </trkpt>
      <trkpt lat="48.7773" lon="-0.68897">
        <ele>194.6</ele>
        <time>2014-09-01T14:44:34Z</time>
      </trkpt>
      <trkpt lat="48.77746" lon="-0.68877">
        <ele>193.8</ele>
        <time>2014-09-01T14:44:38Z</time>
      </trkpt>
      <trkpt lat="48.77784" lon="-0.68848">
        <ele>190.6</ele>
        <time>2014-09-01T14:44:45Z</time>
      </trkpt>
      <trkpt lat="48.77834" lon="-0.68812">
        <ele>187.6</ele>
        <time>2014-09-01T14:44:54Z</time>
      </trkpt>
      <trkpt lat="48.7785" lon="-0.68805">
        <ele>186.6</ele>
        <time>2014-09-01T14:44:57Z</time>
      </trkpt>
      <trkpt lat="48.77855" lon="-0.68803">
        <ele>186.2</ele>
        <time>2014-09-01T14:44:58Z</time>
      </trkpt>
      <trkpt lat="48.77861" lon="-0.688">
        <ele>185.8</ele>
        <time>2014-09-01T14:44:59Z</time>
      </trkpt>
      <trkpt lat="48.77874" lon="-0.68793">
        <ele>185</ele>
        <time>2014-09-01T14:45:01Z</time>
      </trkpt>
      <trkpt lat="48.77893" lon="-0.6878">
        <ele>183.6</ele>
        <time>2014-09-01T14:45:04Z</time>
      </trkpt>
      <trkpt lat="48.77925" lon="-0.68759">
        <ele>180.6</ele>
        <time>2014-09-01T14:45:09Z</time>
      </trkpt>
      <trkpt lat="48.77949" lon="-0.68743">
        <ele>178.6</ele>
        <time>2014-09-01T14:45:13Z</time>
      </trkpt>
      <trkpt lat="48.77955" lon="-0.6874">
        <ele>178</ele>
        <time>2014-09-01T14:45:14Z</time>
      </trkpt>
      <trkpt lat="48.77973" lon="-0.6873">
        <ele>176.2</ele>
        <time>2014-09-01T14:45:17Z</time>
      </trkpt>
      <trkpt lat="48.77998" lon="-0.68713">
        <ele>174.2</ele>
        <time>2014-09-01T14:45:21Z</time>
      </trkpt>
      <trkpt lat="48.78004" lon="-0.68709">
        <ele>173.8</ele>
        <time>2014-09-01T14:45:22Z</time>
      </trkpt>
      <trkpt lat="48.7801" lon="-0.68706">
        <ele>173.4</ele>
        <time>2014-09-01T14:45:23Z</time>
      </trkpt>
      <trkpt lat="48.78054" lon="-0.68693">
        <ele>170.6</ele>
        <time>2014-09-01T14:45:30Z</time>
      </trkpt>
      <trkpt lat="48.78094" lon="-0.68675">
        <ele>167.2</ele>
        <time>2014-09-01T14:45:36Z</time>
      </trkpt>
      <trkpt lat="48.7812" lon="-0.68661">
        <ele>165.4</ele>
        <time>2014-09-01T14:45:40Z</time>
      </trkpt>
      <trkpt lat="48.78154" lon="-0.68643">
        <ele>163.2</ele>
        <time>2014-09-01T14:45:45Z</time>
      </trkpt>
      <trkpt lat="48.7816" lon="-0.6864">
        <ele>162.8</ele>
        <time>2014-09-01T14:45:46Z</time>
      </trkpt>
      <trkpt lat="48.78167" lon="-0.68636">
        <ele>162.6</ele>
        <time>2014-09-01T14:45:47Z</time>
      </trkpt>
      <trkpt lat="48.78226" lon="-0.68608">
        <ele>159.2</ele>
        <time>2014-09-01T14:45:56Z</time>
      </trkpt>
      <trkpt lat="48.78232" lon="-0.68606">
        <ele>159</ele>
        <time>2014-09-01T14:45:57Z</time>
      </trkpt>
      <trkpt lat="48.78247" lon="-0.68601">
        <ele>158.4</ele>
        <time>2014-09-01T14:46:04Z</time>
      </trkpt>
      <trkpt lat="48.78248" lon="-0.68601">
        <ele>158.2</ele>
        <time>2014-09-01T14:46:07Z</time>
      </trkpt>
      <trkpt lat="48.78257" lon="-0.68603">
        <ele>158.2</ele>
        <time>2014-09-01T14:46:35Z</time>
      </trkpt>
      <trkpt lat="48.78258" lon="-0.68602">
        <ele>158.2</ele>
        <time>2014-09-01T14:46:36Z</time>
      </trkpt>
      <trkpt lat="48.7826" lon="-0.686">
        <ele>158.2</ele>
        <time>2014-09-01T14:46:37Z</time>
      </trkpt>
      <trkpt lat="48.78261" lon="-0.68598">
        <ele>158.2</ele>
        <time>2014-09-01T14:46:38Z</time>
      </trkpt>
      <trkpt lat="48.78264" lon="-0.68597">
        <ele>158.2</ele>
        <time>2014-09-01T14:46:39Z</time>
      </trkpt>
      <trkpt lat="48.78268" lon="-0.68595">
        <ele>158.2</ele>
        <time>2014-09-01T14:46:40Z</time>
      </trkpt>
      <trkpt lat="48.78273" lon="-0.68593">
        <ele>158.2</ele>
        <time>2014-09-01T14:46:41Z</time>
      </trkpt>
      <trkpt lat="48.78279" lon="-0.6859">
        <ele>158.2</ele>
        <time>2014-09-01T14:46:42Z</time>
      </trkpt>
      <trkpt lat="48.78363" lon="-0.68539">
        <ele>156.2</ele>
        <time>2014-09-01T14:46:57Z</time>
      </trkpt>
      <trkpt lat="48.78434" lon="-0.68503">
        <ele>156.8</ele>
        <time>2014-09-01T14:47:13Z</time>
      </trkpt>
      <trkpt lat="48.78477" lon="-0.68469">
        <ele>157.8</ele>
        <time>2014-09-01T14:47:23Z</time>
      </trkpt>
      <trkpt lat="48.78481" lon="-0.68467">
        <ele>157.6</ele>
        <time>2014-09-01T14:47:24Z</time>
      </trkpt>
      <trkpt lat="48.78485" lon="-0.68464">
        <ele>157.6</ele>
        <time>2014-09-01T14:47:25Z</time>
      </trkpt>
      <trkpt lat="48.78489" lon="-0.68461">
        <ele>157.6</ele>
        <time>2014-09-01T14:47:26Z</time>
      </trkpt>
      <trkpt lat="48.78492" lon="-0.68458">
        <ele>157.6</ele>
        <time>2014-09-01T14:47:27Z</time>
      </trkpt>
      <trkpt lat="48.785" lon="-0.68452">
        <ele>157.6</ele>
        <time>2014-09-01T14:47:29Z</time>
      </trkpt>
      <trkpt lat="48.78539" lon="-0.6842">
        <ele>158</ele>
        <time>2014-09-01T14:47:42Z</time>
      </trkpt>
      <trkpt lat="48.78565" lon="-0.68398">
        <ele>157.4</ele>
        <time>2014-09-01T14:47:55Z</time>
      </trkpt>
      <trkpt lat="48.78565" lon="-0.68398">
        <ele>157.4</ele>
        <time>2014-09-01T14:47:57Z</time>
      </trkpt>
      <trkpt lat="48.78569" lon="-0.6839">
        <ele>157.4</ele>
        <time>2014-09-01T14:48:19Z</time>
      </trkpt>
      <trkpt lat="48.78569" lon="-0.68386">
        <ele>157.4</ele>
        <time>2014-09-01T14:48:20Z</time>
      </trkpt>
      <trkpt lat="48.78569" lon="-0.68383">
        <ele>157.4</ele>
        <time>2014-09-01T14:48:21Z</time>
      </trkpt>
      <trkpt lat="48.7856" lon="-0.68331">
        <ele>158.2</ele>
        <time>2014-09-01T14:48:32Z</time>
      </trkpt>
      <trkpt lat="48.78548" lon="-0.6827">
        <ele>159.6</ele>
        <time>2014-09-01T14:48:47Z</time>
      </trkpt>
      <trkpt lat="48.78535" lon="-0.68209">
        <ele>160.6</ele>
        <time>2014-09-01T14:49:01Z</time>
      </trkpt>
      <trkpt lat="48.78497" lon="-0.68208">
        <ele>160.6</ele>
        <time>2014-09-01T14:49:15Z</time>
      </trkpt>
      <trkpt lat="48.78491" lon="-0.68214">
        <ele>160.6</ele>
        <time>2014-09-01T14:49:17Z</time>
      </trkpt>
      <trkpt lat="48.78483" lon="-0.68222">
        <ele>160.8</ele>
        <time>2014-09-01T14:49:20Z</time>
      </trkpt>
      <trkpt lat="48.78471" lon="-0.68215">
        <ele>161</ele>
        <time>2014-09-01T14:49:24Z</time>
      </trkpt>
      <trkpt lat="48.78461" lon="-0.6817">
        <ele>161.8</ele>
        <time>2014-09-01T14:49:33Z</time>
      </trkpt>
      <trkpt lat="48.78483" lon="-0.68118">
        <ele>161.6</ele>
        <time>2014-09-01T14:49:42Z</time>
      </trkpt>
      <trkpt lat="48.78495" lon="-0.68076">
        <ele>161</ele>
        <time>2014-09-01T14:49:52Z</time>
      </trkpt>
      <trkpt lat="48.78526" lon="-0.68016">
        <ele>160</ele>
        <time>2014-09-01T14:50:02Z</time>
      </trkpt>
      <trkpt lat="48.78553" lon="-0.67941">
        <ele>158.4</ele>
        <time>2014-09-01T14:50:12Z</time>
      </trkpt>
      <trkpt lat="48.78554" lon="-0.67932">
        <ele>158.2</ele>
        <time>2014-09-01T14:50:13Z</time>
      </trkpt>
      <trkpt lat="48.78554" lon="-0.67923">
        <ele>158.2</ele>
        <time>2014-09-01T14:50:14Z</time>
      </trkpt>
      <trkpt lat="48.78553" lon="-0.67913">
        <ele>158</ele>
        <time>2014-09-01T14:50:15Z</time>
      </trkpt>
      <trkpt lat="48.78552" lon="-0.67904">
        <ele>158</ele>
        <time>2014-09-01T14:50:16Z</time>
      </trkpt>
      <trkpt lat="48.7855" lon="-0.67894">
        <ele>157.8</ele>
        <time>2014-09-01T14:50:17Z</time>
      </trkpt>
      <trkpt lat="48.78547" lon="-0.67885">
        <ele>157.6</ele>
        <time>2014-09-01T14:50:18Z</time>
      </trkpt>
      <trkpt lat="48.78544" lon="-0.67875">
        <ele>157.6</ele>
        <time>2014-09-01T14:50:19Z</time>
      </trkpt>
      <trkpt lat="48.78502" lon="-0.67776">
        <ele>154.2</ele>
        <time>2014-09-01T14:50:29Z</time>
      </trkpt>
      <trkpt lat="48.78492" lon="-0.67755">
        <ele>153.6</ele>
        <time>2014-09-01T14:50:31Z</time>
      </trkpt>
      <trkpt lat="48.78489" lon="-0.67743">
        <ele>153.2</ele>
        <time>2014-09-01T14:50:32Z</time>
      </trkpt>
      <trkpt lat="48.78485" lon="-0.67719">
        <ele>152.4</ele>
        <time>2014-09-01T14:50:34Z</time>
      </trkpt>
      <trkpt lat="48.78476" lon="-0.67659">
        <ele>150.8</ele>
        <time>2014-09-01T14:50:39Z</time>
      </trkpt>
      <trkpt lat="48.78472" lon="-0.67648">
        <ele>150.8</ele>
        <time>2014-09-01T14:50:40Z</time>
      </trkpt>
      <trkpt lat="48.78456" lon="-0.67591">
        <ele>150.4</ele>
        <time>2014-09-01T14:50:46Z</time>
      </trkpt>
      <trkpt lat="48.78455" lon="-0.67513">
        <ele>153.2</ele>
        <time>2014-09-01T14:50:56Z</time>
      </trkpt>
      <trkpt lat="48.78465" lon="-0.67459">
        <ele>156.2</ele>
        <time>2014-09-01T14:51:05Z</time>
      </trkpt>
      <trkpt lat="48.78479" lon="-0.67389">
        <ele>159.2</ele>
        <time>2014-09-01T14:51:15Z</time>
      </trkpt>
      <trkpt lat="48.7848" lon="-0.67343">
        <ele>162.2</ele>
        <time>2014-09-01T14:51:25Z</time>
      </trkpt>
      <trkpt lat="48.78465" lon="-0.67295">
        <ele>165.2</ele>
        <time>2014-09-01T14:51:35Z</time>
      </trkpt>
      <trkpt lat="48.78437" lon="-0.6718">
        <ele>168</ele>
        <time>2014-09-01T14:51:51Z</time>
      </trkpt>
      <trkpt lat="48.78436" lon="-0.67172">
        <ele>168</ele>
        <time>2014-09-01T14:51:52Z</time>
      </trkpt>
      <trkpt lat="48.78435" lon="-0.67164">
        <ele>168.2</ele>
        <time>2014-09-01T14:51:53Z</time>
      </trkpt>
      <trkpt lat="48.78435" lon="-0.67156">
        <ele>168.2</ele>
        <time>2014-09-01T14:51:54Z</time>
      </trkpt>
      <trkpt lat="48.78435" lon="-0.67148">
        <ele>168.4</ele>
        <time>2014-09-01T14:51:55Z</time>
      </trkpt>
      <trkpt lat="48.78433" lon="-0.6713">
        <ele>168.4</ele>
        <time>2014-09-01T14:51:57Z</time>
      </trkpt>
      <trkpt lat="48.78432" lon="-0.67121">
        <ele>168.4</ele>
        <time>2014-09-01T14:51:58Z</time>
      </trkpt>
      <trkpt lat="48.78426" lon="-0.67092">
        <ele>168.2</ele>
        <time>2014-09-01T14:52:01Z</time>
      </trkpt>
      <trkpt lat="48.78426" lon="-0.67082">
        <ele>168</ele>
        <time>2014-09-01T14:52:02Z</time>
      </trkpt>
      <trkpt lat="48.78426" lon="-0.67073">
        <ele>167.8</ele>
        <time>2014-09-01T14:52:03Z</time>
      </trkpt>
      <trkpt lat="48.78427" lon="-0.67066">
        <ele>167.4</ele>
        <time>2014-09-01T14:52:04Z</time>
      </trkpt>
      <trkpt lat="48.78429" lon="-0.67059">
        <ele>167</ele>
        <time>2014-09-01T14:52:05Z</time>
      </trkpt>
      <trkpt lat="48.78429" lon="-0.67052">
        <ele>166.6</ele>
        <time>2014-09-01T14:52:06Z</time>
      </trkpt>
      <trkpt lat="48.78427" lon="-0.67043">
        <ele>166.4</ele>
        <time>2014-09-01T14:52:07Z</time>
      </trkpt>
      <trkpt lat="48.78411" lon="-0.66989">
        <ele>163.2</ele>
        <time>2014-09-01T14:52:12Z</time>
      </trkpt>
      <trkpt lat="48.78404" lon="-0.6696">
        <ele>161.2</ele>
        <time>2014-09-01T14:52:14Z</time>
      </trkpt>
      <trkpt lat="48.78399" lon="-0.66914">
        <ele>157.8</ele>
        <time>2014-09-01T14:52:17Z</time>
      </trkpt>
      <trkpt lat="48.78399" lon="-0.66885">
        <ele>155.8</ele>
        <time>2014-09-01T14:52:19Z</time>
      </trkpt>
      <trkpt lat="48.784" lon="-0.66871">
        <ele>155.2</ele>
        <time>2014-09-01T14:52:20Z</time>
      </trkpt>
      <trkpt lat="48.78403" lon="-0.66858">
        <ele>154.6</ele>
        <time>2014-09-01T14:52:21Z</time>
      </trkpt>
      <trkpt lat="48.78406" lon="-0.66845">
        <ele>154</ele>
        <time>2014-09-01T14:52:22Z</time>
      </trkpt>
      <trkpt lat="48.78409" lon="-0.66834">
        <ele>153.8</ele>
        <time>2014-09-01T14:52:23Z</time>
      </trkpt>
      <trkpt lat="48.78432" lon="-0.66778">
        <ele>153.4</ele>
        <time>2014-09-01T14:52:29Z</time>
      </trkpt>
      <trkpt lat="48.78507" lon="-0.66639">
        <ele>153.2</ele>
        <time>2014-09-01T14:52:47Z</time>
      </trkpt>
      <trkpt lat="48.78544" lon="-0.66514">
        <ele>152</ele>
        <time>2014-09-01T14:53:01Z</time>
      </trkpt>
      <trkpt lat="48.78565" lon="-0.66408">
        <ele>155.2</ele>
        <time>2014-09-01T14:53:14Z</time>
      </trkpt>
      <trkpt lat="48.78575" lon="-0.6635">
        <ele>158.4</ele>
        <time>2014-09-01T14:53:21Z</time>
      </trkpt>
      <trkpt lat="48.78595" lon="-0.66233">
        <ele>161</ele>
        <time>2014-09-01T14:53:35Z</time>
      </trkpt>
      <trkpt lat="48.78599" lon="-0.66208">
        <ele>161.4</ele>
        <time>2014-09-01T14:53:38Z</time>
      </trkpt>
      <trkpt lat="48.78611" lon="-0.66096">
        <ele>164.6</ele>
        <time>2014-09-01T14:53:51Z</time>
      </trkpt>
      <trkpt lat="48.78623" lon="-0.65917">
        <ele>165.6</ele>
        <time>2014-09-01T14:54:11Z</time>
      </trkpt>
      <trkpt lat="48.78644" lon="-0.6576">
        <ele>164.4</ele>
        <time>2014-09-01T14:54:27Z</time>
      </trkpt>
      <trkpt lat="48.78663" lon="-0.65683">
        <ele>162.8</ele>
        <time>2014-09-01T14:54:35Z</time>
      </trkpt>
      <trkpt lat="48.78675" lon="-0.65638">
        <ele>161.8</ele>
        <time>2014-09-01T14:54:40Z</time>
      </trkpt>
      <trkpt lat="48.78704" lon="-0.65558">
        <ele>160.8</ele>
        <time>2014-09-01T14:54:50Z</time>
      </trkpt>
      <trkpt lat="48.78726" lon="-0.65497">
        <ele>159.8</ele>
        <time>2014-09-01T14:54:58Z</time>
      </trkpt>
      <trkpt lat="48.7873" lon="-0.65491">
        <ele>159.6</ele>
        <time>2014-09-01T14:54:59Z</time>
      </trkpt>
      <trkpt lat="48.78734" lon="-0.65486">
        <ele>159.6</ele>
        <time>2014-09-01T14:55:00Z</time>
      </trkpt>
      <trkpt lat="48.78739" lon="-0.65482">
        <ele>159.4</ele>
        <time>2014-09-01T14:55:01Z</time>
      </trkpt>
      <trkpt lat="48.78744" lon="-0.65479">
        <ele>159.2</ele>
        <time>2014-09-01T14:55:02Z</time>
      </trkpt>
      <trkpt lat="48.78805" lon="-0.65443">
        <ele>158.2</ele>
        <time>2014-09-01T14:55:17Z</time>
      </trkpt>
      <trkpt lat="48.78807" lon="-0.65442">
        <ele>158.2</ele>
        <time>2014-09-01T14:55:18Z</time>
      </trkpt>
      <trkpt lat="48.78808" lon="-0.65442">
        <ele>158.2</ele>
        <time>2014-09-01T14:55:19Z</time>
      </trkpt>
      <trkpt lat="48.7881" lon="-0.65442">
        <ele>158.2</ele>
        <time>2014-09-01T14:55:20Z</time>
      </trkpt>
      <trkpt lat="48.78862" lon="-0.65439">
        <ele>156.6</ele>
        <time>2014-09-01T14:55:31Z</time>
      </trkpt>
      <trkpt lat="48.78938" lon="-0.65415">
        <ele>156.4</ele>
        <time>2014-09-01T14:55:45Z</time>
      </trkpt>
      <trkpt lat="48.79004" lon="-0.65368">
        <ele>156.8</ele>
        <time>2014-09-01T14:55:58Z</time>
      </trkpt>
      <trkpt lat="48.79031" lon="-0.6535">
        <ele>156.2</ele>
        <time>2014-09-01T14:56:05Z</time>
      </trkpt>
      <trkpt lat="48.79089" lon="-0.65328">
        <ele>154.6</ele>
        <time>2014-09-01T14:56:19Z</time>
      </trkpt>
      <trkpt lat="48.7912" lon="-0.65318">
        <ele>153.6</ele>
        <time>2014-09-01T14:56:26Z</time>
      </trkpt>
      <trkpt lat="48.79125" lon="-0.65316">
        <ele>153.4</ele>
        <time>2014-09-01T14:56:27Z</time>
      </trkpt>
      <trkpt lat="48.79159" lon="-0.65302">
        <ele>152.6</ele>
        <time>2014-09-01T14:56:36Z</time>
      </trkpt>
      <trkpt lat="48.79163" lon="-0.653">
        <ele>152.6</ele>
        <time>2014-09-01T14:56:37Z</time>
      </trkpt>
      <trkpt lat="48.79167" lon="-0.65299">
        <ele>152.4</ele>
        <time>2014-09-01T14:56:38Z</time>
      </trkpt>
      <trkpt lat="48.79172" lon="-0.65298">
        <ele>152.4</ele>
        <time>2014-09-01T14:56:39Z</time>
      </trkpt>
      <trkpt lat="48.79176" lon="-0.65298">
        <ele>152.4</ele>
        <time>2014-09-01T14:56:40Z</time>
      </trkpt>
      <trkpt lat="48.79181" lon="-0.65298">
        <ele>152.4</ele>
        <time>2014-09-01T14:56:41Z</time>
      </trkpt>
      <trkpt lat="48.79186" lon="-0.65299">
        <ele>152.2</ele>
        <time>2014-09-01T14:56:42Z</time>
      </trkpt>
      <trkpt lat="48.79191" lon="-0.65301">
        <ele>152.2</ele>
        <time>2014-09-01T14:56:43Z</time>
      </trkpt>
      <trkpt lat="48.79196" lon="-0.65303">
        <ele>152</ele>
        <time>2014-09-01T14:56:44Z</time>
      </trkpt>
      <trkpt lat="48.79201" lon="-0.65307">
        <ele>151.8</ele>
        <time>2014-09-01T14:56:45Z</time>
      </trkpt>
      <trkpt lat="48.79206" lon="-0.6531">
        <ele>151.6</ele>
        <time>2014-09-01T14:56:46Z</time>
      </trkpt>
      <trkpt lat="48.79211" lon="-0.65311">
        <ele>151.4</ele>
        <time>2014-09-01T14:56:47Z</time>
      </trkpt>
      <trkpt lat="48.79216" lon="-0.65312">
        <ele>151.2</ele>
        <time>2014-09-01T14:56:48Z</time>
      </trkpt>
      <trkpt lat="48.79221" lon="-0.65311">
        <ele>151</ele>
        <time>2014-09-01T14:56:49Z</time>
      </trkpt>
      <trkpt lat="48.79225" lon="-0.65308">
        <ele>150.8</ele>
        <time>2014-09-01T14:56:50Z</time>
      </trkpt>
      <trkpt lat="48.79229" lon="-0.65305">
        <ele>150.8</ele>
        <time>2014-09-01T14:56:51Z</time>
      </trkpt>
      <trkpt lat="48.79233" lon="-0.65302">
        <ele>150.6</ele>
        <time>2014-09-01T14:56:52Z</time>
      </trkpt>
      <trkpt lat="48.79246" lon="-0.65288">
        <ele>151.2</ele>
        <time>2014-09-01T14:57:01Z</time>
      </trkpt>
      <trkpt lat="48.79246" lon="-0.65288">
        <ele>151.2</ele>
        <time>2014-09-01T14:57:02Z</time>
      </trkpt>
      <trkpt lat="48.79254" lon="-0.65283">
        <ele>150.4</ele>
        <time>2014-09-01T15:00:02Z</time>
      </trkpt>
      <trkpt lat="48.79287" lon="-0.65267">
        <ele>147</ele>
        <time>2014-09-01T15:00:13Z</time>
      </trkpt>
      <trkpt lat="48.79307" lon="-0.65257">
        <ele>144</ele>
        <time>2014-09-01T15:00:21Z</time>
      </trkpt>
      <trkpt lat="48.79322" lon="-0.65252">
        <ele>142.2</ele>
        <time>2014-09-01T15:00:24Z</time>
      </trkpt>
      <trkpt lat="48.79333" lon="-0.65247">
        <ele>140.8</ele>
        <time>2014-09-01T15:00:26Z</time>
      </trkpt>
      <trkpt lat="48.79338" lon="-0.65244">
        <ele>140</ele>
        <time>2014-09-01T15:00:27Z</time>
      </trkpt>
      <trkpt lat="48.79354" lon="-0.65233">
        <ele>137</ele>
        <time>2014-09-01T15:00:32Z</time>
      </trkpt>
      <trkpt lat="48.79377" lon="-0.65224">
        <ele>134</ele>
        <time>2014-09-01T15:00:39Z</time>
      </trkpt>
      <trkpt lat="48.79404" lon="-0.65211">
        <ele>130.8</ele>
        <time>2014-09-01T15:00:46Z</time>
      </trkpt>
      <trkpt lat="48.79409" lon="-0.65206">
        <ele>130.4</ele>
        <time>2014-09-01T15:00:47Z</time>
      </trkpt>
      <trkpt lat="48.79438" lon="-0.65179">
        <ele>128.8</ele>
        <time>2014-09-01T15:00:52Z</time>
      </trkpt>
      <trkpt lat="48.79453" lon="-0.65167">
        <ele>128</ele>
        <time>2014-09-01T15:00:55Z</time>
      </trkpt>
      <trkpt lat="48.79496" lon="-0.65139">
        <ele>126.8</ele>
        <time>2014-09-01T15:01:05Z</time>
      </trkpt>
      <trkpt lat="48.795" lon="-0.65135">
        <ele>126.6</ele>
        <time>2014-09-01T15:01:06Z</time>
      </trkpt>
      <trkpt lat="48.79506" lon="-0.6513">
        <ele>126.4</ele>
        <time>2014-09-01T15:01:07Z</time>
      </trkpt>
      <trkpt lat="48.79511" lon="-0.65124">
        <ele>126.2</ele>
        <time>2014-09-01T15:01:08Z</time>
      </trkpt>
      <trkpt lat="48.79516" lon="-0.65119">
        <ele>125.8</ele>
        <time>2014-09-01T15:01:09Z</time>
      </trkpt>
      <trkpt lat="48.79521" lon="-0.65115">
        <ele>125.6</ele>
        <time>2014-09-01T15:01:10Z</time>
      </trkpt>
      <trkpt lat="48.79527" lon="-0.65111">
        <ele>124.8</ele>
        <time>2014-09-01T15:01:11Z</time>
      </trkpt>
      <trkpt lat="48.79532" lon="-0.65107">
        <ele>124.4</ele>
        <time>2014-09-01T15:01:12Z</time>
      </trkpt>
      <trkpt lat="48.79537" lon="-0.65103">
        <ele>124</ele>
        <time>2014-09-01T15:01:13Z</time>
      </trkpt>
      <trkpt lat="48.79541" lon="-0.65098">
        <ele>123.6</ele>
        <time>2014-09-01T15:01:14Z</time>
      </trkpt>
      <trkpt lat="48.79547" lon="-0.65088">
        <ele>123.2</ele>
        <time>2014-09-01T15:01:16Z</time>
      </trkpt>
      <trkpt lat="48.79552" lon="-0.65075">
        <ele>123</ele>
        <time>2014-09-01T15:01:18Z</time>
      </trkpt>
      <trkpt lat="48.79555" lon="-0.6507">
        <ele>123</ele>
        <time>2014-09-01T15:01:19Z</time>
      </trkpt>
      <trkpt lat="48.79559" lon="-0.65066">
        <ele>122.8</ele>
        <time>2014-09-01T15:01:20Z</time>
      </trkpt>
      <trkpt lat="48.79563" lon="-0.65062">
        <ele>122.8</ele>
        <time>2014-09-01T15:01:21Z</time>
      </trkpt>
      <trkpt lat="48.79569" lon="-0.65062">
        <ele>122.6</ele>
        <time>2014-09-01T15:01:22Z</time>
      </trkpt>
      <trkpt lat="48.79574" lon="-0.65061">
        <ele>122.4</ele>
        <time>2014-09-01T15:01:23Z</time>
      </trkpt>
      <trkpt lat="48.79591" lon="-0.65058">
        <ele>121.6</ele>
        <time>2014-09-01T15:01:26Z</time>
      </trkpt>
      <trkpt lat="48.79596" lon="-0.65056">
        <ele>121.2</ele>
        <time>2014-09-01T15:01:27Z</time>
      </trkpt>
      <trkpt lat="48.79606" lon="-0.65054">
        <ele>120.6</ele>
        <time>2014-09-01T15:01:29Z</time>
      </trkpt>
      <trkpt lat="48.79631" lon="-0.65066">
        <ele>120.4</ele>
        <time>2014-09-01T15:01:37Z</time>
      </trkpt>
      <trkpt lat="48.79655" lon="-0.65109">
        <ele>120</ele>
        <time>2014-09-01T15:01:50Z</time>
      </trkpt>
      <trkpt lat="48.79657" lon="-0.65109">
        <ele>120</ele>
        <time>2014-09-01T15:01:51Z</time>
      </trkpt>
      <trkpt lat="48.7966" lon="-0.65107">
        <ele>120</ele>
        <time>2014-09-01T15:01:52Z</time>
      </trkpt>
      <trkpt lat="48.79662" lon="-0.65104">
        <ele>120</ele>
        <time>2014-09-01T15:01:53Z</time>
      </trkpt>
      <trkpt lat="48.79663" lon="-0.651">
        <ele>120</ele>
        <time>2014-09-01T15:01:54Z</time>
      </trkpt>
      <trkpt lat="48.79665" lon="-0.65096">
        <ele>120.2</ele>
        <time>2014-09-01T15:01:55Z</time>
      </trkpt>
      <trkpt lat="48.79667" lon="-0.65092">
        <ele>120.2</ele>
        <time>2014-09-01T15:01:56Z</time>
      </trkpt>
      <trkpt lat="48.79678" lon="-0.65067">
        <ele>120.4</ele>
        <time>2014-09-01T15:02:01Z</time>
      </trkpt>
      <trkpt lat="48.79714" lon="-0.6501">
        <ele>122.8</ele>
        <time>2014-09-01T15:02:14Z</time>
      </trkpt>
      <trkpt lat="48.79723" lon="-0.64999">
        <ele>123.4</ele>
        <time>2014-09-01T15:02:17Z</time>
      </trkpt>
      <trkpt lat="48.79748" lon="-0.64977">
        <ele>123.4</ele>
        <time>2014-09-01T15:02:23Z</time>
      </trkpt>
      <trkpt lat="48.7977" lon="-0.6495">
        <ele>122.6</ele>
        <time>2014-09-01T15:02:28Z</time>
      </trkpt>
      <trkpt lat="48.79838" lon="-0.64866">
        <ele>119.6</ele>
        <time>2014-09-01T15:02:40Z</time>
      </trkpt>
      <trkpt lat="48.79884" lon="-0.64801">
        <ele>119</ele>
        <time>2014-09-01T15:02:50Z</time>
      </trkpt>
      <trkpt lat="48.79894" lon="-0.64779">
        <ele>119</ele>
        <time>2014-09-01T15:02:53Z</time>
      </trkpt>
      <trkpt lat="48.79901" lon="-0.64755">
        <ele>118.8</ele>
        <time>2014-09-01T15:02:56Z</time>
      </trkpt>
      <trkpt lat="48.79906" lon="-0.64731">
        <ele>118.8</ele>
        <time>2014-09-01T15:02:59Z</time>
      </trkpt>
      <trkpt lat="48.79906" lon="-0.64722">
        <ele>118.8</ele>
        <time>2014-09-01T15:03:00Z</time>
      </trkpt>
      <trkpt lat="48.79906" lon="-0.64714">
        <ele>118.8</ele>
        <time>2014-09-01T15:03:01Z</time>
      </trkpt>
      <trkpt lat="48.79905" lon="-0.64705">
        <ele>118.8</ele>
        <time>2014-09-01T15:03:02Z</time>
      </trkpt>
      <trkpt lat="48.79905" lon="-0.64696">
        <ele>118.8</ele>
        <time>2014-09-01T15:03:03Z</time>
      </trkpt>
      <trkpt lat="48.79903" lon="-0.64688">
        <ele>118.8</ele>
        <time>2014-09-01T15:03:04Z</time>
      </trkpt>
      <trkpt lat="48.799" lon="-0.64673">
        <ele>118.8</ele>
        <time>2014-09-01T15:03:06Z</time>
      </trkpt>
      <trkpt lat="48.79898" lon="-0.64665">
        <ele>118.6</ele>
        <time>2014-09-01T15:03:07Z</time>
      </trkpt>
      <trkpt lat="48.7988" lon="-0.64581">
        <ele>118.8</ele>
        <time>2014-09-01T15:03:18Z</time>
      </trkpt>
      <trkpt lat="48.7988" lon="-0.64573">
        <ele>118.8</ele>
        <time>2014-09-01T15:03:19Z</time>
      </trkpt>
      <trkpt lat="48.7988" lon="-0.64565">
        <ele>118.8</ele>
        <time>2014-09-01T15:03:20Z</time>
      </trkpt>
      <trkpt lat="48.7988" lon="-0.64558">
        <ele>118.8</ele>
        <time>2014-09-01T15:03:21Z</time>
      </trkpt>
      <trkpt lat="48.79879" lon="-0.64549">
        <ele>118.8</ele>
        <time>2014-09-01T15:03:22Z</time>
      </trkpt>
      <trkpt lat="48.79879" lon="-0.64541">
        <ele>118.8</ele>
        <time>2014-09-01T15:03:23Z</time>
      </trkpt>
      <trkpt lat="48.79881" lon="-0.64532">
        <ele>118.8</ele>
        <time>2014-09-01T15:03:24Z</time>
      </trkpt>
      <trkpt lat="48.79882" lon="-0.64523">
        <ele>118.8</ele>
        <time>2014-09-01T15:03:25Z</time>
      </trkpt>
      <trkpt lat="48.79885" lon="-0.64515">
        <ele>118.8</ele>
        <time>2014-09-01T15:03:26Z</time>
      </trkpt>
      <trkpt lat="48.79887" lon="-0.64507">
        <ele>118.8</ele>
        <time>2014-09-01T15:03:27Z</time>
      </trkpt>
      <trkpt lat="48.79894" lon="-0.64491">
        <ele>119</ele>
        <time>2014-09-01T15:03:29Z</time>
      </trkpt>
      <trkpt lat="48.79944" lon="-0.64405">
        <ele>119.2</ele>
        <time>2014-09-01T15:03:41Z</time>
      </trkpt>
      <trkpt lat="48.79946" lon="-0.64397">
        <ele>119</ele>
        <time>2014-09-01T15:03:42Z</time>
      </trkpt>
      <trkpt lat="48.79967" lon="-0.64339">
        <ele>119</ele>
        <time>2014-09-01T15:03:50Z</time>
      </trkpt>
      <trkpt lat="48.79968" lon="-0.64331">
        <ele>119</ele>
        <time>2014-09-01T15:03:51Z</time>
      </trkpt>
      <trkpt lat="48.79976" lon="-0.64241">
        <ele>117.8</ele>
        <time>2014-09-01T15:04:01Z</time>
      </trkpt>
      <trkpt lat="48.79973" lon="-0.64099">
        <ele>117</ele>
        <time>2014-09-01T15:04:18Z</time>
      </trkpt>
      <trkpt lat="48.79971" lon="-0.64076">
        <ele>117.2</ele>
        <time>2014-09-01T15:04:21Z</time>
      </trkpt>
      <trkpt lat="48.79971" lon="-0.64068">
        <ele>117.2</ele>
        <time>2014-09-01T15:04:22Z</time>
      </trkpt>
      <trkpt lat="48.79969" lon="-0.6406">
        <ele>117.2</ele>
        <time>2014-09-01T15:04:23Z</time>
      </trkpt>
      <trkpt lat="48.79968" lon="-0.64052">
        <ele>117.2</ele>
        <time>2014-09-01T15:04:24Z</time>
      </trkpt>
      <trkpt lat="48.79965" lon="-0.64045">
        <ele>117.2</ele>
        <time>2014-09-01T15:04:25Z</time>
      </trkpt>
      <trkpt lat="48.79961" lon="-0.64015">
        <ele>117.6</ele>
        <time>2014-09-01T15:04:29Z</time>
      </trkpt>
      <trkpt lat="48.79958" lon="-0.63968">
        <ele>119.2</ele>
        <time>2014-09-01T15:04:37Z</time>
      </trkpt>
      <trkpt lat="48.7996" lon="-0.63961">
        <ele>119.4</ele>
        <time>2014-09-01T15:04:38Z</time>
      </trkpt>
      <trkpt lat="48.79965" lon="-0.63947">
        <ele>119.6</ele>
        <time>2014-09-01T15:04:40Z</time>
      </trkpt>
      <trkpt lat="48.79976" lon="-0.63918">
        <ele>119.4</ele>
        <time>2014-09-01T15:04:44Z</time>
      </trkpt>
      <trkpt lat="48.79996" lon="-0.63875">
        <ele>117.8</ele>
        <time>2014-09-01T15:04:49Z</time>
      </trkpt>
      <trkpt lat="48.80006" lon="-0.6386">
        <ele>117</ele>
        <time>2014-09-01T15:04:51Z</time>
      </trkpt>
      <trkpt lat="48.80011" lon="-0.63854">
        <ele>116.4</ele>
        <time>2014-09-01T15:04:52Z</time>
      </trkpt>
      <trkpt lat="48.80038" lon="-0.63816">
        <ele>114.8</ele>
        <time>2014-09-01T15:04:58Z</time>
      </trkpt>
      <trkpt lat="48.80042" lon="-0.6381">
        <ele>114.8</ele>
        <time>2014-09-01T15:04:59Z</time>
      </trkpt>
      <trkpt lat="48.80076" lon="-0.63764">
        <ele>114.2</ele>
        <time>2014-09-01T15:05:08Z</time>
      </trkpt>
      <trkpt lat="48.8012" lon="-0.63715">
        <ele>114.2</ele>
        <time>2014-09-01T15:05:22Z</time>
      </trkpt>
      <trkpt lat="48.80142" lon="-0.63693">
        <ele>115.6</ele>
        <time>2014-09-01T15:05:34Z</time>
      </trkpt>
      <trkpt lat="48.80143" lon="-0.63692">
        <ele>115.6</ele>
        <time>2014-09-01T15:05:38Z</time>
      </trkpt>
      <trkpt lat="48.80148" lon="-0.63688">
        <ele>115.6</ele>
        <time>2014-09-01T15:05:51Z</time>
      </trkpt>
      <trkpt lat="48.8015" lon="-0.6369">
        <ele>115.6</ele>
        <time>2014-09-01T15:05:52Z</time>
      </trkpt>
      <trkpt lat="48.80151" lon="-0.63692">
        <ele>115.6</ele>
        <time>2014-09-01T15:05:53Z</time>
      </trkpt>
      <trkpt lat="48.80154" lon="-0.63694">
        <ele>115.6</ele>
        <time>2014-09-01T15:05:54Z</time>
      </trkpt>
      <trkpt lat="48.80156" lon="-0.63695">
        <ele>115.6</ele>
        <time>2014-09-01T15:05:55Z</time>
      </trkpt>
      <trkpt lat="48.80169" lon="-0.63674">
        <ele>115.8</ele>
        <time>2014-09-01T15:06:00Z</time>
      </trkpt>
      <trkpt lat="48.80173" lon="-0.63656">
        <ele>115.4</ele>
        <time>2014-09-01T15:06:02Z</time>
      </trkpt>
      <trkpt lat="48.80188" lon="-0.63623">
        <ele>114</ele>
        <time>2014-09-01T15:06:06Z</time>
      </trkpt>
      <trkpt lat="48.80202" lon="-0.63603">
        <ele>112.6</ele>
        <time>2014-09-01T15:06:09Z</time>
      </trkpt>
      <trkpt lat="48.80252" lon="-0.63542">
        <ele>111.8</ele>
        <time>2014-09-01T15:06:19Z</time>
      </trkpt>
      <trkpt lat="48.80267" lon="-0.6351">
        <ele>111.4</ele>
        <time>2014-09-01T15:06:23Z</time>
      </trkpt>
      <trkpt lat="48.80297" lon="-0.6346">
        <ele>111.2</ele>
        <time>2014-09-01T15:06:30Z</time>
      </trkpt>
      <trkpt lat="48.80336" lon="-0.63407">
        <ele>111</ele>
        <time>2014-09-01T15:06:38Z</time>
      </trkpt>
      <trkpt lat="48.80392" lon="-0.63316">
        <ele>110.4</ele>
        <time>2014-09-01T15:06:51Z</time>
      </trkpt>
      <trkpt lat="48.80405" lon="-0.63295">
        <ele>110.4</ele>
        <time>2014-09-01T15:06:54Z</time>
      </trkpt>
      <trkpt lat="48.80424" lon="-0.63222">
        <ele>110.6</ele>
        <time>2014-09-01T15:07:03Z</time>
      </trkpt>
      <trkpt lat="48.80438" lon="-0.63219">
        <ele>111</ele>
        <time>2014-09-01T15:07:08Z</time>
      </trkpt>
      <trkpt lat="48.80481" lon="-0.63236">
        <ele>111.6</ele>
        <time>2014-09-01T15:07:20Z</time>
      </trkpt>
      <trkpt lat="48.80484" lon="-0.63237">
        <ele>112</ele>
        <time>2014-09-01T15:07:21Z</time>
      </trkpt>
      <trkpt lat="48.80491" lon="-0.63227">
        <ele>113</ele>
        <time>2014-09-01T15:07:25Z</time>
      </trkpt>
      <trkpt lat="48.8051" lon="-0.63134">
        <ele>113.8</ele>
        <time>2014-09-01T15:07:41Z</time>
      </trkpt>
      <trkpt lat="48.80516" lon="-0.63093">
        <ele>113.8</ele>
        <time>2014-09-01T15:07:47Z</time>
      </trkpt>
      <trkpt lat="48.80515" lon="-0.63048">
        <ele>113.4</ele>
        <time>2014-09-01T15:07:53Z</time>
      </trkpt>
      <trkpt lat="48.80505" lon="-0.63014">
        <ele>112.6</ele>
        <time>2014-09-01T15:07:58Z</time>
      </trkpt>
      <trkpt lat="48.80497" lon="-0.62983">
        <ele>111.8</ele>
        <time>2014-09-01T15:08:03Z</time>
      </trkpt>
      <trkpt lat="48.80482" lon="-0.6296">
        <ele>111</ele>
        <time>2014-09-01T15:08:08Z</time>
      </trkpt>
      <trkpt lat="48.80464" lon="-0.62954">
        <ele>110.4</ele>
        <time>2014-09-01T15:08:12Z</time>
      </trkpt>
      <trkpt lat="48.80454" lon="-0.62924">
        <ele>109.6</ele>
        <time>2014-09-01T15:08:18Z</time>
      </trkpt>
      <trkpt lat="48.80476" lon="-0.6284">
        <ele>109</ele>
        <time>2014-09-01T15:08:30Z</time>
      </trkpt>
      <trkpt lat="48.80479" lon="-0.62824">
        <ele>108.8</ele>
        <time>2014-09-01T15:08:32Z</time>
      </trkpt>
      <trkpt lat="48.80492" lon="-0.62763">
        <ele>109</ele>
        <time>2014-09-01T15:08:40Z</time>
      </trkpt>
      <trkpt lat="48.80512" lon="-0.62672">
        <ele>109.8</ele>
        <time>2014-09-01T15:08:53Z</time>
      </trkpt>
      <trkpt lat="48.80517" lon="-0.62652">
        <ele>109.8</ele>
        <time>2014-09-01T15:08:56Z</time>
      </trkpt>
      <trkpt lat="48.80536" lon="-0.62597">
        <ele>109.6</ele>
        <time>2014-09-01T15:09:04Z</time>
      </trkpt>
      <trkpt lat="48.80541" lon="-0.62567">
        <ele>109.4</ele>
        <time>2014-09-01T15:09:08Z</time>
      </trkpt>
      <trkpt lat="48.80541" lon="-0.62494">
        <ele>110</ele>
        <time>2014-09-01T15:09:21Z</time>
      </trkpt>
      <trkpt lat="48.80541" lon="-0.62488">
        <ele>110</ele>
        <time>2014-09-01T15:09:22Z</time>
      </trkpt>
      <trkpt lat="48.80542" lon="-0.62474">
        <ele>110</ele>
        <time>2014-09-01T15:09:24Z</time>
      </trkpt>
      <trkpt lat="48.80542" lon="-0.62453">
        <ele>109.8</ele>
        <time>2014-09-01T15:09:27Z</time>
      </trkpt>
      <trkpt lat="48.80543" lon="-0.62433">
        <ele>109.4</ele>
        <time>2014-09-01T15:09:30Z</time>
      </trkpt>
      <trkpt lat="48.80545" lon="-0.62387">
        <ele>108.4</ele>
        <time>2014-09-01T15:09:36Z</time>
      </trkpt>
      <trkpt lat="48.80545" lon="-0.62354">
        <ele>107.8</ele>
        <time>2014-09-01T15:09:40Z</time>
      </trkpt>
      <trkpt lat="48.80549" lon="-0.62293">
        <ele>106.8</ele>
        <time>2014-09-01T15:09:50Z</time>
      </trkpt>
      <trkpt lat="48.80541" lon="-0.62285">
        <ele>106.8</ele>
        <time>2014-09-01T15:09:55Z</time>
      </trkpt>
      <trkpt lat="48.80477" lon="-0.62317">
        <ele>106.6</ele>
        <time>2014-09-01T15:10:11Z</time>
      </trkpt>
      <trkpt lat="48.80444" lon="-0.62333">
        <ele>106.2</ele>
        <time>2014-09-01T15:10:18Z</time>
      </trkpt>
      <trkpt lat="48.80378" lon="-0.62317">
        <ele>106</ele>
        <time>2014-09-01T15:10:32Z</time>
      </trkpt>
      <trkpt lat="48.80326" lon="-0.62307">
        <ele>106.8</ele>
        <time>2014-09-01T15:10:46Z</time>
      </trkpt>
      <trkpt lat="48.80314" lon="-0.62342">
        <ele>107</ele>
        <time>2014-09-01T15:11:00Z</time>
      </trkpt>
      <trkpt lat="48.80298" lon="-0.62398">
        <ele>106.8</ele>
        <time>2014-09-01T15:11:11Z</time>
      </trkpt>
      <trkpt lat="48.80294" lon="-0.62411">
        <ele>106.6</ele>
        <time>2014-09-01T15:11:13Z</time>
      </trkpt>
      <trkpt lat="48.80253" lon="-0.62424">
        <ele>106.4</ele>
        <time>2014-09-01T15:11:22Z</time>
      </trkpt>
      <trkpt lat="48.80246" lon="-0.62412">
        <ele>106.6</ele>
        <time>2014-09-01T15:11:24Z</time>
      </trkpt>
      <trkpt lat="48.8024" lon="-0.62401">
        <ele>106.8</ele>
        <time>2014-09-01T15:11:26Z</time>
      </trkpt>
      <trkpt lat="48.80214" lon="-0.62339">
        <ele>107.6</ele>
        <time>2014-09-01T15:11:37Z</time>
      </trkpt>
      <trkpt lat="48.80197" lon="-0.62315">
        <ele>107.4</ele>
        <time>2014-09-01T15:11:42Z</time>
      </trkpt>
      <trkpt lat="48.80189" lon="-0.62308">
        <ele>107.6</ele>
        <time>2014-09-01T15:11:44Z</time>
      </trkpt>
      <trkpt lat="48.80171" lon="-0.62268">
        <ele>107.8</ele>
        <time>2014-09-01T15:11:54Z</time>
      </trkpt>
      <trkpt lat="48.80173" lon="-0.62257">
        <ele>108</ele>
        <time>2014-09-01T15:11:56Z</time>
      </trkpt>
      <trkpt lat="48.80175" lon="-0.62218">
        <ele>108.2</ele>
        <time>2014-09-01T15:12:02Z</time>
      </trkpt>
      <trkpt lat="48.80179" lon="-0.62192">
        <ele>108.6</ele>
        <time>2014-09-01T15:12:06Z</time>
      </trkpt>
      <trkpt lat="48.80161" lon="-0.6216">
        <ele>110.2</ele>
        <time>2014-09-01T15:12:14Z</time>
      </trkpt>
      <trkpt lat="48.80134" lon="-0.62153">
        <ele>114</ele>
        <time>2014-09-01T15:12:21Z</time>
      </trkpt>
      <trkpt lat="48.8013" lon="-0.62151">
        <ele>114.6</ele>
        <time>2014-09-01T15:12:22Z</time>
      </trkpt>
      <trkpt lat="48.80098" lon="-0.62139">
        <ele>118.6</ele>
        <time>2014-09-01T15:12:29Z</time>
      </trkpt>
      <trkpt lat="48.80053" lon="-0.62125">
        <ele>121.6</ele>
        <time>2014-09-01T15:12:37Z</time>
      </trkpt>
      <trkpt lat="48.80037" lon="-0.62118">
        <ele>122.8</ele>
        <time>2014-09-01T15:12:40Z</time>
      </trkpt>
      <trkpt lat="48.80008" lon="-0.62088">
        <ele>126.4</ele>
        <time>2014-09-01T15:12:47Z</time>
      </trkpt>
      <trkpt lat="48.79978" lon="-0.62069">
        <ele>128.6</ele>
        <time>2014-09-01T15:12:54Z</time>
      </trkpt>
      <trkpt lat="48.79958" lon="-0.6206">
        <ele>128.4</ele>
        <time>2014-09-01T15:12:58Z</time>
      </trkpt>
      <trkpt lat="48.79942" lon="-0.62053">
        <ele>128.2</ele>
        <time>2014-09-01T15:13:01Z</time>
      </trkpt>
      <trkpt lat="48.79886" lon="-0.6204">
        <ele>129.4</ele>
        <time>2014-09-01T15:13:14Z</time>
      </trkpt>
      <trkpt lat="48.79845" lon="-0.62026">
        <ele>130.8</ele>
        <time>2014-09-01T15:13:26Z</time>
      </trkpt>
      <trkpt lat="48.79796" lon="-0.6201">
        <ele>130.2</ele>
        <time>2014-09-01T15:13:38Z</time>
      </trkpt>
      <trkpt lat="48.79761" lon="-0.61997">
        <ele>130</ele>
        <time>2014-09-01T15:13:49Z</time>
      </trkpt>
      <trkpt lat="48.79735" lon="-0.6198">
        <ele>130</ele>
        <time>2014-09-01T15:14:00Z</time>
      </trkpt>
      <trkpt lat="48.79733" lon="-0.61977">
        <ele>129.8</ele>
        <time>2014-09-01T15:14:06Z</time>
      </trkpt>
      <trkpt lat="48.79727" lon="-0.61968">
        <ele>129.4</ele>
        <time>2014-09-01T15:14:24Z</time>
      </trkpt>
      <trkpt lat="48.79722" lon="-0.61925">
        <ele>130.8</ele>
        <time>2014-09-01T15:14:35Z</time>
      </trkpt>
      <trkpt lat="48.79714" lon="-0.61858">
        <ele>133.8</ele>
        <time>2014-09-01T15:14:50Z</time>
      </trkpt>
      <trkpt lat="48.79714" lon="-0.61839">
        <ele>135.2</ele>
        <time>2014-09-01T15:15:01Z</time>
      </trkpt>
      <trkpt lat="48.79704" lon="-0.61834">
        <ele>136</ele>
        <time>2014-09-01T15:16:19Z</time>
      </trkpt>
      <trkpt lat="48.79698" lon="-0.61814">
        <ele>136</ele>
        <time>2014-09-01T15:16:25Z</time>
      </trkpt>
      <trkpt lat="48.7969" lon="-0.61809">
        <ele>136</ele>
        <time>2014-09-01T15:16:29Z</time>
      </trkpt>
      <trkpt lat="48.79674" lon="-0.6181">
        <ele>136.4</ele>
        <time>2014-09-01T15:16:34Z</time>
      </trkpt>
      <trkpt lat="48.79635" lon="-0.61787">
        <ele>138.2</ele>
        <time>2014-09-01T15:16:44Z</time>
      </trkpt>
      <trkpt lat="48.79601" lon="-0.61769">
        <ele>140.4</ele>
        <time>2014-09-01T15:16:53Z</time>
      </trkpt>
      <trkpt lat="48.79565" lon="-0.61761">
        <ele>143.6</ele>
        <time>2014-09-01T15:17:01Z</time>
      </trkpt>
      <trkpt lat="48.79533" lon="-0.61754">
        <ele>146</ele>
        <time>2014-09-01T15:17:07Z</time>
      </trkpt>
      <trkpt lat="48.79523" lon="-0.61753">
        <ele>146.6</ele>
        <time>2014-09-01T15:17:09Z</time>
      </trkpt>
      <trkpt lat="48.79493" lon="-0.61744">
        <ele>148.6</ele>
        <time>2014-09-01T15:17:15Z</time>
      </trkpt>
      <trkpt lat="48.7948" lon="-0.61734">
        <ele>149.6</ele>
        <time>2014-09-01T15:17:18Z</time>
      </trkpt>
      <trkpt lat="48.79431" lon="-0.61702">
        <ele>153.2</ele>
        <time>2014-09-01T15:17:28Z</time>
      </trkpt>
      <trkpt lat="48.7938" lon="-0.61648">
        <ele>156.4</ele>
        <time>2014-09-01T15:17:38Z</time>
      </trkpt>
      <trkpt lat="48.79316" lon="-0.61582">
        <ele>159.8</ele>
        <time>2014-09-01T15:17:52Z</time>
      </trkpt>
      <trkpt lat="48.7927" lon="-0.61558">
        <ele>162.2</ele>
        <time>2014-09-01T15:18:01Z</time>
      </trkpt>
      <trkpt lat="48.79201" lon="-0.61529">
        <ele>164.8</ele>
        <time>2014-09-01T15:18:13Z</time>
      </trkpt>
      <trkpt lat="48.79178" lon="-0.61521">
        <ele>165.8</ele>
        <time>2014-09-01T15:18:18Z</time>
      </trkpt>
      <trkpt lat="48.79168" lon="-0.61516">
        <ele>166</ele>
        <time>2014-09-01T15:18:20Z</time>
      </trkpt>
      <trkpt lat="48.79148" lon="-0.61508">
        <ele>166.6</ele>
        <time>2014-09-01T15:18:24Z</time>
      </trkpt>
      <trkpt lat="48.79095" lon="-0.61481">
        <ele>167.6</ele>
        <time>2014-09-01T15:18:36Z</time>
      </trkpt>
      <trkpt lat="48.79046" lon="-0.61454">
        <ele>168.4</ele>
        <time>2014-09-01T15:18:46Z</time>
      </trkpt>
      <trkpt lat="48.79041" lon="-0.61451">
        <ele>168.4</ele>
        <time>2014-09-01T15:18:47Z</time>
      </trkpt>
      <trkpt lat="48.79033" lon="-0.61419">
        <ele>169.2</ele>
        <time>2014-09-01T15:18:54Z</time>
      </trkpt>
      <trkpt lat="48.7904" lon="-0.61384">
        <ele>169.2</ele>
        <time>2014-09-01T15:18:59Z</time>
      </trkpt>
      <trkpt lat="48.79049" lon="-0.61329">
        <ele>169.2</ele>
        <time>2014-09-01T15:19:10Z</time>
      </trkpt>
      <trkpt lat="48.79052" lon="-0.61317">
        <ele>169.4</ele>
        <time>2014-09-01T15:19:12Z</time>
      </trkpt>
      <trkpt lat="48.79053" lon="-0.61311">
        <ele>169.4</ele>
        <time>2014-09-01T15:19:13Z</time>
      </trkpt>
      <trkpt lat="48.79056" lon="-0.61296">
        <ele>169.4</ele>
        <time>2014-09-01T15:19:15Z</time>
      </trkpt>
      <trkpt lat="48.7906" lon="-0.61281">
        <ele>169.6</ele>
        <time>2014-09-01T15:19:17Z</time>
      </trkpt>
      <trkpt lat="48.79071" lon="-0.61247">
        <ele>169.6</ele>
        <time>2014-09-01T15:19:22Z</time>
      </trkpt>
      <trkpt lat="48.7908" lon="-0.61215">
        <ele>169.4</ele>
        <time>2014-09-01T15:19:27Z</time>
      </trkpt>
      <trkpt lat="48.79085" lon="-0.61201">
        <ele>169.2</ele>
        <time>2014-09-01T15:19:29Z</time>
      </trkpt>
      <trkpt lat="48.791" lon="-0.61147">
        <ele>169.2</ele>
        <time>2014-09-01T15:19:37Z</time>
      </trkpt>
      <trkpt lat="48.79117" lon="-0.61074">
        <ele>168.6</ele>
        <time>2014-09-01T15:19:47Z</time>
      </trkpt>
      <trkpt lat="48.7912" lon="-0.61061">
        <ele>168.6</ele>
        <time>2014-09-01T15:19:49Z</time>
      </trkpt>
      <trkpt lat="48.79123" lon="-0.61037">
        <ele>168.6</ele>
        <time>2014-09-01T15:19:52Z</time>
      </trkpt>
      <trkpt lat="48.79129" lon="-0.61008">
        <ele>168.4</ele>
        <time>2014-09-01T15:19:56Z</time>
      </trkpt>
      <trkpt lat="48.79139" lon="-0.60966">
        <ele>168</ele>
        <time>2014-09-01T15:20:01Z</time>
      </trkpt>
      <trkpt lat="48.7917" lon="-0.60822">
        <ele>166.4</ele>
        <time>2014-09-01T15:20:17Z</time>
      </trkpt>
      <trkpt lat="48.79197" lon="-0.60701">
        <ele>164.6</ele>
        <time>2014-09-01T15:20:30Z</time>
      </trkpt>
      <trkpt lat="48.79214" lon="-0.60608">
        <ele>163.2</ele>
        <time>2014-09-01T15:20:40Z</time>
      </trkpt>
      <trkpt lat="48.79222" lon="-0.6055">
        <ele>163.6</ele>
        <time>2014-09-01T15:20:49Z</time>
      </trkpt>
      <trkpt lat="48.79199" lon="-0.60552">
        <ele>164</ele>
        <time>2014-09-01T15:20:57Z</time>
      </trkpt>
      <trkpt lat="48.79185" lon="-0.60559">
        <ele>164</ele>
        <time>2014-09-01T15:21:00Z</time>
      </trkpt>
      <trkpt lat="48.79167" lon="-0.60541">
        <ele>165.4</ele>
        <time>2014-09-01T15:21:07Z</time>
      </trkpt>
      <trkpt lat="48.79162" lon="-0.60486">
        <ele>167</ele>
        <time>2014-09-01T15:21:19Z</time>
      </trkpt>
      <trkpt lat="48.79172" lon="-0.60375">
        <ele>165.2</ele>
        <time>2014-09-01T15:21:32Z</time>
      </trkpt>
      <trkpt lat="48.79172" lon="-0.6024">
        <ele>164.4</ele>
        <time>2014-09-01T15:21:47Z</time>
      </trkpt>
      <trkpt lat="48.79171" lon="-0.60206">
        <ele>164.6</ele>
        <time>2014-09-01T15:21:51Z</time>
      </trkpt>
      <trkpt lat="48.79168" lon="-0.60156">
        <ele>165</ele>
        <time>2014-09-01T15:21:57Z</time>
      </trkpt>
      <trkpt lat="48.79157" lon="-0.60014">
        <ele>165.4</ele>
        <time>2014-09-01T15:22:14Z</time>
      </trkpt>
      <trkpt lat="48.79145" lon="-0.59868">
        <ele>165.8</ele>
        <time>2014-09-01T15:22:32Z</time>
      </trkpt>
      <trkpt lat="48.79141" lon="-0.59751">
        <ele>166.2</ele>
        <time>2014-09-01T15:22:48Z</time>
      </trkpt>
      <trkpt lat="48.79137" lon="-0.59736">
        <ele>166.6</ele>
        <time>2014-09-01T15:22:51Z</time>
      </trkpt>
      <trkpt lat="48.79084" lon="-0.59659">
        <ele>167</ele>
        <time>2014-09-01T15:23:05Z</time>
      </trkpt>
      <trkpt lat="48.79048" lon="-0.59626">
        <ele>167.2</ele>
        <time>2014-09-01T15:23:12Z</time>
      </trkpt>
      <trkpt lat="48.78995" lon="-0.59612">
        <ele>167.4</ele>
        <time>2014-09-01T15:23:21Z</time>
      </trkpt>
      <trkpt lat="48.78891" lon="-0.59588">
        <ele>168.6</ele>
        <time>2014-09-01T15:23:39Z</time>
      </trkpt>
      <trkpt lat="48.78848" lon="-0.5958">
        <ele>168.4</ele>
        <time>2014-09-01T15:23:47Z</time>
      </trkpt>
      <trkpt lat="48.78794" lon="-0.5958">
        <ele>168.8</ele>
        <time>2014-09-01T15:23:57Z</time>
      </trkpt>
      <trkpt lat="48.78748" lon="-0.5959">
        <ele>169.6</ele>
        <time>2014-09-01T15:24:07Z</time>
      </trkpt>
      <trkpt lat="48.78698" lon="-0.59615">
        <ele>169.6</ele>
        <time>2014-09-01T15:24:23Z</time>
      </trkpt>
      <trkpt lat="48.78658" lon="-0.59673">
        <ele>168.8</ele>
        <time>2014-09-01T15:24:39Z</time>
      </trkpt>
      <trkpt lat="48.78619" lon="-0.59708">
        <ele>167.6</ele>
        <time>2014-09-01T15:24:52Z</time>
      </trkpt>
      <trkpt lat="48.78615" lon="-0.59681">
        <ele>167.4</ele>
        <time>2014-09-01T15:24:59Z</time>
      </trkpt>
      <trkpt lat="48.78611" lon="-0.59611">
        <ele>169.6</ele>
        <time>2014-09-01T15:25:12Z</time>
      </trkpt>
      <trkpt lat="48.78628" lon="-0.5956">
        <ele>170.8</ele>
        <time>2014-09-01T15:25:22Z</time>
      </trkpt>
      <trkpt lat="48.78675" lon="-0.5953">
        <ele>172.2</ele>
        <time>2014-09-01T15:25:36Z</time>
      </trkpt>
      <trkpt lat="48.78679" lon="-0.59528">
        <ele>172.8</ele>
        <time>2014-09-01T15:25:43Z</time>
      </trkpt>
      <trkpt lat="48.78684" lon="-0.59527">
        <ele>173</ele>
        <time>2014-09-01T15:25:55Z</time>
      </trkpt>
      <trkpt lat="48.78687" lon="-0.59526">
        <ele>172.8</ele>
        <time>2014-09-01T15:25:57Z</time>
      </trkpt>
      <trkpt lat="48.78686" lon="-0.59531">
        <ele>173</ele>
        <time>2014-09-01T15:26:01Z</time>
      </trkpt>
      <trkpt lat="48.78674" lon="-0.59534">
        <ele>172.8</ele>
        <time>2014-09-01T15:26:06Z</time>
      </trkpt>
      <trkpt lat="48.78631" lon="-0.5956">
        <ele>172.2</ele>
        <time>2014-09-01T15:26:22Z</time>
      </trkpt>
      <trkpt lat="48.78613" lon="-0.59591">
        <ele>171.4</ele>
        <time>2014-09-01T15:26:30Z</time>
      </trkpt>
      <trkpt lat="48.78611" lon="-0.59622">
        <ele>170.6</ele>
        <time>2014-09-01T15:26:35Z</time>
      </trkpt>
      <trkpt lat="48.78617" lon="-0.59701">
        <ele>168.4</ele>
        <time>2014-09-01T15:26:50Z</time>
      </trkpt>
      <trkpt lat="48.78588" lon="-0.59721">
        <ele>167</ele>
        <time>2014-09-01T15:27:00Z</time>
      </trkpt>
      <trkpt lat="48.78509" lon="-0.59733">
        <ele>168.2</ele>
        <time>2014-09-01T15:27:19Z</time>
      </trkpt>
      <trkpt lat="48.78505" lon="-0.59733">
        <ele>168.4</ele>
        <time>2014-09-01T15:27:20Z</time>
      </trkpt>
      <trkpt lat="48.78495" lon="-0.59708">
        <ele>169</ele>
        <time>2014-09-01T15:27:25Z</time>
      </trkpt>
      <trkpt lat="48.78497" lon="-0.5968">
        <ele>169.6</ele>
        <time>2014-09-01T15:27:29Z</time>
      </trkpt>
      <trkpt lat="48.78502" lon="-0.59594">
        <ele>172</ele>
        <time>2014-09-01T15:27:41Z</time>
      </trkpt>
      <trkpt lat="48.78512" lon="-0.59445">
        <ele>174.6</ele>
        <time>2014-09-01T15:28:00Z</time>
      </trkpt>
      <trkpt lat="48.78514" lon="-0.59335">
        <ele>177.2</ele>
        <time>2014-09-01T15:28:15Z</time>
      </trkpt>
      <trkpt lat="48.7852" lon="-0.59299">
        <ele>177.6</ele>
        <time>2014-09-01T15:28:20Z</time>
      </trkpt>
      <trkpt lat="48.78537" lon="-0.59203">
        <ele>178.2</ele>
        <time>2014-09-01T15:28:33Z</time>
      </trkpt>
      <trkpt lat="48.7855" lon="-0.59171">
        <ele>178.2</ele>
        <time>2014-09-01T15:28:38Z</time>
      </trkpt>
      <trkpt lat="48.78612" lon="-0.59064">
        <ele>179.4</ele>
        <time>2014-09-01T15:28:57Z</time>
      </trkpt>
      <trkpt lat="48.7864" lon="-0.58969">
        <ele>180.6</ele>
        <time>2014-09-01T15:29:11Z</time>
      </trkpt>
      <trkpt lat="48.78665" lon="-0.58832">
        <ele>183</ele>
        <time>2014-09-01T15:29:28Z</time>
      </trkpt>
      <trkpt lat="48.78686" lon="-0.58716">
        <ele>186</ele>
        <time>2014-09-01T15:29:45Z</time>
      </trkpt>
      <trkpt lat="48.78677" lon="-0.5869">
        <ele>187.8</ele>
        <time>2014-09-01T15:29:55Z</time>
      </trkpt>
      <trkpt lat="48.78671" lon="-0.58683">
        <ele>188.2</ele>
        <time>2014-09-01T15:29:57Z</time>
      </trkpt>
      <trkpt lat="48.7861" lon="-0.58591">
        <ele>189.2</ele>
        <time>2014-09-01T15:30:14Z</time>
      </trkpt>
      <trkpt lat="48.78561" lon="-0.58478">
        <ele>192.2</ele>
        <time>2014-09-01T15:30:30Z</time>
      </trkpt>
      <trkpt lat="48.78502" lon="-0.58327">
        <ele>195</ele>
        <time>2014-09-01T15:30:49Z</time>
      </trkpt>
      <trkpt lat="48.78484" lon="-0.58305">
        <ele>195.2</ele>
        <time>2014-09-01T15:30:53Z</time>
      </trkpt>
      <trkpt lat="48.78397" lon="-0.58257">
        <ele>196</ele>
        <time>2014-09-01T15:31:08Z</time>
      </trkpt>
      <trkpt lat="48.78286" lon="-0.58233">
        <ele>194.2</ele>
        <time>2014-09-01T15:31:25Z</time>
      </trkpt>
      <trkpt lat="48.7818" lon="-0.58254">
        <ele>191</ele>
        <time>2014-09-01T15:31:40Z</time>
      </trkpt>
      <trkpt lat="48.78096" lon="-0.58273">
        <ele>188</ele>
        <time>2014-09-01T15:31:52Z</time>
      </trkpt>
      <trkpt lat="48.78034" lon="-0.58294">
        <ele>186.4</ele>
        <time>2014-09-01T15:32:01Z</time>
      </trkpt>
      <trkpt lat="48.77984" lon="-0.58254">
        <ele>184.4</ele>
        <time>2014-09-01T15:32:09Z</time>
      </trkpt>
      <trkpt lat="48.77953" lon="-0.58182">
        <ele>182.4</ele>
        <time>2014-09-01T15:32:16Z</time>
      </trkpt>
      <trkpt lat="48.77913" lon="-0.58137">
        <ele>180.2</ele>
        <time>2014-09-01T15:32:22Z</time>
      </trkpt>
      <trkpt lat="48.77905" lon="-0.58132">
        <ele>179.6</ele>
        <time>2014-09-01T15:32:23Z</time>
      </trkpt>
      <trkpt lat="48.77897" lon="-0.58128">
        <ele>179.2</ele>
        <time>2014-09-01T15:32:24Z</time>
      </trkpt>
      <trkpt lat="48.77889" lon="-0.58125">
        <ele>178.6</ele>
        <time>2014-09-01T15:32:25Z</time>
      </trkpt>
      <trkpt lat="48.7788" lon="-0.58123">
        <ele>178.2</ele>
        <time>2014-09-01T15:32:26Z</time>
      </trkpt>
      <trkpt lat="48.77845" lon="-0.58118">
        <ele>176.2</ele>
        <time>2014-09-01T15:32:30Z</time>
      </trkpt>
      <trkpt lat="48.77836" lon="-0.58119">
        <ele>175.8</ele>
        <time>2014-09-01T15:32:31Z</time>
      </trkpt>
      <trkpt lat="48.77828" lon="-0.58121">
        <ele>175.4</ele>
        <time>2014-09-01T15:32:32Z</time>
      </trkpt>
      <trkpt lat="48.7782" lon="-0.58125">
        <ele>174.8</ele>
        <time>2014-09-01T15:32:33Z</time>
      </trkpt>
      <trkpt lat="48.77813" lon="-0.58128">
        <ele>174.6</ele>
        <time>2014-09-01T15:32:34Z</time>
      </trkpt>
      <trkpt lat="48.77806" lon="-0.58133">
        <ele>174.2</ele>
        <time>2014-09-01T15:32:35Z</time>
      </trkpt>
      <trkpt lat="48.778" lon="-0.58136">
        <ele>173.8</ele>
        <time>2014-09-01T15:32:36Z</time>
      </trkpt>
      <trkpt lat="48.77795" lon="-0.58139">
        <ele>173.6</ele>
        <time>2014-09-01T15:32:37Z</time>
      </trkpt>
      <trkpt lat="48.77791" lon="-0.58138">
        <ele>173.6</ele>
        <time>2014-09-01T15:32:38Z</time>
      </trkpt>
      <trkpt lat="48.77788" lon="-0.58135">
        <ele>173.6</ele>
        <time>2014-09-01T15:32:39Z</time>
      </trkpt>
      <trkpt lat="48.77787" lon="-0.5813">
        <ele>173.8</ele>
        <time>2014-09-01T15:32:40Z</time>
      </trkpt>
      <trkpt lat="48.77787" lon="-0.58125">
        <ele>174</ele>
        <time>2014-09-01T15:32:41Z</time>
      </trkpt>
      <trkpt lat="48.77787" lon="-0.58121">
        <ele>174.4</ele>
        <time>2014-09-01T15:32:42Z</time>
      </trkpt>
      <trkpt lat="48.77789" lon="-0.58118">
        <ele>174.6</ele>
        <time>2014-09-01T15:32:43Z</time>
      </trkpt>
      <trkpt lat="48.7779" lon="-0.58114">
        <ele>174.8</ele>
        <time>2014-09-01T15:32:44Z</time>
      </trkpt>
      <trkpt lat="48.77797" lon="-0.58102">
        <ele>175.2</ele>
        <time>2014-09-01T15:32:48Z</time>
      </trkpt>
      <trkpt lat="48.77796" lon="-0.58099">
        <ele>175.2</ele>
        <time>2014-09-01T15:32:49Z</time>
      </trkpt>
      <trkpt lat="48.77795" lon="-0.58097">
        <ele>175.2</ele>
        <time>2014-09-01T15:32:50Z</time>
      </trkpt>
      <trkpt lat="48.77794" lon="-0.58096">
        <ele>175.2</ele>
        <time>2014-09-01T15:32:51Z</time>
      </trkpt>
      <trkpt lat="48.77792" lon="-0.58095">
        <ele>175.4</ele>
        <time>2014-09-01T15:32:52Z</time>
      </trkpt>
      <trkpt lat="48.77791" lon="-0.58096">
        <ele>175.6</ele>
        <time>2014-09-01T15:32:53Z</time>
      </trkpt>
      <trkpt lat="48.77789" lon="-0.58096">
        <ele>175.8</ele>
        <time>2014-09-01T15:32:54Z</time>
      </trkpt>
      <trkpt lat="48.77788" lon="-0.58095">
        <ele>176</ele>
        <time>2014-09-01T15:32:55Z</time>
      </trkpt>
      <trkpt lat="48.77786" lon="-0.58093">
        <ele>176.4</ele>
        <time>2014-09-01T15:32:56Z</time>
      </trkpt>
      <trkpt lat="48.77785" lon="-0.58092">
        <ele>176.8</ele>
        <time>2014-09-01T15:32:57Z</time>
      </trkpt>
      <trkpt lat="48.77784" lon="-0.5809">
        <ele>177.2</ele>
        <time>2014-09-01T15:32:58Z</time>
      </trkpt>
      <trkpt lat="48.7777" lon="-0.58076">
        <ele>180.4</ele>
        <time>2014-09-01T15:33:05Z</time>
      </trkpt>
      <trkpt lat="48.77757" lon="-0.58065">
        <ele>183.4</ele>
        <time>2014-09-01T15:33:11Z</time>
      </trkpt>
      <trkpt lat="48.7774" lon="-0.58047">
        <ele>186.6</ele>
        <time>2014-09-01T15:33:19Z</time>
      </trkpt>
      <trkpt lat="48.77722" lon="-0.58016">
        <ele>190</ele>
        <time>2014-09-01T15:33:29Z</time>
      </trkpt>
      <trkpt lat="48.77712" lon="-0.58">
        <ele>192</ele>
        <time>2014-09-01T15:33:35Z</time>
      </trkpt>
      <trkpt lat="48.77711" lon="-0.57999">
        <ele>192.2</ele>
        <time>2014-09-01T15:33:36Z</time>
      </trkpt>
      <trkpt lat="48.77709" lon="-0.57997">
        <ele>192.4</ele>
        <time>2014-09-01T15:33:37Z</time>
      </trkpt>
      <trkpt lat="48.7769" lon="-0.57967">
        <ele>194.8</ele>
        <time>2014-09-01T15:33:48Z</time>
      </trkpt>
      <trkpt lat="48.7767" lon="-0.57937">
        <ele>197.4</ele>
        <time>2014-09-01T15:33:59Z</time>
      </trkpt>
      <trkpt lat="48.77637" lon="-0.5792">
        <ele>200</ele>
        <time>2014-09-01T15:34:12Z</time>
      </trkpt>
      <trkpt lat="48.77603" lon="-0.57899">
        <ele>202</ele>
        <time>2014-09-01T15:34:25Z</time>
      </trkpt>
      <trkpt lat="48.77579" lon="-0.57879">
        <ele>203.8</ele>
        <time>2014-09-01T15:34:36Z</time>
      </trkpt>
      <trkpt lat="48.77547" lon="-0.57845">
        <ele>202.2</ele>
        <time>2014-09-01T15:34:48Z</time>
      </trkpt>
      <trkpt lat="48.77523" lon="-0.57825">
        <ele>200.6</ele>
        <time>2014-09-01T15:34:54Z</time>
      </trkpt>
      <trkpt lat="48.77518" lon="-0.57824">
        <ele>200.4</ele>
        <time>2014-09-01T15:34:55Z</time>
      </trkpt>
      <trkpt lat="48.77514" lon="-0.57825">
        <ele>200.2</ele>
        <time>2014-09-01T15:34:56Z</time>
      </trkpt>
      <trkpt lat="48.77509" lon="-0.57826">
        <ele>200</ele>
        <time>2014-09-01T15:34:57Z</time>
      </trkpt>
      <trkpt lat="48.77505" lon="-0.57827">
        <ele>199.8</ele>
        <time>2014-09-01T15:34:58Z</time>
      </trkpt>
      <trkpt lat="48.7747" lon="-0.57857">
        <ele>199.4</ele>
        <time>2014-09-01T15:35:10Z</time>
      </trkpt>
      <trkpt lat="48.77429" lon="-0.57901">
        <ele>199.6</ele>
        <time>2014-09-01T15:35:25Z</time>
      </trkpt>
      <trkpt lat="48.7739" lon="-0.57944">
        <ele>199.4</ele>
        <time>2014-09-01T15:35:39Z</time>
      </trkpt>
      <trkpt lat="48.77379" lon="-0.57992">
        <ele>198.8</ele>
        <time>2014-09-01T15:35:51Z</time>
      </trkpt>
      <trkpt lat="48.77381" lon="-0.57994">
        <ele>198.8</ele>
        <time>2014-09-01T15:35:52Z</time>
      </trkpt>
      <trkpt lat="48.77383" lon="-0.57996">
        <ele>198.8</ele>
        <time>2014-09-01T15:35:53Z</time>
      </trkpt>
      <trkpt lat="48.77385" lon="-0.57998">
        <ele>198.8</ele>
        <time>2014-09-01T15:35:54Z</time>
      </trkpt>
      <trkpt lat="48.77388" lon="-0.58001">
        <ele>198.6</ele>
        <time>2014-09-01T15:35:55Z</time>
      </trkpt>
      <trkpt lat="48.7739" lon="-0.58004">
        <ele>198.6</ele>
        <time>2014-09-01T15:35:56Z</time>
      </trkpt>
      <trkpt lat="48.77392" lon="-0.58006">
        <ele>198.6</ele>
        <time>2014-09-01T15:35:57Z</time>
      </trkpt>
      <trkpt lat="48.77395" lon="-0.58008">
        <ele>198.6</ele>
        <time>2014-09-01T15:35:58Z</time>
      </trkpt>
      <trkpt lat="48.77409" lon="-0.5802">
        <ele>198.6</ele>
        <time>2014-09-01T15:36:08Z</time>
      </trkpt>
      <trkpt lat="48.77409" lon="-0.58022">
        <ele>198.8</ele>
        <time>2014-09-01T15:36:09Z</time>
      </trkpt>
      <trkpt lat="48.77408" lon="-0.58024">
        <ele>198.8</ele>
        <time>2014-09-01T15:36:10Z</time>
      </trkpt>
      <trkpt lat="48.77407" lon="-0.58026">
        <ele>198.8</ele>
        <time>2014-09-01T15:36:11Z</time>
      </trkpt>
      <trkpt lat="48.77406" lon="-0.58028">
        <ele>198.8</ele>
        <time>2014-09-01T15:36:12Z</time>
      </trkpt>
      <trkpt lat="48.77405" lon="-0.58031">
        <ele>198.8</ele>
        <time>2014-09-01T15:36:13Z</time>
      </trkpt>
      <trkpt lat="48.77385" lon="-0.58075">
        <ele>197.2</ele>
        <time>2014-09-01T15:36:28Z</time>
      </trkpt>
      <trkpt lat="48.77353" lon="-0.58077">
        <ele>195.2</ele>
        <time>2014-09-01T15:36:36Z</time>
      </trkpt>
      <trkpt lat="48.77313" lon="-0.58067">
        <ele>192</ele>
        <time>2014-09-01T15:36:42Z</time>
      </trkpt>
      <trkpt lat="48.77292" lon="-0.58066">
        <ele>190.2</ele>
        <time>2014-09-01T15:36:45Z</time>
      </trkpt>
      <trkpt lat="48.77287" lon="-0.58063">
        <ele>189.8</ele>
        <time>2014-09-01T15:36:46Z</time>
      </trkpt>
      <trkpt lat="48.77282" lon="-0.5806">
        <ele>189.6</ele>
        <time>2014-09-01T15:36:47Z</time>
      </trkpt>
      <trkpt lat="48.77249" lon="-0.58035">
        <ele>190.8</ele>
        <time>2014-09-01T15:36:58Z</time>
      </trkpt>
      <trkpt lat="48.77226" lon="-0.58039">
        <ele>193</ele>
        <time>2014-09-01T15:37:08Z</time>
      </trkpt>
      <trkpt lat="48.77207" lon="-0.58055">
        <ele>195</ele>
        <time>2014-09-01T15:37:18Z</time>
      </trkpt>
      <trkpt lat="48.77205" lon="-0.58057">
        <ele>195.2</ele>
        <time>2014-09-01T15:37:19Z</time>
      </trkpt>
      <trkpt lat="48.77177" lon="-0.58091">
        <ele>196.8</ele>
        <time>2014-09-01T15:37:32Z</time>
      </trkpt>
      <trkpt lat="48.77147" lon="-0.58125">
        <ele>198</ele>
        <time>2014-09-01T15:37:45Z</time>
      </trkpt>
      <trkpt lat="48.7712" lon="-0.58159">
        <ele>198.4</ele>
        <time>2014-09-01T15:37:56Z</time>
      </trkpt>
      <trkpt lat="48.77085" lon="-0.58193">
        <ele>198.4</ele>
        <time>2014-09-01T15:38:08Z</time>
      </trkpt>
      <trkpt lat="48.7705" lon="-0.5823">
        <ele>197.4</ele>
        <time>2014-09-01T15:38:20Z</time>
      </trkpt>
      <trkpt lat="48.77016" lon="-0.5827">
        <ele>196.6</ele>
        <time>2014-09-01T15:38:31Z</time>
      </trkpt>
      <trkpt lat="48.76979" lon="-0.58293">
        <ele>196.4</ele>
        <time>2014-09-01T15:38:40Z</time>
      </trkpt>
      <trkpt lat="48.76928" lon="-0.58313">
        <ele>195.4</ele>
        <time>2014-09-01T15:38:52Z</time>
      </trkpt>
      <trkpt lat="48.76893" lon="-0.58328">
        <ele>195</ele>
        <time>2014-09-01T15:39:05Z</time>
      </trkpt>
      <trkpt lat="48.76854" lon="-0.58345">
        <ele>194.6</ele>
        <time>2014-09-01T15:39:18Z</time>
      </trkpt>
      <trkpt lat="48.76806" lon="-0.58365">
        <ele>193.6</ele>
        <time>2014-09-01T15:39:34Z</time>
      </trkpt>
      <trkpt lat="48.76755" lon="-0.58371">
        <ele>191.8</ele>
        <time>2014-09-01T15:39:48Z</time>
      </trkpt>
      <trkpt lat="48.76747" lon="-0.58367">
        <ele>191</ele>
        <time>2014-09-01T15:39:54Z</time>
      </trkpt>
      <trkpt lat="48.76746" lon="-0.58364">
        <ele>190.8</ele>
        <time>2014-09-01T15:39:55Z</time>
      </trkpt>
      <trkpt lat="48.76744" lon="-0.58361">
        <ele>190.8</ele>
        <time>2014-09-01T15:39:56Z</time>
      </trkpt>
      <trkpt lat="48.76743" lon="-0.58357">
        <ele>190.6</ele>
        <time>2014-09-01T15:39:57Z</time>
      </trkpt>
      <trkpt lat="48.76743" lon="-0.58352">
        <ele>190.4</ele>
        <time>2014-09-01T15:39:58Z</time>
      </trkpt>
      <trkpt lat="48.76743" lon="-0.58347">
        <ele>190.4</ele>
        <time>2014-09-01T15:39:59Z</time>
      </trkpt>
      <trkpt lat="48.76743" lon="-0.58341">
        <ele>190.2</ele>
        <time>2014-09-01T15:40:00Z</time>
      </trkpt>
      <trkpt lat="48.76743" lon="-0.58329">
        <ele>189.8</ele>
        <time>2014-09-01T15:40:02Z</time>
      </trkpt>
      <trkpt lat="48.76743" lon="-0.58315">
        <ele>189.4</ele>
        <time>2014-09-01T15:40:04Z</time>
      </trkpt>
      <trkpt lat="48.76743" lon="-0.58309">
        <ele>189.2</ele>
        <time>2014-09-01T15:40:05Z</time>
      </trkpt>
      <trkpt lat="48.76743" lon="-0.58303">
        <ele>189.2</ele>
        <time>2014-09-01T15:40:06Z</time>
      </trkpt>
      <trkpt lat="48.76739" lon="-0.58271">
        <ele>188.8</ele>
        <time>2014-09-01T15:40:12Z</time>
      </trkpt>
      <trkpt lat="48.76736" lon="-0.58268">
        <ele>188.6</ele>
        <time>2014-09-01T15:40:13Z</time>
      </trkpt>
      <trkpt lat="48.76733" lon="-0.58265">
        <ele>188.6</ele>
        <time>2014-09-01T15:40:14Z</time>
      </trkpt>
      <trkpt lat="48.76705" lon="-0.58242">
        <ele>187.6</ele>
        <time>2014-09-01T15:40:20Z</time>
      </trkpt>
      <trkpt lat="48.767" lon="-0.5824">
        <ele>187.4</ele>
        <time>2014-09-01T15:40:21Z</time>
      </trkpt>
      <trkpt lat="48.76661" lon="-0.58238">
        <ele>187.2</ele>
        <time>2014-09-01T15:40:32Z</time>
      </trkpt>
      <trkpt lat="48.76633" lon="-0.58258">
        <ele>189.2</ele>
        <time>2014-09-01T15:40:43Z</time>
      </trkpt>
      <trkpt lat="48.76602" lon="-0.58288">
        <ele>189</ele>
        <time>2014-09-01T15:40:53Z</time>
      </trkpt>
      <trkpt lat="48.76599" lon="-0.58294">
        <ele>188.8</ele>
        <time>2014-09-01T15:40:54Z</time>
      </trkpt>
      <trkpt lat="48.76587" lon="-0.58312">
        <ele>188.2</ele>
        <time>2014-09-01T15:40:57Z</time>
      </trkpt>
      <trkpt lat="48.76547" lon="-0.58367">
        <ele>186</ele>
        <time>2014-09-01T15:41:07Z</time>
      </trkpt>
      <trkpt lat="48.76543" lon="-0.5837">
        <ele>185.8</ele>
        <time>2014-09-01T15:41:08Z</time>
      </trkpt>
      <trkpt lat="48.76539" lon="-0.58372">
        <ele>185.8</ele>
        <time>2014-09-01T15:41:09Z</time>
      </trkpt>
      <trkpt lat="48.76535" lon="-0.58373">
        <ele>185.6</ele>
        <time>2014-09-01T15:41:10Z</time>
      </trkpt>
      <trkpt lat="48.76531" lon="-0.58372">
        <ele>185.6</ele>
        <time>2014-09-01T15:41:11Z</time>
      </trkpt>
      <trkpt lat="48.76528" lon="-0.58369">
        <ele>185.6</ele>
        <time>2014-09-01T15:41:12Z</time>
      </trkpt>
      <trkpt lat="48.76525" lon="-0.58366">
        <ele>185.4</ele>
        <time>2014-09-01T15:41:13Z</time>
      </trkpt>
      <trkpt lat="48.76522" lon="-0.58363">
        <ele>185.4</ele>
        <time>2014-09-01T15:41:14Z</time>
      </trkpt>
      <trkpt lat="48.76521" lon="-0.5836">
        <ele>185.4</ele>
        <time>2014-09-01T15:41:15Z</time>
      </trkpt>
      <trkpt lat="48.7652" lon="-0.58356">
        <ele>185.4</ele>
        <time>2014-09-01T15:41:16Z</time>
      </trkpt>
      <trkpt lat="48.76516" lon="-0.58346">
        <ele>185.6</ele>
        <time>2014-09-01T15:41:18Z</time>
      </trkpt>
      <trkpt lat="48.76514" lon="-0.5834">
        <ele>185.8</ele>
        <time>2014-09-01T15:41:19Z</time>
      </trkpt>
      <trkpt lat="48.76513" lon="-0.58333">
        <ele>186</ele>
        <time>2014-09-01T15:41:20Z</time>
      </trkpt>
      <trkpt lat="48.76512" lon="-0.58326">
        <ele>186.2</ele>
        <time>2014-09-01T15:41:21Z</time>
      </trkpt>
      <trkpt lat="48.76511" lon="-0.58318">
        <ele>186.4</ele>
        <time>2014-09-01T15:41:22Z</time>
      </trkpt>
      <trkpt lat="48.76511" lon="-0.5831">
        <ele>186.6</ele>
        <time>2014-09-01T15:41:23Z</time>
      </trkpt>
      <trkpt lat="48.7651" lon="-0.58302">
        <ele>186.8</ele>
        <time>2014-09-01T15:41:24Z</time>
      </trkpt>
      <trkpt lat="48.76509" lon="-0.58294">
        <ele>187</ele>
        <time>2014-09-01T15:41:25Z</time>
      </trkpt>
      <trkpt lat="48.76509" lon="-0.58255">
        <ele>189.2</ele>
        <time>2014-09-01T15:41:31Z</time>
      </trkpt>
      <trkpt lat="48.7651" lon="-0.58248">
        <ele>189.6</ele>
        <time>2014-09-01T15:41:32Z</time>
      </trkpt>
      <trkpt lat="48.76509" lon="-0.58241">
        <ele>190.2</ele>
        <time>2014-09-01T15:41:33Z</time>
      </trkpt>
      <trkpt lat="48.76507" lon="-0.58225">
        <ele>190.8</ele>
        <time>2014-09-01T15:41:35Z</time>
      </trkpt>
      <trkpt lat="48.76504" lon="-0.58201">
        <ele>191.6</ele>
        <time>2014-09-01T15:41:38Z</time>
      </trkpt>
      <trkpt lat="48.76502" lon="-0.58194">
        <ele>192</ele>
        <time>2014-09-01T15:41:39Z</time>
      </trkpt>
      <trkpt lat="48.76491" lon="-0.58132">
        <ele>194.4</ele>
        <time>2014-09-01T15:41:47Z</time>
      </trkpt>
      <trkpt lat="48.7649" lon="-0.58125">
        <ele>194.4</ele>
        <time>2014-09-01T15:41:48Z</time>
      </trkpt>
      <trkpt lat="48.76488" lon="-0.58118">
        <ele>194.6</ele>
        <time>2014-09-01T15:41:49Z</time>
      </trkpt>
      <trkpt lat="48.76486" lon="-0.5811">
        <ele>194.8</ele>
        <time>2014-09-01T15:41:50Z</time>
      </trkpt>
      <trkpt lat="48.76479" lon="-0.58086">
        <ele>195.6</ele>
        <time>2014-09-01T15:41:53Z</time>
      </trkpt>
      <trkpt lat="48.76473" lon="-0.5805">
        <ele>196.6</ele>
        <time>2014-09-01T15:41:58Z</time>
      </trkpt>
      <trkpt lat="48.76471" lon="-0.58043">
        <ele>196.8</ele>
        <time>2014-09-01T15:41:59Z</time>
      </trkpt>
      <trkpt lat="48.76468" lon="-0.58035">
        <ele>197</ele>
        <time>2014-09-01T15:42:00Z</time>
      </trkpt>
      <trkpt lat="48.76465" lon="-0.58027">
        <ele>197.2</ele>
        <time>2014-09-01T15:42:01Z</time>
      </trkpt>
      <trkpt lat="48.76462" lon="-0.58019">
        <ele>197.4</ele>
        <time>2014-09-01T15:42:02Z</time>
      </trkpt>
      <trkpt lat="48.76457" lon="-0.58004">
        <ele>197.8</ele>
        <time>2014-09-01T15:42:04Z</time>
      </trkpt>
      <trkpt lat="48.76452" lon="-0.5799">
        <ele>198.2</ele>
        <time>2014-09-01T15:42:06Z</time>
      </trkpt>
      <trkpt lat="48.76433" lon="-0.57922">
        <ele>201.4</ele>
        <time>2014-09-01T15:42:15Z</time>
      </trkpt>
      <trkpt lat="48.76426" lon="-0.57884">
        <ele>202.8</ele>
        <time>2014-09-01T15:42:20Z</time>
      </trkpt>
      <trkpt lat="48.7642" lon="-0.57837">
        <ele>206</ele>
        <time>2014-09-01T15:42:27Z</time>
      </trkpt>
      <trkpt lat="48.76418" lon="-0.57822">
        <ele>206.8</ele>
        <time>2014-09-01T15:42:29Z</time>
      </trkpt>
      <trkpt lat="48.76415" lon="-0.57783">
        <ele>208.2</ele>
        <time>2014-09-01T15:42:34Z</time>
      </trkpt>
      <trkpt lat="48.76411" lon="-0.57755">
        <ele>209</ele>
        <time>2014-09-01T15:42:38Z</time>
      </trkpt>
      <trkpt lat="48.76397" lon="-0.57675">
        <ele>211.4</ele>
        <time>2014-09-01T15:42:50Z</time>
      </trkpt>
      <trkpt lat="48.76386" lon="-0.57609">
        <ele>212.6</ele>
        <time>2014-09-01T15:43:00Z</time>
      </trkpt>
      <trkpt lat="48.76385" lon="-0.57594">
        <ele>212.6</ele>
        <time>2014-09-01T15:43:02Z</time>
      </trkpt>
      <trkpt lat="48.76386" lon="-0.57577">
        <ele>212.8</ele>
        <time>2014-09-01T15:43:04Z</time>
      </trkpt>
      <trkpt lat="48.7639" lon="-0.5754">
        <ele>212.6</ele>
        <time>2014-09-01T15:43:08Z</time>
      </trkpt>
      <trkpt lat="48.76396" lon="-0.57477">
        <ele>211.4</ele>
        <time>2014-09-01T15:43:14Z</time>
      </trkpt>
      <trkpt lat="48.76398" lon="-0.57467">
        <ele>211.2</ele>
        <time>2014-09-01T15:43:15Z</time>
      </trkpt>
      <trkpt lat="48.76399" lon="-0.57456">
        <ele>211</ele>
        <time>2014-09-01T15:43:16Z</time>
      </trkpt>
      <trkpt lat="48.764" lon="-0.57446">
        <ele>210.8</ele>
        <time>2014-09-01T15:43:17Z</time>
      </trkpt>
      <trkpt lat="48.76401" lon="-0.57435">
        <ele>210.6</ele>
        <time>2014-09-01T15:43:18Z</time>
      </trkpt>
      <trkpt lat="48.76401" lon="-0.57346">
        <ele>208.8</ele>
        <time>2014-09-01T15:43:27Z</time>
      </trkpt>
      <trkpt lat="48.76399" lon="-0.57339">
        <ele>208.8</ele>
        <time>2014-09-01T15:43:28Z</time>
      </trkpt>
      <trkpt lat="48.76398" lon="-0.57333">
        <ele>208.8</ele>
        <time>2014-09-01T15:43:29Z</time>
      </trkpt>
      <trkpt lat="48.76397" lon="-0.57326">
        <ele>208.8</ele>
        <time>2014-09-01T15:43:30Z</time>
      </trkpt>
      <trkpt lat="48.76397" lon="-0.5732">
        <ele>208.8</ele>
        <time>2014-09-01T15:43:31Z</time>
      </trkpt>
      <trkpt lat="48.76394" lon="-0.57297">
        <ele>208.8</ele>
        <time>2014-09-01T15:43:35Z</time>
      </trkpt>
      <trkpt lat="48.76393" lon="-0.57289">
        <ele>208.8</ele>
        <time>2014-09-01T15:43:36Z</time>
      </trkpt>
      <trkpt lat="48.76377" lon="-0.57226">
        <ele>209</ele>
        <time>2014-09-01T15:43:45Z</time>
      </trkpt>
      <trkpt lat="48.7637" lon="-0.57188">
        <ele>209.6</ele>
        <time>2014-09-01T15:43:53Z</time>
      </trkpt>
      <trkpt lat="48.76369" lon="-0.57182">
        <ele>210.4</ele>
        <time>2014-09-01T15:43:57Z</time>
      </trkpt>
      <trkpt lat="48.76368" lon="-0.5718">
        <ele>210.4</ele>
        <time>2014-09-01T15:43:58Z</time>
      </trkpt>
      <trkpt lat="48.76367" lon="-0.57178">
        <ele>210.6</ele>
        <time>2014-09-01T15:43:59Z</time>
      </trkpt>
      <trkpt lat="48.76364" lon="-0.57176">
        <ele>210.8</ele>
        <time>2014-09-01T15:44:00Z</time>
      </trkpt>
      <trkpt lat="48.76363" lon="-0.57172">
        <ele>210.8</ele>
        <time>2014-09-01T15:44:01Z</time>
      </trkpt>
      <trkpt lat="48.76361" lon="-0.57167">
        <ele>211</ele>
        <time>2014-09-01T15:44:02Z</time>
      </trkpt>
      <trkpt lat="48.7636" lon="-0.57163">
        <ele>211</ele>
        <time>2014-09-01T15:44:03Z</time>
      </trkpt>
      <trkpt lat="48.76348" lon="-0.5714">
        <ele>211.4</ele>
        <time>2014-09-01T15:44:08Z</time>
      </trkpt>
      <trkpt lat="48.76345" lon="-0.57135">
        <ele>211.6</ele>
        <time>2014-09-01T15:44:09Z</time>
      </trkpt>
      <trkpt lat="48.76344" lon="-0.57129">
        <ele>211.6</ele>
        <time>2014-09-01T15:44:10Z</time>
      </trkpt>
      <trkpt lat="48.76342" lon="-0.57122">
        <ele>211.8</ele>
        <time>2014-09-01T15:44:11Z</time>
      </trkpt>
      <trkpt lat="48.76342" lon="-0.57116">
        <ele>212</ele>
        <time>2014-09-01T15:44:12Z</time>
      </trkpt>
      <trkpt lat="48.76342" lon="-0.57109">
        <ele>212</ele>
        <time>2014-09-01T15:44:13Z</time>
      </trkpt>
      <trkpt lat="48.76342" lon="-0.57102">
        <ele>212.2</ele>
        <time>2014-09-01T15:44:14Z</time>
      </trkpt>
      <trkpt lat="48.76342" lon="-0.57095">
        <ele>212.2</ele>
        <time>2014-09-01T15:44:15Z</time>
      </trkpt>
      <trkpt lat="48.76346" lon="-0.57046">
        <ele>214.2</ele>
        <time>2014-09-01T15:44:25Z</time>
      </trkpt>
      <trkpt lat="48.76345" lon="-0.57044">
        <ele>214.4</ele>
        <time>2014-09-01T15:44:26Z</time>
      </trkpt>
      <trkpt lat="48.76342" lon="-0.57043">
        <ele>214.6</ele>
        <time>2014-09-01T15:44:27Z</time>
      </trkpt>
      <trkpt lat="48.7634" lon="-0.57042">
        <ele>214.8</ele>
        <time>2014-09-01T15:44:28Z</time>
      </trkpt>
      <trkpt lat="48.76337" lon="-0.57039">
        <ele>215</ele>
        <time>2014-09-01T15:44:29Z</time>
      </trkpt>
      <trkpt lat="48.76334" lon="-0.57037">
        <ele>215.2</ele>
        <time>2014-09-01T15:44:30Z</time>
      </trkpt>
      <trkpt lat="48.76302" lon="-0.57007">
        <ele>217</ele>
        <time>2014-09-01T15:44:39Z</time>
      </trkpt>
      <trkpt lat="48.76271" lon="-0.56989">
        <ele>217.8</ele>
        <time>2014-09-01T15:44:46Z</time>
      </trkpt>
      <trkpt lat="48.76262" lon="-0.56985">
        <ele>217.8</ele>
        <time>2014-09-01T15:44:48Z</time>
      </trkpt>
      <trkpt lat="48.76257" lon="-0.56982">
        <ele>217.6</ele>
        <time>2014-09-01T15:44:49Z</time>
      </trkpt>
      <trkpt lat="48.76252" lon="-0.56979">
        <ele>217.6</ele>
        <time>2014-09-01T15:44:50Z</time>
      </trkpt>
      <trkpt lat="48.76248" lon="-0.56975">
        <ele>217.6</ele>
        <time>2014-09-01T15:44:51Z</time>
      </trkpt>
      <trkpt lat="48.76244" lon="-0.5697">
        <ele>217.4</ele>
        <time>2014-09-01T15:44:52Z</time>
      </trkpt>
      <trkpt lat="48.7624" lon="-0.56965">
        <ele>217</ele>
        <time>2014-09-01T15:44:53Z</time>
      </trkpt>
      <trkpt lat="48.76237" lon="-0.56958">
        <ele>216.8</ele>
        <time>2014-09-01T15:44:54Z</time>
      </trkpt>
      <trkpt lat="48.76234" lon="-0.5695">
        <ele>216.4</ele>
        <time>2014-09-01T15:44:55Z</time>
      </trkpt>
      <trkpt lat="48.7623" lon="-0.56944">
        <ele>216</ele>
        <time>2014-09-01T15:44:56Z</time>
      </trkpt>
      <trkpt lat="48.76227" lon="-0.56937">
        <ele>215.6</ele>
        <time>2014-09-01T15:44:57Z</time>
      </trkpt>
      <trkpt lat="48.76222" lon="-0.56932">
        <ele>215.4</ele>
        <time>2014-09-01T15:44:58Z</time>
      </trkpt>
      <trkpt lat="48.76217" lon="-0.56927">
        <ele>215</ele>
        <time>2014-09-01T15:44:59Z</time>
      </trkpt>
      <trkpt lat="48.76212" lon="-0.56922">
        <ele>214.8</ele>
        <time>2014-09-01T15:45:00Z</time>
      </trkpt>
      <trkpt lat="48.76207" lon="-0.56918">
        <ele>214.6</ele>
        <time>2014-09-01T15:45:01Z</time>
      </trkpt>
      <trkpt lat="48.76202" lon="-0.56916">
        <ele>214.4</ele>
        <time>2014-09-01T15:45:02Z</time>
      </trkpt>
      <trkpt lat="48.76196" lon="-0.56913">
        <ele>214.2</ele>
        <time>2014-09-01T15:45:03Z</time>
      </trkpt>
      <trkpt lat="48.76163" lon="-0.56904">
        <ele>213.4</ele>
        <time>2014-09-01T15:45:08Z</time>
      </trkpt>
      <trkpt lat="48.76096" lon="-0.56867">
        <ele>214</ele>
        <time>2014-09-01T15:45:21Z</time>
      </trkpt>
      <trkpt lat="48.76046" lon="-0.56846">
        <ele>214</ele>
        <time>2014-09-01T15:45:29Z</time>
      </trkpt>
      <trkpt lat="48.75977" lon="-0.5683">
        <ele>213.6</ele>
        <time>2014-09-01T15:45:42Z</time>
      </trkpt>
      <trkpt lat="48.75963" lon="-0.56828">
        <ele>213.8</ele>
        <time>2014-09-01T15:45:47Z</time>
      </trkpt>
      <trkpt lat="48.75961" lon="-0.5683">
        <ele>213.6</ele>
        <time>2014-09-01T15:45:48Z</time>
      </trkpt>
      <trkpt lat="48.75959" lon="-0.56834">
        <ele>213.6</ele>
        <time>2014-09-01T15:45:49Z</time>
      </trkpt>
      <trkpt lat="48.75936" lon="-0.56901">
        <ele>210.6</ele>
        <time>2014-09-01T15:45:59Z</time>
      </trkpt>
      <trkpt lat="48.75933" lon="-0.56909">
        <ele>210.6</ele>
        <time>2014-09-01T15:46:00Z</time>
      </trkpt>
      <trkpt lat="48.75913" lon="-0.56973">
        <ele>207.6</ele>
        <time>2014-09-01T15:46:09Z</time>
      </trkpt>
      <trkpt lat="48.75911" lon="-0.56983">
        <ele>207.2</ele>
        <time>2014-09-01T15:46:12Z</time>
      </trkpt>
      <trkpt lat="48.75909" lon="-0.56985">
        <ele>206.6</ele>
        <time>2014-09-01T15:46:17Z</time>
      </trkpt>
      <trkpt lat="48.759" lon="-0.56999">
        <ele>206.2</ele>
        <time>2014-09-01T15:46:27Z</time>
      </trkpt>
      <trkpt lat="48.75895" lon="-0.57011">
        <ele>206.2</ele>
        <time>2014-09-01T15:46:29Z</time>
      </trkpt>
      <trkpt lat="48.75866" lon="-0.57091">
        <ele>204.8</ele>
        <time>2014-09-01T15:46:40Z</time>
      </trkpt>
      <trkpt lat="48.75834" lon="-0.57167">
        <ele>203.6</ele>
        <time>2014-09-01T15:46:51Z</time>
      </trkpt>
      <trkpt lat="48.75822" lon="-0.57212">
        <ele>202.2</ele>
        <time>2014-09-01T15:46:56Z</time>
      </trkpt>
      <trkpt lat="48.75799" lon="-0.57305">
        <ele>200.2</ele>
        <time>2014-09-01T15:47:06Z</time>
      </trkpt>
      <trkpt lat="48.75771" lon="-0.57413">
        <ele>198</ele>
        <time>2014-09-01T15:47:19Z</time>
      </trkpt>
      <trkpt lat="48.75769" lon="-0.57421">
        <ele>197.8</ele>
        <time>2014-09-01T15:47:20Z</time>
      </trkpt>
      <trkpt lat="48.75752" lon="-0.57494">
        <ele>196.4</ele>
        <time>2014-09-01T15:47:31Z</time>
      </trkpt>
      <trkpt lat="48.7574" lon="-0.57541">
        <ele>195.8</ele>
        <time>2014-09-01T15:47:43Z</time>
      </trkpt>
      <trkpt lat="48.75739" lon="-0.57542">
        <ele>195.8</ele>
        <time>2014-09-01T15:47:46Z</time>
      </trkpt>
      <trkpt lat="48.75731" lon="-0.57542">
        <ele>195.4</ele>
        <time>2014-09-01T15:47:59Z</time>
      </trkpt>
      <trkpt lat="48.75727" lon="-0.57539">
        <ele>195.4</ele>
        <time>2014-09-01T15:48:00Z</time>
      </trkpt>
      <trkpt lat="48.75672" lon="-0.57482">
        <ele>195.4</ele>
        <time>2014-09-01T15:48:16Z</time>
      </trkpt>
      <trkpt lat="48.75611" lon="-0.57419">
        <ele>195</ele>
        <time>2014-09-01T15:48:34Z</time>
      </trkpt>
      <trkpt lat="48.75562" lon="-0.57365">
        <ele>194.6</ele>
        <time>2014-09-01T15:48:51Z</time>
      </trkpt>
      <trkpt lat="48.75522" lon="-0.57322">
        <ele>194.4</ele>
        <time>2014-09-01T15:49:08Z</time>
      </trkpt>
      <trkpt lat="48.75479" lon="-0.57286">
        <ele>193.6</ele>
        <time>2014-09-01T15:49:22Z</time>
      </trkpt>
      <trkpt lat="48.75448" lon="-0.57266">
        <ele>192</ele>
        <time>2014-09-01T15:49:31Z</time>
      </trkpt>
      <trkpt lat="48.75446" lon="-0.57268">
        <ele>191.8</ele>
        <time>2014-09-01T15:49:32Z</time>
      </trkpt>
      <trkpt lat="48.75445" lon="-0.57271">
        <ele>191.8</ele>
        <time>2014-09-01T15:49:33Z</time>
      </trkpt>
      <trkpt lat="48.75444" lon="-0.57274">
        <ele>191.6</ele>
        <time>2014-09-01T15:49:34Z</time>
      </trkpt>
      <trkpt lat="48.75442" lon="-0.57278">
        <ele>191.6</ele>
        <time>2014-09-01T15:49:35Z</time>
      </trkpt>
      <trkpt lat="48.75441" lon="-0.57282">
        <ele>191.4</ele>
        <time>2014-09-01T15:49:36Z</time>
      </trkpt>
      <trkpt lat="48.7542" lon="-0.5733">
        <ele>191.8</ele>
        <time>2014-09-01T15:49:50Z</time>
      </trkpt>
      <trkpt lat="48.75406" lon="-0.57365">
        <ele>192.2</ele>
        <time>2014-09-01T15:50:04Z</time>
      </trkpt>
      <trkpt lat="48.75392" lon="-0.57402">
        <ele>191.4</ele>
        <time>2014-09-01T15:50:18Z</time>
      </trkpt>
      <trkpt lat="48.75374" lon="-0.57444">
        <ele>189.6</ele>
        <time>2014-09-01T15:50:32Z</time>
      </trkpt>
      <trkpt lat="48.75354" lon="-0.57471">
        <ele>188.4</ele>
        <time>2014-09-01T15:50:42Z</time>
      </trkpt>
      <trkpt lat="48.75352" lon="-0.5747">
        <ele>188</ele>
        <time>2014-09-01T15:50:43Z</time>
      </trkpt>
      <trkpt lat="48.75349" lon="-0.57468">
        <ele>187.8</ele>
        <time>2014-09-01T15:50:44Z</time>
      </trkpt>
      <trkpt lat="48.75298" lon="-0.57437">
        <ele>184.8</ele>
        <time>2014-09-01T15:50:55Z</time>
      </trkpt>
      <trkpt lat="48.75252" lon="-0.57412">
        <ele>184.8</ele>
        <time>2014-09-01T15:51:08Z</time>
      </trkpt>
      <trkpt lat="48.75248" lon="-0.57413">
        <ele>185</ele>
        <time>2014-09-01T15:51:12Z</time>
      </trkpt>
      <trkpt lat="48.75247" lon="-0.57415">
        <ele>185.2</ele>
        <time>2014-09-01T15:51:13Z</time>
      </trkpt>
      <trkpt lat="48.75239" lon="-0.57453">
        <ele>184.8</ele>
        <time>2014-09-01T15:51:20Z</time>
      </trkpt>
      <trkpt lat="48.75233" lon="-0.57487">
        <ele>184.2</ele>
        <time>2014-09-01T15:51:25Z</time>
      </trkpt>
      <trkpt lat="48.75231" lon="-0.57493">
        <ele>184</ele>
        <time>2014-09-01T15:51:26Z</time>
      </trkpt>
      <trkpt lat="48.75227" lon="-0.57496">
        <ele>183.8</ele>
        <time>2014-09-01T15:51:27Z</time>
      </trkpt>
      <trkpt lat="48.75224" lon="-0.57494">
        <ele>183.8</ele>
        <time>2014-09-01T15:51:28Z</time>
      </trkpt>
      <trkpt lat="48.75221" lon="-0.5749">
        <ele>183.6</ele>
        <time>2014-09-01T15:51:29Z</time>
      </trkpt>
      <trkpt lat="48.75218" lon="-0.57484">
        <ele>183.6</ele>
        <time>2014-09-01T15:51:30Z</time>
      </trkpt>
      <trkpt lat="48.75216" lon="-0.57479">
        <ele>183.6</ele>
        <time>2014-09-01T15:51:31Z</time>
      </trkpt>
      <trkpt lat="48.75213" lon="-0.57473">
        <ele>183.4</ele>
        <time>2014-09-01T15:51:32Z</time>
      </trkpt>
      <trkpt lat="48.7521" lon="-0.57468">
        <ele>183.4</ele>
        <time>2014-09-01T15:51:33Z</time>
      </trkpt>
      <trkpt lat="48.75206" lon="-0.57463">
        <ele>183.4</ele>
        <time>2014-09-01T15:51:34Z</time>
      </trkpt>
      <trkpt lat="48.75202" lon="-0.57458">
        <ele>183.4</ele>
        <time>2014-09-01T15:51:35Z</time>
      </trkpt>
      <trkpt lat="48.75198" lon="-0.57454">
        <ele>183.6</ele>
        <time>2014-09-01T15:51:36Z</time>
      </trkpt>
      <trkpt lat="48.75124" lon="-0.57388">
        <ele>184</ele>
        <time>2014-09-01T15:51:54Z</time>
      </trkpt>
      <trkpt lat="48.75065" lon="-0.57339">
        <ele>184.6</ele>
        <time>2014-09-01T15:52:09Z</time>
      </trkpt>
      <trkpt lat="48.74996" lon="-0.57277">
        <ele>184.8</ele>
        <time>2014-09-01T15:52:26Z</time>
      </trkpt>
      <trkpt lat="48.74925" lon="-0.57213">
        <ele>185.6</ele>
        <time>2014-09-01T15:52:43Z</time>
      </trkpt>
      <trkpt lat="48.74867" lon="-0.57163">
        <ele>186</ele>
        <time>2014-09-01T15:52:59Z</time>
      </trkpt>
      <trkpt lat="48.74845" lon="-0.57143">
        <ele>186.6</ele>
        <time>2014-09-01T15:53:09Z</time>
      </trkpt>
      <trkpt lat="48.74842" lon="-0.57142">
        <ele>186.6</ele>
        <time>2014-09-01T15:53:10Z</time>
      </trkpt>
      <trkpt lat="48.7484" lon="-0.57141">
        <ele>186.6</ele>
        <time>2014-09-01T15:53:11Z</time>
      </trkpt>
      <trkpt lat="48.74819" lon="-0.57125">
        <ele>186.8</ele>
        <time>2014-09-01T15:53:18Z</time>
      </trkpt>
      <trkpt lat="48.74817" lon="-0.57128">
        <ele>186.8</ele>
        <time>2014-09-01T15:53:19Z</time>
      </trkpt>
      <trkpt lat="48.74815" lon="-0.57132">
        <ele>186.8</ele>
        <time>2014-09-01T15:53:20Z</time>
      </trkpt>
      <trkpt lat="48.74814" lon="-0.57137">
        <ele>186.6</ele>
        <time>2014-09-01T15:53:21Z</time>
      </trkpt>
      <trkpt lat="48.74812" lon="-0.57142">
        <ele>186.6</ele>
        <time>2014-09-01T15:53:22Z</time>
      </trkpt>
      <trkpt lat="48.7481" lon="-0.57148">
        <ele>186.6</ele>
        <time>2014-09-01T15:53:23Z</time>
      </trkpt>
      <trkpt lat="48.7479" lon="-0.57198">
        <ele>186</ele>
        <time>2014-09-01T15:53:36Z</time>
      </trkpt>
      <trkpt lat="48.74789" lon="-0.57201">
        <ele>186</ele>
        <time>2014-09-01T15:53:40Z</time>
      </trkpt>
    </trkseg>
  </trk>
</gpx>